<?xml version="1.0" encoding="UTF-8" standalone="no" ?>
<gpx xmlns="http://www.topografix.com/GPX/1/1" xmlns:xsi="http://www.w3.org/2001/XMLSchema-instance" xsi:schemaLocation="http://www.topografix.com/GPX/1/1 http://www.topografix.com/GPX/1/1/gpx.xsd" version="1.1" creator="VisuGPX - https://www.visugpx.com">
  <metadata>
    <name>9927739-Petites Pyrénées 2020</name>
  </metadata>
  <trk>
    <name><![CDATA[9927739-Petites Pyrénées 2020]]></name>
    <trkseg>
      <trkpt lat="43.20453" lon="1.09309">
        <ele>238</ele>
        <time>2021-05-16T10:30:56Z</time>
      </trkpt>
      <trkpt lat="43.20458" lon="1.09253">
        <ele>238</ele>
        <time>2021-05-16T10:31:03Z</time>
      </trkpt>
      <trkpt lat="43.20462" lon="1.09125">
        <ele>238</ele>
        <time>2021-05-16T10:31:20Z</time>
      </trkpt>
      <trkpt lat="43.2046" lon="1.09074">
        <ele>237</ele>
        <time>2021-05-16T10:31:27Z</time>
      </trkpt>
      <trkpt lat="43.20451" lon="1.0895">
        <ele>237</ele>
        <time>2021-05-16T10:31:43Z</time>
      </trkpt>
      <trkpt lat="43.20444" lon="1.08925">
        <ele>237</ele>
        <time>2021-05-16T10:31:46Z</time>
      </trkpt>
      <trkpt lat="43.20433" lon="1.08908">
        <ele>236</ele>
        <time>2021-05-16T10:31:49Z</time>
      </trkpt>
      <trkpt lat="43.20422" lon="1.08898">
        <ele>236</ele>
        <time>2021-05-16T10:31:51Z</time>
      </trkpt>
      <trkpt lat="43.20404" lon="1.08886">
        <ele>237</ele>
        <time>2021-05-16T10:31:55Z</time>
      </trkpt>
      <trkpt lat="43.20394" lon="1.08868">
        <ele>237</ele>
        <time>2021-05-16T10:31:58Z</time>
      </trkpt>
      <trkpt lat="43.2039" lon="1.08863">
        <ele>237</ele>
        <time>2021-05-16T10:31:59Z</time>
      </trkpt>
      <trkpt lat="43.20383" lon="1.0886">
        <ele>237</ele>
        <time>2021-05-16T10:32:00Z</time>
      </trkpt>
      <trkpt lat="43.20377" lon="1.08861">
        <ele>237</ele>
        <time>2021-05-16T10:32:01Z</time>
      </trkpt>
      <trkpt lat="43.20371" lon="1.08863">
        <ele>237</ele>
        <time>2021-05-16T10:32:02Z</time>
      </trkpt>
      <trkpt lat="43.20359" lon="1.08872">
        <ele>238</ele>
        <time>2021-05-16T10:32:05Z</time>
      </trkpt>
      <trkpt lat="43.20346" lon="1.08873">
        <ele>238</ele>
        <time>2021-05-16T10:32:07Z</time>
      </trkpt>
      <trkpt lat="43.20337" lon="1.08872">
        <ele>239</ele>
        <time>2021-05-16T10:32:09Z</time>
      </trkpt>
      <trkpt lat="43.20312" lon="1.08862">
        <ele>239</ele>
        <time>2021-05-16T10:32:13Z</time>
      </trkpt>
      <trkpt lat="43.2029" lon="1.08861">
        <ele>240</ele>
        <time>2021-05-16T10:32:17Z</time>
      </trkpt>
      <trkpt lat="43.20223" lon="1.08895">
        <ele>244</ele>
        <time>2021-05-16T10:32:30Z</time>
      </trkpt>
      <trkpt lat="43.20193" lon="1.08907">
        <ele>246</ele>
        <time>2021-05-16T10:32:36Z</time>
      </trkpt>
      <trkpt lat="43.20138" lon="1.08937">
        <ele>250</ele>
        <time>2021-05-16T10:32:46Z</time>
      </trkpt>
      <trkpt lat="43.20118" lon="1.08913">
        <ele>250</ele>
        <time>2021-05-16T10:32:51Z</time>
      </trkpt>
      <trkpt lat="43.20104" lon="1.08905">
        <ele>249</ele>
        <time>2021-05-16T10:32:54Z</time>
      </trkpt>
      <trkpt lat="43.2008" lon="1.08898">
        <ele>249</ele>
        <time>2021-05-16T10:32:58Z</time>
      </trkpt>
      <trkpt lat="43.20078" lon="1.08887">
        <ele>247</ele>
        <time>2021-05-16T10:32:59Z</time>
      </trkpt>
      <trkpt lat="43.20052" lon="1.08865">
        <ele>245</ele>
        <time>2021-05-16T10:33:05Z</time>
      </trkpt>
      <trkpt lat="43.20014" lon="1.08828">
        <ele>242</ele>
        <time>2021-05-16T10:33:13Z</time>
      </trkpt>
      <trkpt lat="43.19999" lon="1.08808">
        <ele>241</ele>
        <time>2021-05-16T10:33:17Z</time>
      </trkpt>
      <trkpt lat="43.19963" lon="1.08738">
        <ele>238</ele>
        <time>2021-05-16T10:33:28Z</time>
      </trkpt>
      <trkpt lat="43.19949" lon="1.08728">
        <ele>237</ele>
        <time>2021-05-16T10:33:31Z</time>
      </trkpt>
      <trkpt lat="43.19938" lon="1.08723">
        <ele>237</ele>
        <time>2021-05-16T10:33:33Z</time>
      </trkpt>
      <trkpt lat="43.19915" lon="1.08719">
        <ele>237</ele>
        <time>2021-05-16T10:33:37Z</time>
      </trkpt>
      <trkpt lat="43.19916" lon="1.08672">
        <ele>237</ele>
        <time>2021-05-16T10:33:43Z</time>
      </trkpt>
      <trkpt lat="43.19909" lon="1.08644">
        <ele>238</ele>
        <time>2021-05-16T10:33:47Z</time>
      </trkpt>
      <trkpt lat="43.19868" lon="1.08562">
        <ele>238</ele>
        <time>2021-05-16T10:34:00Z</time>
      </trkpt>
      <trkpt lat="43.19861" lon="1.08541">
        <ele>238</ele>
        <time>2021-05-16T10:34:03Z</time>
      </trkpt>
      <trkpt lat="43.19858" lon="1.08523">
        <ele>238</ele>
        <time>2021-05-16T10:34:05Z</time>
      </trkpt>
      <trkpt lat="43.19855" lon="1.08488">
        <ele>237</ele>
        <time>2021-05-16T10:34:10Z</time>
      </trkpt>
      <trkpt lat="43.19861" lon="1.0843">
        <ele>237</ele>
        <time>2021-05-16T10:34:17Z</time>
      </trkpt>
      <trkpt lat="43.19866" lon="1.08397">
        <ele>238</ele>
        <time>2021-05-16T10:34:22Z</time>
      </trkpt>
      <trkpt lat="43.19884" lon="1.08317">
        <ele>239</ele>
        <time>2021-05-16T10:34:33Z</time>
      </trkpt>
      <trkpt lat="43.19886" lon="1.08268">
        <ele>239</ele>
        <time>2021-05-16T10:34:39Z</time>
      </trkpt>
      <trkpt lat="43.19886" lon="1.08248">
        <ele>239</ele>
        <time>2021-05-16T10:34:42Z</time>
      </trkpt>
      <trkpt lat="43.19883" lon="1.08227">
        <ele>238</ele>
        <time>2021-05-16T10:34:44Z</time>
      </trkpt>
      <trkpt lat="43.19878" lon="1.08209">
        <ele>238</ele>
        <time>2021-05-16T10:34:47Z</time>
      </trkpt>
      <trkpt lat="43.19872" lon="1.08191">
        <ele>237</ele>
        <time>2021-05-16T10:34:49Z</time>
      </trkpt>
      <trkpt lat="43.1986" lon="1.08164">
        <ele>237</ele>
        <time>2021-05-16T10:34:53Z</time>
      </trkpt>
      <trkpt lat="43.19821" lon="1.0809">
        <ele>238</ele>
        <time>2021-05-16T10:35:05Z</time>
      </trkpt>
      <trkpt lat="43.19773" lon="1.07932">
        <ele>235</ele>
        <time>2021-05-16T10:35:28Z</time>
      </trkpt>
      <trkpt lat="43.19754" lon="1.07849">
        <ele>236</ele>
        <time>2021-05-16T10:35:39Z</time>
      </trkpt>
      <trkpt lat="43.1973" lon="1.07701">
        <ele>239</ele>
        <time>2021-05-16T10:35:58Z</time>
      </trkpt>
      <trkpt lat="43.19723" lon="1.07644">
        <ele>239</ele>
        <time>2021-05-16T10:36:06Z</time>
      </trkpt>
      <trkpt lat="43.19722" lon="1.07618">
        <ele>239</ele>
        <time>2021-05-16T10:36:09Z</time>
      </trkpt>
      <trkpt lat="43.19722" lon="1.07576">
        <ele>239</ele>
        <time>2021-05-16T10:36:15Z</time>
      </trkpt>
      <trkpt lat="43.19727" lon="1.0754">
        <ele>239</ele>
        <time>2021-05-16T10:36:20Z</time>
      </trkpt>
      <trkpt lat="43.19741" lon="1.07486">
        <ele>240</ele>
        <time>2021-05-16T10:36:27Z</time>
      </trkpt>
      <trkpt lat="43.19756" lon="1.07415">
        <ele>239</ele>
        <time>2021-05-16T10:36:37Z</time>
      </trkpt>
      <trkpt lat="43.19767" lon="1.07343">
        <ele>240</ele>
        <time>2021-05-16T10:36:46Z</time>
      </trkpt>
      <trkpt lat="43.19784" lon="1.07238">
        <ele>239</ele>
        <time>2021-05-16T10:37:00Z</time>
      </trkpt>
      <trkpt lat="43.19789" lon="1.07184">
        <ele>239</ele>
        <time>2021-05-16T10:37:07Z</time>
      </trkpt>
      <trkpt lat="43.19789" lon="1.07159">
        <ele>239</ele>
        <time>2021-05-16T10:37:10Z</time>
      </trkpt>
      <trkpt lat="43.19788" lon="1.07136">
        <ele>239</ele>
        <time>2021-05-16T10:37:13Z</time>
      </trkpt>
      <trkpt lat="43.19785" lon="1.07101">
        <ele>240</ele>
        <time>2021-05-16T10:37:18Z</time>
      </trkpt>
      <trkpt lat="43.19777" lon="1.07051">
        <ele>239</ele>
        <time>2021-05-16T10:37:25Z</time>
      </trkpt>
      <trkpt lat="43.19775" lon="1.07037">
        <ele>239</ele>
        <time>2021-05-16T10:37:26Z</time>
      </trkpt>
      <trkpt lat="43.19765" lon="1.06992">
        <ele>240</ele>
        <time>2021-05-16T10:37:33Z</time>
      </trkpt>
      <trkpt lat="43.19714" lon="1.06855">
        <ele>239</ele>
        <time>2021-05-16T10:37:52Z</time>
      </trkpt>
      <trkpt lat="43.197" lon="1.0681">
        <ele>239</ele>
        <time>2021-05-16T10:37:59Z</time>
      </trkpt>
      <trkpt lat="43.19672" lon="1.06635">
        <ele>240</ele>
        <time>2021-05-16T10:38:22Z</time>
      </trkpt>
      <trkpt lat="43.19662" lon="1.06588">
        <ele>240</ele>
        <time>2021-05-16T10:38:28Z</time>
      </trkpt>
      <trkpt lat="43.19647" lon="1.06487">
        <ele>240</ele>
        <time>2021-05-16T10:38:42Z</time>
      </trkpt>
      <trkpt lat="43.19628" lon="1.0635">
        <ele>239</ele>
        <time>2021-05-16T10:39:00Z</time>
      </trkpt>
      <trkpt lat="43.19622" lon="1.06316">
        <ele>238</ele>
        <time>2021-05-16T10:39:04Z</time>
      </trkpt>
      <trkpt lat="43.19615" lon="1.06289">
        <ele>238</ele>
        <time>2021-05-16T10:39:08Z</time>
      </trkpt>
      <trkpt lat="43.19536" lon="1.06055">
        <ele>241</ele>
        <time>2021-05-16T10:39:42Z</time>
      </trkpt>
      <trkpt lat="43.19527" lon="1.06025">
        <ele>241</ele>
        <time>2021-05-16T10:39:46Z</time>
      </trkpt>
      <trkpt lat="43.19522" lon="1.06003">
        <ele>242</ele>
        <time>2021-05-16T10:39:49Z</time>
      </trkpt>
      <trkpt lat="43.19515" lon="1.05916">
        <ele>242</ele>
        <time>2021-05-16T10:40:00Z</time>
      </trkpt>
      <trkpt lat="43.19501" lon="1.05858">
        <ele>243</ele>
        <time>2021-05-16T10:40:08Z</time>
      </trkpt>
      <trkpt lat="43.19494" lon="1.05821">
        <ele>243</ele>
        <time>2021-05-16T10:40:13Z</time>
      </trkpt>
      <trkpt lat="43.19491" lon="1.05766">
        <ele>242</ele>
        <time>2021-05-16T10:40:20Z</time>
      </trkpt>
      <trkpt lat="43.19492" lon="1.05654">
        <ele>240</ele>
        <time>2021-05-16T10:40:35Z</time>
      </trkpt>
      <trkpt lat="43.19489" lon="1.05468">
        <ele>242</ele>
        <time>2021-05-16T10:40:59Z</time>
      </trkpt>
      <trkpt lat="43.19494" lon="1.0535">
        <ele>243</ele>
        <time>2021-05-16T10:41:14Z</time>
      </trkpt>
      <trkpt lat="43.19497" lon="1.05294">
        <ele>243</ele>
        <time>2021-05-16T10:41:21Z</time>
      </trkpt>
      <trkpt lat="43.19506" lon="1.05194">
        <ele>244</ele>
        <time>2021-05-16T10:41:35Z</time>
      </trkpt>
      <trkpt lat="43.19509" lon="1.0517">
        <ele>244</ele>
        <time>2021-05-16T10:41:38Z</time>
      </trkpt>
      <trkpt lat="43.19515" lon="1.05143">
        <ele>245</ele>
        <time>2021-05-16T10:41:41Z</time>
      </trkpt>
      <trkpt lat="43.19547" lon="1.05038">
        <ele>245</ele>
        <time>2021-05-16T10:41:56Z</time>
      </trkpt>
      <trkpt lat="43.19555" lon="1.05007">
        <ele>245</ele>
        <time>2021-05-16T10:42:00Z</time>
      </trkpt>
      <trkpt lat="43.1956" lon="1.04988">
        <ele>245</ele>
        <time>2021-05-16T10:42:03Z</time>
      </trkpt>
      <trkpt lat="43.19563" lon="1.04966">
        <ele>244</ele>
        <time>2021-05-16T10:42:06Z</time>
      </trkpt>
      <trkpt lat="43.19563" lon="1.04943">
        <ele>244</ele>
        <time>2021-05-16T10:42:09Z</time>
      </trkpt>
      <trkpt lat="43.19552" lon="1.04714">
        <ele>250</ele>
        <time>2021-05-16T10:42:39Z</time>
      </trkpt>
      <trkpt lat="43.19553" lon="1.04688">
        <ele>250</ele>
        <time>2021-05-16T10:42:42Z</time>
      </trkpt>
      <trkpt lat="43.19558" lon="1.04629">
        <ele>250</ele>
        <time>2021-05-16T10:42:50Z</time>
      </trkpt>
      <trkpt lat="43.19556" lon="1.04559">
        <ele>250</ele>
        <time>2021-05-16T10:42:59Z</time>
      </trkpt>
      <trkpt lat="43.19554" lon="1.04538">
        <ele>251</ele>
        <time>2021-05-16T10:43:02Z</time>
      </trkpt>
      <trkpt lat="43.19549" lon="1.0452">
        <ele>252</ele>
        <time>2021-05-16T10:43:04Z</time>
      </trkpt>
      <trkpt lat="43.19538" lon="1.04501">
        <ele>253</ele>
        <time>2021-05-16T10:43:07Z</time>
      </trkpt>
      <trkpt lat="43.195" lon="1.04443">
        <ele>257</ele>
        <time>2021-05-16T10:43:17Z</time>
      </trkpt>
      <trkpt lat="43.19482" lon="1.04404">
        <ele>262</ele>
        <time>2021-05-16T10:43:23Z</time>
      </trkpt>
      <trkpt lat="43.19462" lon="1.04344">
        <ele>267</ele>
        <time>2021-05-16T10:43:32Z</time>
      </trkpt>
      <trkpt lat="43.19456" lon="1.04312">
        <ele>268</ele>
        <time>2021-05-16T10:43:36Z</time>
      </trkpt>
      <trkpt lat="43.19441" lon="1.04214">
        <ele>266</ele>
        <time>2021-05-16T10:43:49Z</time>
      </trkpt>
      <trkpt lat="43.19431" lon="1.04163">
        <ele>264</ele>
        <time>2021-05-16T10:43:56Z</time>
      </trkpt>
      <trkpt lat="43.19424" lon="1.04145">
        <ele>264</ele>
        <time>2021-05-16T10:43:59Z</time>
      </trkpt>
      <trkpt lat="43.19409" lon="1.0411">
        <ele>265</ele>
        <time>2021-05-16T10:44:04Z</time>
      </trkpt>
      <trkpt lat="43.1939" lon="1.04073">
        <ele>266</ele>
        <time>2021-05-16T10:44:10Z</time>
      </trkpt>
      <trkpt lat="43.19381" lon="1.04058">
        <ele>266</ele>
        <time>2021-05-16T10:44:12Z</time>
      </trkpt>
      <trkpt lat="43.1935" lon="1.04026">
        <ele>265</ele>
        <time>2021-05-16T10:44:19Z</time>
      </trkpt>
      <trkpt lat="43.19333" lon="1.04012">
        <ele>263</ele>
        <time>2021-05-16T10:44:23Z</time>
      </trkpt>
      <trkpt lat="43.19325" lon="1.0401">
        <ele>264</ele>
        <time>2021-05-16T10:44:24Z</time>
      </trkpt>
      <trkpt lat="43.19311" lon="1.04009">
        <ele>265</ele>
        <time>2021-05-16T10:44:27Z</time>
      </trkpt>
      <trkpt lat="43.19294" lon="1.04003">
        <ele>265</ele>
        <time>2021-05-16T10:44:30Z</time>
      </trkpt>
      <trkpt lat="43.19278" lon="1.03986">
        <ele>263</ele>
        <time>2021-05-16T10:44:33Z</time>
      </trkpt>
      <trkpt lat="43.19269" lon="1.03983">
        <ele>263</ele>
        <time>2021-05-16T10:44:35Z</time>
      </trkpt>
      <trkpt lat="43.19261" lon="1.03985">
        <ele>264</ele>
        <time>2021-05-16T10:44:36Z</time>
      </trkpt>
      <trkpt lat="43.19251" lon="1.03991">
        <ele>267</ele>
        <time>2021-05-16T10:44:38Z</time>
      </trkpt>
      <trkpt lat="43.19243" lon="1.03992">
        <ele>268</ele>
        <time>2021-05-16T10:44:40Z</time>
      </trkpt>
      <trkpt lat="43.19236" lon="1.0399">
        <ele>268</ele>
        <time>2021-05-16T10:44:41Z</time>
      </trkpt>
      <trkpt lat="43.19231" lon="1.03984">
        <ele>267</ele>
        <time>2021-05-16T10:44:42Z</time>
      </trkpt>
      <trkpt lat="43.19221" lon="1.0395">
        <ele>259</ele>
        <time>2021-05-16T10:44:47Z</time>
      </trkpt>
      <trkpt lat="43.19215" lon="1.03938">
        <ele>256</ele>
        <time>2021-05-16T10:44:49Z</time>
      </trkpt>
      <trkpt lat="43.19207" lon="1.03929">
        <ele>254</ele>
        <time>2021-05-16T10:44:51Z</time>
      </trkpt>
      <trkpt lat="43.19193" lon="1.03919">
        <ele>253</ele>
        <time>2021-05-16T10:44:54Z</time>
      </trkpt>
      <trkpt lat="43.19148" lon="1.03897">
        <ele>254</ele>
        <time>2021-05-16T10:45:02Z</time>
      </trkpt>
      <trkpt lat="43.19112" lon="1.03877">
        <ele>255</ele>
        <time>2021-05-16T10:45:09Z</time>
      </trkpt>
      <trkpt lat="43.19092" lon="1.03863">
        <ele>255</ele>
        <time>2021-05-16T10:45:13Z</time>
      </trkpt>
      <trkpt lat="43.19076" lon="1.03849">
        <ele>254</ele>
        <time>2021-05-16T10:45:16Z</time>
      </trkpt>
      <trkpt lat="43.19068" lon="1.03838">
        <ele>253</ele>
        <time>2021-05-16T10:45:18Z</time>
      </trkpt>
      <trkpt lat="43.19061" lon="1.03823">
        <ele>252</ele>
        <time>2021-05-16T10:45:21Z</time>
      </trkpt>
      <trkpt lat="43.19049" lon="1.03768">
        <ele>250</ele>
        <time>2021-05-16T10:45:28Z</time>
      </trkpt>
      <trkpt lat="43.19044" lon="1.03756">
        <ele>249</ele>
        <time>2021-05-16T10:45:30Z</time>
      </trkpt>
      <trkpt lat="43.19029" lon="1.03733">
        <ele>250</ele>
        <time>2021-05-16T10:45:34Z</time>
      </trkpt>
      <trkpt lat="43.19019" lon="1.03713">
        <ele>250</ele>
        <time>2021-05-16T10:45:37Z</time>
      </trkpt>
      <trkpt lat="43.19013" lon="1.0369">
        <ele>249</ele>
        <time>2021-05-16T10:45:40Z</time>
      </trkpt>
      <trkpt lat="43.19013" lon="1.03666">
        <ele>248</ele>
        <time>2021-05-16T10:45:43Z</time>
      </trkpt>
      <trkpt lat="43.19017" lon="1.03638">
        <ele>247</ele>
        <time>2021-05-16T10:45:47Z</time>
      </trkpt>
      <trkpt lat="43.19023" lon="1.03606">
        <ele>247</ele>
        <time>2021-05-16T10:45:51Z</time>
      </trkpt>
      <trkpt lat="43.19032" lon="1.03569">
        <ele>246</ele>
        <time>2021-05-16T10:45:56Z</time>
      </trkpt>
      <trkpt lat="43.19068" lon="1.03452">
        <ele>247</ele>
        <time>2021-05-16T10:46:13Z</time>
      </trkpt>
      <trkpt lat="43.19084" lon="1.03414">
        <ele>248</ele>
        <time>2021-05-16T10:46:19Z</time>
      </trkpt>
      <trkpt lat="43.19132" lon="1.03331">
        <ele>248</ele>
        <time>2021-05-16T10:46:32Z</time>
      </trkpt>
      <trkpt lat="43.19171" lon="1.03256">
        <ele>247</ele>
        <time>2021-05-16T10:46:44Z</time>
      </trkpt>
      <trkpt lat="43.19179" lon="1.03237">
        <ele>247</ele>
        <time>2021-05-16T10:46:47Z</time>
      </trkpt>
      <trkpt lat="43.19188" lon="1.03204">
        <ele>248</ele>
        <time>2021-05-16T10:46:52Z</time>
      </trkpt>
      <trkpt lat="43.19208" lon="1.03112">
        <ele>248</ele>
        <time>2021-05-16T10:47:04Z</time>
      </trkpt>
      <trkpt lat="43.19233" lon="1.03031">
        <ele>247</ele>
        <time>2021-05-16T10:47:16Z</time>
      </trkpt>
      <trkpt lat="43.19235" lon="1.03003">
        <ele>248</ele>
        <time>2021-05-16T10:47:19Z</time>
      </trkpt>
      <trkpt lat="43.19232" lon="1.02972">
        <ele>249</ele>
        <time>2021-05-16T10:47:23Z</time>
      </trkpt>
      <trkpt lat="43.19228" lon="1.02956">
        <ele>250</ele>
        <time>2021-05-16T10:47:25Z</time>
      </trkpt>
      <trkpt lat="43.19217" lon="1.02932">
        <ele>251</ele>
        <time>2021-05-16T10:47:29Z</time>
      </trkpt>
      <trkpt lat="43.19196" lon="1.02897">
        <ele>252</ele>
        <time>2021-05-16T10:47:35Z</time>
      </trkpt>
      <trkpt lat="43.19182" lon="1.02882">
        <ele>253</ele>
        <time>2021-05-16T10:47:38Z</time>
      </trkpt>
      <trkpt lat="43.19163" lon="1.02864">
        <ele>253</ele>
        <time>2021-05-16T10:47:42Z</time>
      </trkpt>
      <trkpt lat="43.1916" lon="1.02858">
        <ele>254</ele>
        <time>2021-05-16T10:47:43Z</time>
      </trkpt>
      <trkpt lat="43.1916" lon="1.02851">
        <ele>254</ele>
        <time>2021-05-16T10:47:44Z</time>
      </trkpt>
      <trkpt lat="43.19162" lon="1.02846">
        <ele>254</ele>
        <time>2021-05-16T10:47:45Z</time>
      </trkpt>
      <trkpt lat="43.19047" lon="1.02833">
        <ele>251</ele>
        <time>2021-05-16T10:48:05Z</time>
      </trkpt>
      <trkpt lat="43.19031" lon="1.02823">
        <ele>251</ele>
        <time>2021-05-16T10:48:09Z</time>
      </trkpt>
      <trkpt lat="43.19023" lon="1.02813">
        <ele>251</ele>
        <time>2021-05-16T10:48:10Z</time>
      </trkpt>
      <trkpt lat="43.19019" lon="1.02804">
        <ele>251</ele>
        <time>2021-05-16T10:48:12Z</time>
      </trkpt>
      <trkpt lat="43.1901" lon="1.02811">
        <ele>251</ele>
        <time>2021-05-16T10:48:14Z</time>
      </trkpt>
      <trkpt lat="43.19001" lon="1.02822">
        <ele>251</ele>
        <time>2021-05-16T10:48:16Z</time>
      </trkpt>
      <trkpt lat="43.18994" lon="1.02835">
        <ele>251</ele>
        <time>2021-05-16T10:48:18Z</time>
      </trkpt>
      <trkpt lat="43.1895" lon="1.02986">
        <ele>253</ele>
        <time>2021-05-16T10:48:39Z</time>
      </trkpt>
      <trkpt lat="43.18943" lon="1.03028">
        <ele>253</ele>
        <time>2021-05-16T10:48:45Z</time>
      </trkpt>
      <trkpt lat="43.18932" lon="1.03148">
        <ele>253</ele>
        <time>2021-05-16T10:49:00Z</time>
      </trkpt>
      <trkpt lat="43.18923" lon="1.03207">
        <ele>252</ele>
        <time>2021-05-16T10:49:08Z</time>
      </trkpt>
      <trkpt lat="43.18901" lon="1.03211">
        <ele>253</ele>
        <time>2021-05-16T10:49:12Z</time>
      </trkpt>
      <trkpt lat="43.18852" lon="1.03232">
        <ele>256</ele>
        <time>2021-05-16T10:49:21Z</time>
      </trkpt>
      <trkpt lat="43.18842" lon="1.03233">
        <ele>256</ele>
        <time>2021-05-16T10:49:23Z</time>
      </trkpt>
      <trkpt lat="43.18829" lon="1.03224">
        <ele>258</ele>
        <time>2021-05-16T10:49:26Z</time>
      </trkpt>
      <trkpt lat="43.18814" lon="1.03206">
        <ele>262</ele>
        <time>2021-05-16T10:49:29Z</time>
      </trkpt>
      <trkpt lat="43.1876" lon="1.03122">
        <ele>271</ele>
        <time>2021-05-16T10:49:44Z</time>
      </trkpt>
      <trkpt lat="43.18751" lon="1.03114">
        <ele>272</ele>
        <time>2021-05-16T10:49:46Z</time>
      </trkpt>
      <trkpt lat="43.18744" lon="1.0312">
        <ele>274</ele>
        <time>2021-05-16T10:49:47Z</time>
      </trkpt>
      <trkpt lat="43.18746" lon="1.03135">
        <ele>274</ele>
        <time>2021-05-16T10:49:49Z</time>
      </trkpt>
      <trkpt lat="43.18756" lon="1.03169">
        <ele>273</ele>
        <time>2021-05-16T10:49:54Z</time>
      </trkpt>
      <trkpt lat="43.18756" lon="1.03218">
        <ele>278</ele>
        <time>2021-05-16T10:50:00Z</time>
      </trkpt>
      <trkpt lat="43.18745" lon="1.03269">
        <ele>287</ele>
        <time>2021-05-16T10:50:07Z</time>
      </trkpt>
      <trkpt lat="43.18746" lon="1.03284">
        <ele>288</ele>
        <time>2021-05-16T10:50:09Z</time>
      </trkpt>
      <trkpt lat="43.18764" lon="1.0331">
        <ele>284</ele>
        <time>2021-05-16T10:50:14Z</time>
      </trkpt>
      <trkpt lat="43.18766" lon="1.03318">
        <ele>284</ele>
        <time>2021-05-16T10:50:15Z</time>
      </trkpt>
      <trkpt lat="43.18763" lon="1.03328">
        <ele>286</ele>
        <time>2021-05-16T10:50:16Z</time>
      </trkpt>
      <trkpt lat="43.18754" lon="1.03327">
        <ele>289</ele>
        <time>2021-05-16T10:50:18Z</time>
      </trkpt>
      <trkpt lat="43.18719" lon="1.03299">
        <ele>297</ele>
        <time>2021-05-16T10:50:25Z</time>
      </trkpt>
      <trkpt lat="43.18712" lon="1.03286">
        <ele>298</ele>
        <time>2021-05-16T10:50:27Z</time>
      </trkpt>
      <trkpt lat="43.18689" lon="1.0319">
        <ele>296</ele>
        <time>2021-05-16T10:50:40Z</time>
      </trkpt>
      <trkpt lat="43.18684" lon="1.03182">
        <ele>297</ele>
        <time>2021-05-16T10:50:42Z</time>
      </trkpt>
      <trkpt lat="43.1868" lon="1.03184">
        <ele>299</ele>
        <time>2021-05-16T10:50:42Z</time>
      </trkpt>
      <trkpt lat="43.18675" lon="1.03193">
        <ele>301</ele>
        <time>2021-05-16T10:50:44Z</time>
      </trkpt>
      <trkpt lat="43.18673" lon="1.03244">
        <ele>305</ele>
        <time>2021-05-16T10:50:50Z</time>
      </trkpt>
      <trkpt lat="43.18667" lon="1.03296">
        <ele>311</ele>
        <time>2021-05-16T10:50:57Z</time>
      </trkpt>
      <trkpt lat="43.18672" lon="1.03336">
        <ele>314</ele>
        <time>2021-05-16T10:51:02Z</time>
      </trkpt>
      <trkpt lat="43.1872" lon="1.03413">
        <ele>309</ele>
        <time>2021-05-16T10:51:16Z</time>
      </trkpt>
      <trkpt lat="43.18725" lon="1.03433">
        <ele>307</ele>
        <time>2021-05-16T10:51:18Z</time>
      </trkpt>
      <trkpt lat="43.1872" lon="1.03455">
        <ele>309</ele>
        <time>2021-05-16T10:51:21Z</time>
      </trkpt>
      <trkpt lat="43.18711" lon="1.03478">
        <ele>311</ele>
        <time>2021-05-16T10:51:25Z</time>
      </trkpt>
      <trkpt lat="43.18687" lon="1.03513">
        <ele>317</ele>
        <time>2021-05-16T10:51:31Z</time>
      </trkpt>
      <trkpt lat="43.1868" lon="1.03528">
        <ele>318</ele>
        <time>2021-05-16T10:51:33Z</time>
      </trkpt>
      <trkpt lat="43.18676" lon="1.03557">
        <ele>318</ele>
        <time>2021-05-16T10:51:37Z</time>
      </trkpt>
      <trkpt lat="43.18674" lon="1.03591">
        <ele>318</ele>
        <time>2021-05-16T10:51:42Z</time>
      </trkpt>
      <trkpt lat="43.18669" lon="1.03614">
        <ele>318</ele>
        <time>2021-05-16T10:51:45Z</time>
      </trkpt>
      <trkpt lat="43.18662" lon="1.03631">
        <ele>320</ele>
        <time>2021-05-16T10:51:47Z</time>
      </trkpt>
      <trkpt lat="43.18654" lon="1.03639">
        <ele>322</ele>
        <time>2021-05-16T10:51:49Z</time>
      </trkpt>
      <trkpt lat="43.18647" lon="1.03636">
        <ele>324</ele>
        <time>2021-05-16T10:51:50Z</time>
      </trkpt>
      <trkpt lat="43.18641" lon="1.03618">
        <ele>327</ele>
        <time>2021-05-16T10:51:53Z</time>
      </trkpt>
      <trkpt lat="43.18638" lon="1.03595">
        <ele>328</ele>
        <time>2021-05-16T10:51:56Z</time>
      </trkpt>
      <trkpt lat="43.18614" lon="1.03531">
        <ele>337</ele>
        <time>2021-05-16T10:52:05Z</time>
      </trkpt>
      <trkpt lat="43.18613" lon="1.03514">
        <ele>337</ele>
        <time>2021-05-16T10:52:07Z</time>
      </trkpt>
      <trkpt lat="43.18641" lon="1.03449">
        <ele>331</ele>
        <time>2021-05-16T10:52:17Z</time>
      </trkpt>
      <trkpt lat="43.18641" lon="1.03437">
        <ele>332</ele>
        <time>2021-05-16T10:52:19Z</time>
      </trkpt>
      <trkpt lat="43.18638" lon="1.0343">
        <ele>333</ele>
        <time>2021-05-16T10:52:20Z</time>
      </trkpt>
      <trkpt lat="43.18631" lon="1.03431">
        <ele>334</ele>
        <time>2021-05-16T10:52:21Z</time>
      </trkpt>
      <trkpt lat="43.18625" lon="1.03445">
        <ele>335</ele>
        <time>2021-05-16T10:52:23Z</time>
      </trkpt>
      <trkpt lat="43.18612" lon="1.03466">
        <ele>339</ele>
        <time>2021-05-16T10:52:27Z</time>
      </trkpt>
      <trkpt lat="43.18583" lon="1.035">
        <ele>346</ele>
        <time>2021-05-16T10:52:34Z</time>
      </trkpt>
      <trkpt lat="43.18575" lon="1.03521">
        <ele>347</ele>
        <time>2021-05-16T10:52:37Z</time>
      </trkpt>
      <trkpt lat="43.18572" lon="1.03553">
        <ele>347</ele>
        <time>2021-05-16T10:52:41Z</time>
      </trkpt>
      <trkpt lat="43.18576" lon="1.0361">
        <ele>346</ele>
        <time>2021-05-16T10:52:48Z</time>
      </trkpt>
      <trkpt lat="43.18572" lon="1.03618">
        <ele>346</ele>
        <time>2021-05-16T10:52:49Z</time>
      </trkpt>
      <trkpt lat="43.18568" lon="1.0362">
        <ele>347</ele>
        <time>2021-05-16T10:52:50Z</time>
      </trkpt>
      <trkpt lat="43.18563" lon="1.03608">
        <ele>348</ele>
        <time>2021-05-16T10:52:52Z</time>
      </trkpt>
      <trkpt lat="43.18562" lon="1.03576">
        <ele>348</ele>
        <time>2021-05-16T10:52:56Z</time>
      </trkpt>
      <trkpt lat="43.18553" lon="1.03517">
        <ele>350</ele>
        <time>2021-05-16T10:53:04Z</time>
      </trkpt>
      <trkpt lat="43.18554" lon="1.0349">
        <ele>349</ele>
        <time>2021-05-16T10:53:07Z</time>
      </trkpt>
      <trkpt lat="43.18552" lon="1.03475">
        <ele>349</ele>
        <time>2021-05-16T10:53:09Z</time>
      </trkpt>
      <trkpt lat="43.18546" lon="1.0347">
        <ele>350</ele>
        <time>2021-05-16T10:53:11Z</time>
      </trkpt>
      <trkpt lat="43.18538" lon="1.0348">
        <ele>351</ele>
        <time>2021-05-16T10:53:13Z</time>
      </trkpt>
      <trkpt lat="43.18519" lon="1.03559">
        <ele>355</ele>
        <time>2021-05-16T10:53:23Z</time>
      </trkpt>
      <trkpt lat="43.18514" lon="1.03572">
        <ele>356</ele>
        <time>2021-05-16T10:53:25Z</time>
      </trkpt>
      <trkpt lat="43.185" lon="1.0358">
        <ele>359</ele>
        <time>2021-05-16T10:53:28Z</time>
      </trkpt>
      <trkpt lat="43.18473" lon="1.03585">
        <ele>360</ele>
        <time>2021-05-16T10:53:33Z</time>
      </trkpt>
      <trkpt lat="43.18325" lon="1.03594">
        <ele>366</ele>
        <time>2021-05-16T10:53:59Z</time>
      </trkpt>
      <trkpt lat="43.18281" lon="1.0359">
        <ele>366</ele>
        <time>2021-05-16T10:54:07Z</time>
      </trkpt>
      <trkpt lat="43.18212" lon="1.0359">
        <ele>370</ele>
        <time>2021-05-16T10:54:19Z</time>
      </trkpt>
      <trkpt lat="43.18198" lon="1.03598">
        <ele>371</ele>
        <time>2021-05-16T10:54:22Z</time>
      </trkpt>
      <trkpt lat="43.18192" lon="1.03618">
        <ele>370</ele>
        <time>2021-05-16T10:54:25Z</time>
      </trkpt>
      <trkpt lat="43.18185" lon="1.0365">
        <ele>369</ele>
        <time>2021-05-16T10:54:29Z</time>
      </trkpt>
      <trkpt lat="43.18153" lon="1.03761">
        <ele>364</ele>
        <time>2021-05-16T10:54:45Z</time>
      </trkpt>
      <trkpt lat="43.18134" lon="1.03789">
        <ele>360</ele>
        <time>2021-05-16T10:54:50Z</time>
      </trkpt>
      <trkpt lat="43.18109" lon="1.03796">
        <ele>359</ele>
        <time>2021-05-16T10:54:54Z</time>
      </trkpt>
      <trkpt lat="43.1804" lon="1.03788">
        <ele>357</ele>
        <time>2021-05-16T10:55:07Z</time>
      </trkpt>
      <trkpt lat="43.17874" lon="1.03846">
        <ele>356</ele>
        <time>2021-05-16T10:55:37Z</time>
      </trkpt>
      <trkpt lat="43.17863" lon="1.03853">
        <ele>358</ele>
        <time>2021-05-16T10:55:39Z</time>
      </trkpt>
      <trkpt lat="43.17812" lon="1.03889">
        <ele>361</ele>
        <time>2021-05-16T10:55:49Z</time>
      </trkpt>
      <trkpt lat="43.17805" lon="1.03894">
        <ele>361</ele>
        <time>2021-05-16T10:55:51Z</time>
      </trkpt>
      <trkpt lat="43.17793" lon="1.03902">
        <ele>361</ele>
        <time>2021-05-16T10:55:53Z</time>
      </trkpt>
      <trkpt lat="43.17702" lon="1.03943">
        <ele>359</ele>
        <time>2021-05-16T10:56:10Z</time>
      </trkpt>
      <trkpt lat="43.1751" lon="1.04009">
        <ele>356</ele>
        <time>2021-05-16T10:56:45Z</time>
      </trkpt>
      <trkpt lat="43.1748" lon="1.04014">
        <ele>358</ele>
        <time>2021-05-16T10:56:51Z</time>
      </trkpt>
      <trkpt lat="43.17428" lon="1.04003">
        <ele>361</ele>
        <time>2021-05-16T10:57:00Z</time>
      </trkpt>
      <trkpt lat="43.17363" lon="1.03975">
        <ele>365</ele>
        <time>2021-05-16T10:57:12Z</time>
      </trkpt>
      <trkpt lat="43.1728" lon="1.03931">
        <ele>366</ele>
        <time>2021-05-16T10:57:28Z</time>
      </trkpt>
      <trkpt lat="43.17187" lon="1.039">
        <ele>368</ele>
        <time>2021-05-16T10:57:45Z</time>
      </trkpt>
      <trkpt lat="43.17029" lon="1.0392">
        <ele>368</ele>
        <time>2021-05-16T10:58:13Z</time>
      </trkpt>
      <trkpt lat="43.16927" lon="1.03931">
        <ele>370</ele>
        <time>2021-05-16T10:58:32Z</time>
      </trkpt>
      <trkpt lat="43.16685" lon="1.03756">
        <ele>381</ele>
        <time>2021-05-16T10:59:20Z</time>
      </trkpt>
      <trkpt lat="43.1644" lon="1.03685">
        <ele>394</ele>
        <time>2021-05-16T11:00:05Z</time>
      </trkpt>
      <trkpt lat="43.16283" lon="1.03565">
        <ele>385</ele>
        <time>2021-05-16T11:00:37Z</time>
      </trkpt>
      <trkpt lat="43.16229" lon="1.03437">
        <ele>383</ele>
        <time>2021-05-16T11:00:56Z</time>
      </trkpt>
      <trkpt lat="43.16172" lon="1.03198">
        <ele>398</ele>
        <time>2021-05-16T11:01:29Z</time>
      </trkpt>
      <trkpt lat="43.1618" lon="1.03106">
        <ele>405</ele>
        <time>2021-05-16T11:01:41Z</time>
      </trkpt>
      <trkpt lat="43.16168" lon="1.02967">
        <ele>420</ele>
        <time>2021-05-16T11:01:59Z</time>
      </trkpt>
      <trkpt lat="43.16166" lon="1.02934">
        <ele>424</ele>
        <time>2021-05-16T11:02:03Z</time>
      </trkpt>
      <trkpt lat="43.16213" lon="1.028">
        <ele>430</ele>
        <time>2021-05-16T11:02:22Z</time>
      </trkpt>
      <trkpt lat="43.16237" lon="1.02715">
        <ele>434</ele>
        <time>2021-05-16T11:02:34Z</time>
      </trkpt>
      <trkpt lat="43.16239" lon="1.02689">
        <ele>435</ele>
        <time>2021-05-16T11:02:38Z</time>
      </trkpt>
      <trkpt lat="43.16235" lon="1.02668">
        <ele>438</ele>
        <time>2021-05-16T11:02:40Z</time>
      </trkpt>
      <trkpt lat="43.1623" lon="1.02663">
        <ele>440</ele>
        <time>2021-05-16T11:02:42Z</time>
      </trkpt>
      <trkpt lat="43.16225" lon="1.02663">
        <ele>441</ele>
        <time>2021-05-16T11:02:42Z</time>
      </trkpt>
      <trkpt lat="43.1622" lon="1.02666">
        <ele>443</ele>
        <time>2021-05-16T11:02:43Z</time>
      </trkpt>
      <trkpt lat="43.16219" lon="1.02675">
        <ele>442</ele>
        <time>2021-05-16T11:02:45Z</time>
      </trkpt>
      <trkpt lat="43.1622" lon="1.02691">
        <ele>441</ele>
        <time>2021-05-16T11:02:47Z</time>
      </trkpt>
      <trkpt lat="43.16218" lon="1.02702">
        <ele>440</ele>
        <time>2021-05-16T11:02:48Z</time>
      </trkpt>
      <trkpt lat="43.1621" lon="1.02712">
        <ele>441</ele>
        <time>2021-05-16T11:02:50Z</time>
      </trkpt>
      <trkpt lat="43.16161" lon="1.02758">
        <ele>450</ele>
        <time>2021-05-16T11:03:01Z</time>
      </trkpt>
      <trkpt lat="43.16049" lon="1.02829">
        <ele>472</ele>
        <time>2021-05-16T11:03:23Z</time>
      </trkpt>
      <trkpt lat="43.15943" lon="1.03042">
        <ele>480</ele>
        <time>2021-05-16T11:03:56Z</time>
      </trkpt>
      <trkpt lat="43.15834" lon="1.0312">
        <ele>497</ele>
        <time>2021-05-16T11:04:18Z</time>
      </trkpt>
      <trkpt lat="43.15693" lon="1.03162">
        <ele>503</ele>
        <time>2021-05-16T11:04:44Z</time>
      </trkpt>
      <trkpt lat="43.1563" lon="1.03139">
        <ele>512</ele>
        <time>2021-05-16T11:04:55Z</time>
      </trkpt>
      <trkpt lat="43.15584" lon="1.03167">
        <ele>504</ele>
        <time>2021-05-16T11:05:04Z</time>
      </trkpt>
      <trkpt lat="43.15554" lon="1.03146">
        <ele>505</ele>
        <time>2021-05-16T11:05:10Z</time>
      </trkpt>
      <trkpt lat="43.15528" lon="1.03106">
        <ele>508</ele>
        <time>2021-05-16T11:05:17Z</time>
      </trkpt>
      <trkpt lat="43.15419" lon="1.03117">
        <ele>509</ele>
        <time>2021-05-16T11:05:37Z</time>
      </trkpt>
      <trkpt lat="43.15408" lon="1.03095">
        <ele>509</ele>
        <time>2021-05-16T11:05:40Z</time>
      </trkpt>
      <trkpt lat="43.15424" lon="1.02834">
        <ele>508</ele>
        <time>2021-05-16T11:06:14Z</time>
      </trkpt>
      <trkpt lat="43.15439" lon="1.02692">
        <ele>504</ele>
        <time>2021-05-16T11:06:33Z</time>
      </trkpt>
      <trkpt lat="43.15457" lon="1.0243">
        <ele>491</ele>
        <time>2021-05-16T11:07:07Z</time>
      </trkpt>
      <trkpt lat="43.15457" lon="1.02344">
        <ele>490</ele>
        <time>2021-05-16T11:07:18Z</time>
      </trkpt>
      <trkpt lat="43.15453" lon="1.02329">
        <ele>489</ele>
        <time>2021-05-16T11:07:20Z</time>
      </trkpt>
      <trkpt lat="43.15433" lon="1.02286">
        <ele>486</ele>
        <time>2021-05-16T11:07:27Z</time>
      </trkpt>
      <trkpt lat="43.1543" lon="1.02276">
        <ele>485</ele>
        <time>2021-05-16T11:07:28Z</time>
      </trkpt>
      <trkpt lat="43.15429" lon="1.02263">
        <ele>485</ele>
        <time>2021-05-16T11:07:30Z</time>
      </trkpt>
      <trkpt lat="43.15436" lon="1.02172">
        <ele>483</ele>
        <time>2021-05-16T11:07:42Z</time>
      </trkpt>
      <trkpt lat="43.15433" lon="1.02152">
        <ele>482</ele>
        <time>2021-05-16T11:07:44Z</time>
      </trkpt>
      <trkpt lat="43.15409" lon="1.02081">
        <ele>479</ele>
        <time>2021-05-16T11:07:54Z</time>
      </trkpt>
      <trkpt lat="43.15399" lon="1.02071">
        <ele>477</ele>
        <time>2021-05-16T11:07:57Z</time>
      </trkpt>
      <trkpt lat="43.15377" lon="1.02063">
        <ele>473</ele>
        <time>2021-05-16T11:08:01Z</time>
      </trkpt>
      <trkpt lat="43.15368" lon="1.02055">
        <ele>471</ele>
        <time>2021-05-16T11:08:03Z</time>
      </trkpt>
      <trkpt lat="43.15334" lon="1.01989">
        <ele>465</ele>
        <time>2021-05-16T11:08:13Z</time>
      </trkpt>
      <trkpt lat="43.15286" lon="1.0179">
        <ele>459</ele>
        <time>2021-05-16T11:08:40Z</time>
      </trkpt>
      <trkpt lat="43.15272" lon="1.01794">
        <ele>457</ele>
        <time>2021-05-16T11:08:43Z</time>
      </trkpt>
      <trkpt lat="43.15208" lon="1.01782">
        <ele>449</ele>
        <time>2021-05-16T11:08:54Z</time>
      </trkpt>
      <trkpt lat="43.1518" lon="1.01773">
        <ele>445</ele>
        <time>2021-05-16T11:08:59Z</time>
      </trkpt>
      <trkpt lat="43.15159" lon="1.01868">
        <ele>441</ele>
        <time>2021-05-16T11:09:12Z</time>
      </trkpt>
      <trkpt lat="43.15083" lon="1.02068">
        <ele>429</ele>
        <time>2021-05-16T11:09:42Z</time>
      </trkpt>
      <trkpt lat="43.14915" lon="1.02212">
        <ele>413</ele>
        <time>2021-05-16T11:10:17Z</time>
      </trkpt>
      <trkpt lat="43.14851" lon="1.02256">
        <ele>410</ele>
        <time>2021-05-16T11:10:30Z</time>
      </trkpt>
      <trkpt lat="43.14775" lon="1.02271">
        <ele>405</ele>
        <time>2021-05-16T11:10:43Z</time>
      </trkpt>
      <trkpt lat="43.14615" lon="1.0224">
        <ele>393</ele>
        <time>2021-05-16T11:11:12Z</time>
      </trkpt>
      <trkpt lat="43.14581" lon="1.02215">
        <ele>392</ele>
        <time>2021-05-16T11:11:19Z</time>
      </trkpt>
      <trkpt lat="43.14551" lon="1.02187">
        <ele>393</ele>
        <time>2021-05-16T11:11:25Z</time>
      </trkpt>
      <trkpt lat="43.14533" lon="1.02177">
        <ele>392</ele>
        <time>2021-05-16T11:11:29Z</time>
      </trkpt>
      <trkpt lat="43.14489" lon="1.02155">
        <ele>392</ele>
        <time>2021-05-16T11:11:37Z</time>
      </trkpt>
      <trkpt lat="43.14466" lon="1.02135">
        <ele>391</ele>
        <time>2021-05-16T11:11:42Z</time>
      </trkpt>
      <trkpt lat="43.14444" lon="1.0212">
        <ele>390</ele>
        <time>2021-05-16T11:11:46Z</time>
      </trkpt>
      <trkpt lat="43.14416" lon="1.02113">
        <ele>386</ele>
        <time>2021-05-16T11:11:51Z</time>
      </trkpt>
      <trkpt lat="43.14395" lon="1.02113">
        <ele>386</ele>
        <time>2021-05-16T11:11:55Z</time>
      </trkpt>
      <trkpt lat="43.14339" lon="1.02122">
        <ele>384</ele>
        <time>2021-05-16T11:12:05Z</time>
      </trkpt>
      <trkpt lat="43.14311" lon="1.02122">
        <ele>383</ele>
        <time>2021-05-16T11:12:10Z</time>
      </trkpt>
      <trkpt lat="43.14278" lon="1.02114">
        <ele>383</ele>
        <time>2021-05-16T11:12:16Z</time>
      </trkpt>
      <trkpt lat="43.14257" lon="1.02105">
        <ele>383</ele>
        <time>2021-05-16T11:12:20Z</time>
      </trkpt>
      <trkpt lat="43.14235" lon="1.021">
        <ele>383</ele>
        <time>2021-05-16T11:12:24Z</time>
      </trkpt>
      <trkpt lat="43.14203" lon="1.02099">
        <ele>383</ele>
        <time>2021-05-16T11:12:30Z</time>
      </trkpt>
      <trkpt lat="43.14178" lon="1.02107">
        <ele>383</ele>
        <time>2021-05-16T11:12:34Z</time>
      </trkpt>
      <trkpt lat="43.14159" lon="1.02108">
        <ele>383</ele>
        <time>2021-05-16T11:12:38Z</time>
      </trkpt>
      <trkpt lat="43.14055" lon="1.02091">
        <ele>380</ele>
        <time>2021-05-16T11:12:56Z</time>
      </trkpt>
      <trkpt lat="43.13977" lon="1.02086">
        <ele>378</ele>
        <time>2021-05-16T11:13:10Z</time>
      </trkpt>
      <trkpt lat="43.13954" lon="1.02091">
        <ele>378</ele>
        <time>2021-05-16T11:13:14Z</time>
      </trkpt>
      <trkpt lat="43.13925" lon="1.02107">
        <ele>376</ele>
        <time>2021-05-16T11:13:20Z</time>
      </trkpt>
      <trkpt lat="43.13896" lon="1.02129">
        <ele>374</ele>
        <time>2021-05-16T11:13:26Z</time>
      </trkpt>
      <trkpt lat="43.13854" lon="1.02145">
        <ele>371</ele>
        <time>2021-05-16T11:13:34Z</time>
      </trkpt>
      <trkpt lat="43.13793" lon="1.02134">
        <ele>368</ele>
        <time>2021-05-16T11:13:44Z</time>
      </trkpt>
      <trkpt lat="43.13728" lon="1.02114">
        <ele>365</ele>
        <time>2021-05-16T11:13:56Z</time>
      </trkpt>
      <trkpt lat="43.13645" lon="1.02092">
        <ele>369</ele>
        <time>2021-05-16T11:14:11Z</time>
      </trkpt>
      <trkpt lat="43.13642" lon="1.02137">
        <ele>364</ele>
        <time>2021-05-16T11:14:17Z</time>
      </trkpt>
      <trkpt lat="43.13636" lon="1.02161">
        <ele>362</ele>
        <time>2021-05-16T11:14:21Z</time>
      </trkpt>
      <trkpt lat="43.13623" lon="1.02184">
        <ele>360</ele>
        <time>2021-05-16T11:14:24Z</time>
      </trkpt>
      <trkpt lat="43.13609" lon="1.022">
        <ele>360</ele>
        <time>2021-05-16T11:14:28Z</time>
      </trkpt>
      <trkpt lat="43.13587" lon="1.02207">
        <ele>360</ele>
        <time>2021-05-16T11:14:32Z</time>
      </trkpt>
      <trkpt lat="43.13565" lon="1.0221">
        <ele>359</ele>
        <time>2021-05-16T11:14:36Z</time>
      </trkpt>
      <trkpt lat="43.13415" lon="1.02207">
        <ele>361</ele>
        <time>2021-05-16T11:15:02Z</time>
      </trkpt>
      <trkpt lat="43.13383" lon="1.02201">
        <ele>361</ele>
        <time>2021-05-16T11:15:08Z</time>
      </trkpt>
      <trkpt lat="43.13367" lon="1.02204">
        <ele>361</ele>
        <time>2021-05-16T11:15:11Z</time>
      </trkpt>
      <trkpt lat="43.13356" lon="1.02212">
        <ele>362</ele>
        <time>2021-05-16T11:15:13Z</time>
      </trkpt>
      <trkpt lat="43.1335" lon="1.02221">
        <ele>363</ele>
        <time>2021-05-16T11:15:15Z</time>
      </trkpt>
      <trkpt lat="43.13345" lon="1.0224">
        <ele>365</ele>
        <time>2021-05-16T11:15:17Z</time>
      </trkpt>
      <trkpt lat="43.13347" lon="1.02269">
        <ele>368</ele>
        <time>2021-05-16T11:15:21Z</time>
      </trkpt>
      <trkpt lat="43.13344" lon="1.0228">
        <ele>369</ele>
        <time>2021-05-16T11:15:23Z</time>
      </trkpt>
      <trkpt lat="43.1332" lon="1.02336">
        <ele>374</ele>
        <time>2021-05-16T11:15:31Z</time>
      </trkpt>
      <trkpt lat="43.13299" lon="1.02393">
        <ele>377</ele>
        <time>2021-05-16T11:15:39Z</time>
      </trkpt>
      <trkpt lat="43.13291" lon="1.02426">
        <ele>380</ele>
        <time>2021-05-16T11:15:44Z</time>
      </trkpt>
      <trkpt lat="43.13283" lon="1.0248">
        <ele>383</ele>
        <time>2021-05-16T11:15:51Z</time>
      </trkpt>
      <trkpt lat="43.13284" lon="1.02483">
        <ele>383</ele>
        <time>2021-05-16T11:15:51Z</time>
      </trkpt>
      <trkpt lat="43.13281" lon="1.02494">
        <ele>384</ele>
        <time>2021-05-16T11:15:53Z</time>
      </trkpt>
      <trkpt lat="43.13273" lon="1.02576">
        <ele>389</ele>
        <time>2021-05-16T11:16:04Z</time>
      </trkpt>
      <trkpt lat="43.13244" lon="1.02778">
        <ele>396</ele>
        <time>2021-05-16T11:16:30Z</time>
      </trkpt>
      <trkpt lat="43.13244" lon="1.02797">
        <ele>397</ele>
        <time>2021-05-16T11:16:33Z</time>
      </trkpt>
      <trkpt lat="43.13252" lon="1.02808">
        <ele>399</ele>
        <time>2021-05-16T11:16:35Z</time>
      </trkpt>
      <trkpt lat="43.13272" lon="1.02822">
        <ele>397</ele>
        <time>2021-05-16T11:16:39Z</time>
      </trkpt>
      <trkpt lat="43.13278" lon="1.02837">
        <ele>397</ele>
        <time>2021-05-16T11:16:41Z</time>
      </trkpt>
      <trkpt lat="43.13279" lon="1.02862">
        <ele>397</ele>
        <time>2021-05-16T11:16:44Z</time>
      </trkpt>
      <trkpt lat="43.13268" lon="1.02994">
        <ele>399</ele>
        <time>2021-05-16T11:17:02Z</time>
      </trkpt>
      <trkpt lat="43.13269" lon="1.03049">
        <ele>399</ele>
        <time>2021-05-16T11:17:09Z</time>
      </trkpt>
      <trkpt lat="43.13279" lon="1.03168">
        <ele>396</ele>
        <time>2021-05-16T11:17:24Z</time>
      </trkpt>
      <trkpt lat="43.13277" lon="1.03206">
        <ele>394</ele>
        <time>2021-05-16T11:17:29Z</time>
      </trkpt>
      <trkpt lat="43.13265" lon="1.03276">
        <ele>392</ele>
        <time>2021-05-16T11:17:39Z</time>
      </trkpt>
      <trkpt lat="43.13161" lon="1.03732">
        <ele>371</ele>
        <time>2021-05-16T11:18:41Z</time>
      </trkpt>
      <trkpt lat="43.13164" lon="1.04079">
        <ele>392</ele>
        <time>2021-05-16T11:19:26Z</time>
      </trkpt>
      <trkpt lat="43.13097" lon="1.04462">
        <ele>399</ele>
        <time>2021-05-16T11:20:17Z</time>
      </trkpt>
      <trkpt lat="43.13087" lon="1.04666">
        <ele>403</ele>
        <time>2021-05-16T11:20:43Z</time>
      </trkpt>
      <trkpt lat="43.13005" lon="1.04965">
        <ele>397</ele>
        <time>2021-05-16T11:21:25Z</time>
      </trkpt>
      <trkpt lat="43.12962" lon="1.0521">
        <ele>404</ele>
        <time>2021-05-16T11:21:58Z</time>
      </trkpt>
      <trkpt lat="43.12939" lon="1.05352">
        <ele>404</ele>
        <time>2021-05-16T11:22:16Z</time>
      </trkpt>
      <trkpt lat="43.12934" lon="1.05425">
        <ele>400</ele>
        <time>2021-05-16T11:22:26Z</time>
      </trkpt>
      <trkpt lat="43.12948" lon="1.05541">
        <ele>388</ele>
        <time>2021-05-16T11:22:41Z</time>
      </trkpt>
      <trkpt lat="43.12953" lon="1.05558">
        <ele>386</ele>
        <time>2021-05-16T11:22:44Z</time>
      </trkpt>
      <trkpt lat="43.12963" lon="1.05579">
        <ele>384</ele>
        <time>2021-05-16T11:22:47Z</time>
      </trkpt>
      <trkpt lat="43.12991" lon="1.05623">
        <ele>381</ele>
        <time>2021-05-16T11:22:54Z</time>
      </trkpt>
      <trkpt lat="43.12994" lon="1.05634">
        <ele>381</ele>
        <time>2021-05-16T11:22:56Z</time>
      </trkpt>
      <trkpt lat="43.12996" lon="1.05646">
        <ele>380</ele>
        <time>2021-05-16T11:22:58Z</time>
      </trkpt>
      <trkpt lat="43.1297" lon="1.0582">
        <ele>382</ele>
        <time>2021-05-16T11:23:21Z</time>
      </trkpt>
      <trkpt lat="43.12963" lon="1.05845">
        <ele>384</ele>
        <time>2021-05-16T11:23:24Z</time>
      </trkpt>
      <trkpt lat="43.12953" lon="1.05862">
        <ele>384</ele>
        <time>2021-05-16T11:23:27Z</time>
      </trkpt>
      <trkpt lat="43.12897" lon="1.0593">
        <ele>388</ele>
        <time>2021-05-16T11:23:40Z</time>
      </trkpt>
      <trkpt lat="43.12888" lon="1.05945">
        <ele>389</ele>
        <time>2021-05-16T11:23:43Z</time>
      </trkpt>
      <trkpt lat="43.12842" lon="1.06051">
        <ele>396</ele>
        <time>2021-05-16T11:23:59Z</time>
      </trkpt>
      <trkpt lat="43.12812" lon="1.06126">
        <ele>396</ele>
        <time>2021-05-16T11:24:10Z</time>
      </trkpt>
      <trkpt lat="43.12785" lon="1.06124">
        <ele>393</ele>
        <time>2021-05-16T11:24:15Z</time>
      </trkpt>
      <trkpt lat="43.12771" lon="1.06129">
        <ele>392</ele>
        <time>2021-05-16T11:24:17Z</time>
      </trkpt>
      <trkpt lat="43.12755" lon="1.06156">
        <ele>390</ele>
        <time>2021-05-16T11:24:22Z</time>
      </trkpt>
      <trkpt lat="43.12695" lon="1.06277">
        <ele>386</ele>
        <time>2021-05-16T11:24:41Z</time>
      </trkpt>
      <trkpt lat="43.12687" lon="1.06284">
        <ele>386</ele>
        <time>2021-05-16T11:24:42Z</time>
      </trkpt>
      <trkpt lat="43.12679" lon="1.06281">
        <ele>385</ele>
        <time>2021-05-16T11:24:44Z</time>
      </trkpt>
      <trkpt lat="43.12644" lon="1.06238">
        <ele>382</ele>
        <time>2021-05-16T11:24:52Z</time>
      </trkpt>
      <trkpt lat="43.12634" lon="1.06229">
        <ele>381</ele>
        <time>2021-05-16T11:24:54Z</time>
      </trkpt>
      <trkpt lat="43.12613" lon="1.06214">
        <ele>379</ele>
        <time>2021-05-16T11:24:59Z</time>
      </trkpt>
      <trkpt lat="43.12563" lon="1.06188">
        <ele>374</ele>
        <time>2021-05-16T11:25:08Z</time>
      </trkpt>
      <trkpt lat="43.12544" lon="1.0618">
        <ele>373</ele>
        <time>2021-05-16T11:25:12Z</time>
      </trkpt>
      <trkpt lat="43.12528" lon="1.06176">
        <ele>371</ele>
        <time>2021-05-16T11:25:15Z</time>
      </trkpt>
      <trkpt lat="43.12511" lon="1.06177">
        <ele>370</ele>
        <time>2021-05-16T11:25:18Z</time>
      </trkpt>
      <trkpt lat="43.12318" lon="1.06198">
        <ele>353</ele>
        <time>2021-05-16T11:25:52Z</time>
      </trkpt>
      <trkpt lat="43.12306" lon="1.06198">
        <ele>352</ele>
        <time>2021-05-16T11:25:54Z</time>
      </trkpt>
      <trkpt lat="43.12293" lon="1.06196">
        <ele>352</ele>
        <time>2021-05-16T11:25:57Z</time>
      </trkpt>
      <trkpt lat="43.12283" lon="1.06192">
        <ele>352</ele>
        <time>2021-05-16T11:25:58Z</time>
      </trkpt>
      <trkpt lat="43.12214" lon="1.06152">
        <ele>353</ele>
        <time>2021-05-16T11:26:12Z</time>
      </trkpt>
      <trkpt lat="43.12194" lon="1.06144">
        <ele>355</ele>
        <time>2021-05-16T11:26:15Z</time>
      </trkpt>
      <trkpt lat="43.12184" lon="1.06143">
        <ele>355</ele>
        <time>2021-05-16T11:26:17Z</time>
      </trkpt>
      <trkpt lat="43.12178" lon="1.06144">
        <ele>355</ele>
        <time>2021-05-16T11:26:18Z</time>
      </trkpt>
      <trkpt lat="43.12169" lon="1.0615">
        <ele>355</ele>
        <time>2021-05-16T11:26:20Z</time>
      </trkpt>
      <trkpt lat="43.1216" lon="1.0616">
        <ele>356</ele>
        <time>2021-05-16T11:26:22Z</time>
      </trkpt>
      <trkpt lat="43.12152" lon="1.06177">
        <ele>356</ele>
        <time>2021-05-16T11:26:25Z</time>
      </trkpt>
      <trkpt lat="43.12129" lon="1.06257">
        <ele>358</ele>
        <time>2021-05-16T11:26:36Z</time>
      </trkpt>
      <trkpt lat="43.12121" lon="1.06273">
        <ele>357</ele>
        <time>2021-05-16T11:26:38Z</time>
      </trkpt>
      <trkpt lat="43.12111" lon="1.06287">
        <ele>357</ele>
        <time>2021-05-16T11:26:41Z</time>
      </trkpt>
      <trkpt lat="43.12086" lon="1.0631">
        <ele>357</ele>
        <time>2021-05-16T11:26:46Z</time>
      </trkpt>
      <trkpt lat="43.12066" lon="1.06334">
        <ele>356</ele>
        <time>2021-05-16T11:26:51Z</time>
      </trkpt>
      <trkpt lat="43.12057" lon="1.06348">
        <ele>355</ele>
        <time>2021-05-16T11:26:54Z</time>
      </trkpt>
      <trkpt lat="43.12043" lon="1.06362">
        <ele>355</ele>
        <time>2021-05-16T11:26:57Z</time>
      </trkpt>
      <trkpt lat="43.11998" lon="1.06382">
        <ele>356</ele>
        <time>2021-05-16T11:27:05Z</time>
      </trkpt>
      <trkpt lat="43.11778" lon="1.0651">
        <ele>353</ele>
        <time>2021-05-16T11:27:48Z</time>
      </trkpt>
      <trkpt lat="43.11762" lon="1.06516">
        <ele>353</ele>
        <time>2021-05-16T11:27:50Z</time>
      </trkpt>
      <trkpt lat="43.11745" lon="1.0652">
        <ele>353</ele>
        <time>2021-05-16T11:27:54Z</time>
      </trkpt>
      <trkpt lat="43.11539" lon="1.06526">
        <ele>348</ele>
        <time>2021-05-16T11:28:30Z</time>
      </trkpt>
      <trkpt lat="43.1151" lon="1.06521">
        <ele>348</ele>
        <time>2021-05-16T11:28:35Z</time>
      </trkpt>
      <trkpt lat="43.11489" lon="1.06515">
        <ele>348</ele>
        <time>2021-05-16T11:28:39Z</time>
      </trkpt>
      <trkpt lat="43.11361" lon="1.06463">
        <ele>346</ele>
        <time>2021-05-16T11:29:03Z</time>
      </trkpt>
      <trkpt lat="43.11344" lon="1.06457">
        <ele>346</ele>
        <time>2021-05-16T11:29:06Z</time>
      </trkpt>
      <trkpt lat="43.11329" lon="1.06456">
        <ele>345</ele>
        <time>2021-05-16T11:29:09Z</time>
      </trkpt>
      <trkpt lat="43.11247" lon="1.0646">
        <ele>343</ele>
        <time>2021-05-16T11:29:23Z</time>
      </trkpt>
      <trkpt lat="43.11217" lon="1.06457">
        <ele>342</ele>
        <time>2021-05-16T11:29:29Z</time>
      </trkpt>
      <trkpt lat="43.11176" lon="1.06443">
        <ele>341</ele>
        <time>2021-05-16T11:29:36Z</time>
      </trkpt>
      <trkpt lat="43.11132" lon="1.06423">
        <ele>342</ele>
        <time>2021-05-16T11:29:45Z</time>
      </trkpt>
      <trkpt lat="43.11122" lon="1.06422">
        <ele>342</ele>
        <time>2021-05-16T11:29:46Z</time>
      </trkpt>
      <trkpt lat="43.11112" lon="1.06424">
        <ele>342</ele>
        <time>2021-05-16T11:29:48Z</time>
      </trkpt>
      <trkpt lat="43.11073" lon="1.0644">
        <ele>340</ele>
        <time>2021-05-16T11:29:55Z</time>
      </trkpt>
      <trkpt lat="43.11056" lon="1.06443">
        <ele>340</ele>
        <time>2021-05-16T11:29:58Z</time>
      </trkpt>
      <trkpt lat="43.1099" lon="1.0645">
        <ele>339</ele>
        <time>2021-05-16T11:30:10Z</time>
      </trkpt>
      <trkpt lat="43.10968" lon="1.06455">
        <ele>339</ele>
        <time>2021-05-16T11:30:14Z</time>
      </trkpt>
      <trkpt lat="43.10897" lon="1.06491">
        <ele>337</ele>
        <time>2021-05-16T11:30:28Z</time>
      </trkpt>
      <trkpt lat="43.10886" lon="1.06494">
        <ele>337</ele>
        <time>2021-05-16T11:30:30Z</time>
      </trkpt>
      <trkpt lat="43.10873" lon="1.06495">
        <ele>336</ele>
        <time>2021-05-16T11:30:32Z</time>
      </trkpt>
      <trkpt lat="43.1086" lon="1.06491">
        <ele>336</ele>
        <time>2021-05-16T11:30:34Z</time>
      </trkpt>
      <trkpt lat="43.10795" lon="1.06465">
        <ele>336</ele>
        <time>2021-05-16T11:30:46Z</time>
      </trkpt>
      <trkpt lat="43.1078" lon="1.06463">
        <ele>336</ele>
        <time>2021-05-16T11:30:49Z</time>
      </trkpt>
      <trkpt lat="43.10764" lon="1.06467">
        <ele>334</ele>
        <time>2021-05-16T11:30:52Z</time>
      </trkpt>
      <trkpt lat="43.10715" lon="1.06488">
        <ele>332</ele>
        <time>2021-05-16T11:31:01Z</time>
      </trkpt>
      <trkpt lat="43.10695" lon="1.0649">
        <ele>332</ele>
        <time>2021-05-16T11:31:05Z</time>
      </trkpt>
      <trkpt lat="43.10639" lon="1.06483">
        <ele>332</ele>
        <time>2021-05-16T11:31:15Z</time>
      </trkpt>
      <trkpt lat="43.10628" lon="1.06479">
        <ele>332</ele>
        <time>2021-05-16T11:31:17Z</time>
      </trkpt>
      <trkpt lat="43.10619" lon="1.06473">
        <ele>332</ele>
        <time>2021-05-16T11:31:18Z</time>
      </trkpt>
      <trkpt lat="43.10611" lon="1.06467">
        <ele>332</ele>
        <time>2021-05-16T11:31:20Z</time>
      </trkpt>
      <trkpt lat="43.10604" lon="1.06456">
        <ele>332</ele>
        <time>2021-05-16T11:31:22Z</time>
      </trkpt>
      <trkpt lat="43.10599" lon="1.06445">
        <ele>332</ele>
        <time>2021-05-16T11:31:24Z</time>
      </trkpt>
      <trkpt lat="43.10594" lon="1.06428">
        <ele>332</ele>
        <time>2021-05-16T11:31:26Z</time>
      </trkpt>
      <trkpt lat="43.10583" lon="1.06368">
        <ele>330</ele>
        <time>2021-05-16T11:31:34Z</time>
      </trkpt>
      <trkpt lat="43.10577" lon="1.06349">
        <ele>330</ele>
        <time>2021-05-16T11:31:37Z</time>
      </trkpt>
      <trkpt lat="43.1057" lon="1.06337">
        <ele>329</ele>
        <time>2021-05-16T11:31:39Z</time>
      </trkpt>
      <trkpt lat="43.10563" lon="1.06329">
        <ele>329</ele>
        <time>2021-05-16T11:31:40Z</time>
      </trkpt>
      <trkpt lat="43.10536" lon="1.0631">
        <ele>330</ele>
        <time>2021-05-16T11:31:46Z</time>
      </trkpt>
      <trkpt lat="43.10484" lon="1.06281">
        <ele>331</ele>
        <time>2021-05-16T11:31:56Z</time>
      </trkpt>
      <trkpt lat="43.10469" lon="1.06271">
        <ele>331</ele>
        <time>2021-05-16T11:31:59Z</time>
      </trkpt>
      <trkpt lat="43.10457" lon="1.06261">
        <ele>330</ele>
        <time>2021-05-16T11:32:01Z</time>
      </trkpt>
      <trkpt lat="43.10444" lon="1.06246">
        <ele>330</ele>
        <time>2021-05-16T11:32:04Z</time>
      </trkpt>
      <trkpt lat="43.10432" lon="1.06237">
        <ele>331</ele>
        <time>2021-05-16T11:32:07Z</time>
      </trkpt>
      <trkpt lat="43.10422" lon="1.06232">
        <ele>331</ele>
        <time>2021-05-16T11:32:09Z</time>
      </trkpt>
      <trkpt lat="43.10405" lon="1.06227">
        <ele>331</ele>
        <time>2021-05-16T11:32:12Z</time>
      </trkpt>
      <trkpt lat="43.10384" lon="1.06226">
        <ele>331</ele>
        <time>2021-05-16T11:32:15Z</time>
      </trkpt>
      <trkpt lat="43.10303" lon="1.06234">
        <ele>331</ele>
        <time>2021-05-16T11:32:30Z</time>
      </trkpt>
      <trkpt lat="43.10239" lon="1.06232">
        <ele>330</ele>
        <time>2021-05-16T11:32:41Z</time>
      </trkpt>
      <trkpt lat="43.10222" lon="1.0623">
        <ele>330</ele>
        <time>2021-05-16T11:32:44Z</time>
      </trkpt>
      <trkpt lat="43.10135" lon="1.0621">
        <ele>329</ele>
        <time>2021-05-16T11:33:00Z</time>
      </trkpt>
      <trkpt lat="43.10099" lon="1.06209">
        <ele>328</ele>
        <time>2021-05-16T11:33:06Z</time>
      </trkpt>
      <trkpt lat="43.10092" lon="1.06212">
        <ele>327</ele>
        <time>2021-05-16T11:33:08Z</time>
      </trkpt>
      <trkpt lat="43.10088" lon="1.06217">
        <ele>327</ele>
        <time>2021-05-16T11:33:09Z</time>
      </trkpt>
      <trkpt lat="43.10089" lon="1.06224">
        <ele>326</ele>
        <time>2021-05-16T11:33:10Z</time>
      </trkpt>
      <trkpt lat="43.10094" lon="1.0624">
        <ele>326</ele>
        <time>2021-05-16T11:33:12Z</time>
      </trkpt>
      <trkpt lat="43.10089" lon="1.06224">
        <ele>326</ele>
        <time>2021-05-16T11:33:14Z</time>
      </trkpt>
      <trkpt lat="43.10088" lon="1.06217">
        <ele>327</ele>
        <time>2021-05-16T11:33:15Z</time>
      </trkpt>
      <trkpt lat="43.1008" lon="1.0621">
        <ele>327</ele>
        <time>2021-05-16T11:33:17Z</time>
      </trkpt>
      <trkpt lat="43.10052" lon="1.06174">
        <ele>327</ele>
        <time>2021-05-16T11:33:24Z</time>
      </trkpt>
      <trkpt lat="43.10039" lon="1.06156">
        <ele>327</ele>
        <time>2021-05-16T11:33:27Z</time>
      </trkpt>
      <trkpt lat="43.1003" lon="1.06137">
        <ele>326</ele>
        <time>2021-05-16T11:33:30Z</time>
      </trkpt>
      <trkpt lat="43.10004" lon="1.06045">
        <ele>325</ele>
        <time>2021-05-16T11:33:43Z</time>
      </trkpt>
      <trkpt lat="43.09999" lon="1.06006">
        <ele>324</ele>
        <time>2021-05-16T11:33:48Z</time>
      </trkpt>
      <trkpt lat="43.09996" lon="1.05891">
        <ele>324</ele>
        <time>2021-05-16T11:34:03Z</time>
      </trkpt>
      <trkpt lat="43.09992" lon="1.05864">
        <ele>325</ele>
        <time>2021-05-16T11:34:06Z</time>
      </trkpt>
      <trkpt lat="43.09967" lon="1.05721">
        <ele>326</ele>
        <time>2021-05-16T11:34:25Z</time>
      </trkpt>
      <trkpt lat="43.09955" lon="1.05663">
        <ele>325</ele>
        <time>2021-05-16T11:34:33Z</time>
      </trkpt>
      <trkpt lat="43.09929" lon="1.05563">
        <ele>329</ele>
        <time>2021-05-16T11:34:47Z</time>
      </trkpt>
      <trkpt lat="43.09909" lon="1.05513">
        <ele>332</ele>
        <time>2021-05-16T11:34:54Z</time>
      </trkpt>
      <trkpt lat="43.09891" lon="1.05482">
        <ele>333</ele>
        <time>2021-05-16T11:35:00Z</time>
      </trkpt>
      <trkpt lat="43.09756" lon="1.05304">
        <ele>325</ele>
        <time>2021-05-16T11:35:33Z</time>
      </trkpt>
      <trkpt lat="43.09741" lon="1.05281">
        <ele>325</ele>
        <time>2021-05-16T11:35:37Z</time>
      </trkpt>
      <trkpt lat="43.09735" lon="1.05261">
        <ele>326</ele>
        <time>2021-05-16T11:35:40Z</time>
      </trkpt>
      <trkpt lat="43.09735" lon="1.05241">
        <ele>326</ele>
        <time>2021-05-16T11:35:42Z</time>
      </trkpt>
      <trkpt lat="43.0974" lon="1.05216">
        <ele>326</ele>
        <time>2021-05-16T11:35:46Z</time>
      </trkpt>
      <trkpt lat="43.09752" lon="1.05173">
        <ele>326</ele>
        <time>2021-05-16T11:35:52Z</time>
      </trkpt>
      <trkpt lat="43.0977" lon="1.05093">
        <ele>330</ele>
        <time>2021-05-16T11:36:03Z</time>
      </trkpt>
      <trkpt lat="43.09774" lon="1.05041">
        <ele>331</ele>
        <time>2021-05-16T11:36:09Z</time>
      </trkpt>
      <trkpt lat="43.09773" lon="1.05001">
        <ele>332</ele>
        <time>2021-05-16T11:36:15Z</time>
      </trkpt>
      <trkpt lat="43.09758" lon="1.04825">
        <ele>327</ele>
        <time>2021-05-16T11:36:38Z</time>
      </trkpt>
      <trkpt lat="43.09761" lon="1.04605">
        <ele>326</ele>
        <time>2021-05-16T11:37:06Z</time>
      </trkpt>
      <trkpt lat="43.09768" lon="1.04561">
        <ele>326</ele>
        <time>2021-05-16T11:37:12Z</time>
      </trkpt>
      <trkpt lat="43.09779" lon="1.0454">
        <ele>327</ele>
        <time>2021-05-16T11:37:15Z</time>
      </trkpt>
      <trkpt lat="43.09796" lon="1.04531">
        <ele>328</ele>
        <time>2021-05-16T11:37:19Z</time>
      </trkpt>
      <trkpt lat="43.09835" lon="1.04523">
        <ele>331</ele>
        <time>2021-05-16T11:37:26Z</time>
      </trkpt>
      <trkpt lat="43.09872" lon="1.04502">
        <ele>327</ele>
        <time>2021-05-16T11:37:33Z</time>
      </trkpt>
      <trkpt lat="43.09881" lon="1.04483">
        <ele>325</ele>
        <time>2021-05-16T11:37:36Z</time>
      </trkpt>
      <trkpt lat="43.09887" lon="1.04445">
        <ele>322</ele>
        <time>2021-05-16T11:37:41Z</time>
      </trkpt>
      <trkpt lat="43.09885" lon="1.04395">
        <ele>321</ele>
        <time>2021-05-16T11:37:47Z</time>
      </trkpt>
      <trkpt lat="43.09884" lon="1.0437">
        <ele>323</ele>
        <time>2021-05-16T11:37:50Z</time>
      </trkpt>
      <trkpt lat="43.09893" lon="1.04085">
        <ele>321</ele>
        <time>2021-05-16T11:38:28Z</time>
      </trkpt>
      <trkpt lat="43.09886" lon="1.04013">
        <ele>323</ele>
        <time>2021-05-16T11:38:37Z</time>
      </trkpt>
      <trkpt lat="43.09901" lon="1.03863">
        <ele>320</ele>
        <time>2021-05-16T11:38:57Z</time>
      </trkpt>
      <trkpt lat="43.09874" lon="1.03714">
        <ele>321</ele>
        <time>2021-05-16T11:39:17Z</time>
      </trkpt>
      <trkpt lat="43.09871" lon="1.0348">
        <ele>318</ele>
        <time>2021-05-16T11:39:47Z</time>
      </trkpt>
      <trkpt lat="43.09873" lon="1.03361">
        <ele>317</ele>
        <time>2021-05-16T11:40:02Z</time>
      </trkpt>
      <trkpt lat="43.09778" lon="1.03028">
        <ele>319</ele>
        <time>2021-05-16T11:40:49Z</time>
      </trkpt>
      <trkpt lat="43.09739" lon="1.0296">
        <ele>321</ele>
        <time>2021-05-16T11:41:00Z</time>
      </trkpt>
      <trkpt lat="43.09686" lon="1.02916">
        <ele>326</ele>
        <time>2021-05-16T11:41:11Z</time>
      </trkpt>
      <trkpt lat="43.09643" lon="1.02804">
        <ele>322</ele>
        <time>2021-05-16T11:41:28Z</time>
      </trkpt>
      <trkpt lat="43.09641" lon="1.02791">
        <ele>321</ele>
        <time>2021-05-16T11:41:29Z</time>
      </trkpt>
      <trkpt lat="43.0965" lon="1.02781">
        <ele>319</ele>
        <time>2021-05-16T11:41:31Z</time>
      </trkpt>
      <trkpt lat="43.09654" lon="1.02771">
        <ele>318</ele>
        <time>2021-05-16T11:41:33Z</time>
      </trkpt>
      <trkpt lat="43.0966" lon="1.02753">
        <ele>316</ele>
        <time>2021-05-16T11:41:35Z</time>
      </trkpt>
      <trkpt lat="43.09668" lon="1.02731">
        <ele>316</ele>
        <time>2021-05-16T11:41:39Z</time>
      </trkpt>
      <trkpt lat="43.09699" lon="1.02672">
        <ele>319</ele>
        <time>2021-05-16T11:41:48Z</time>
      </trkpt>
      <trkpt lat="43.09714" lon="1.02632">
        <ele>322</ele>
        <time>2021-05-16T11:41:54Z</time>
      </trkpt>
      <trkpt lat="43.09722" lon="1.02501">
        <ele>329</ele>
        <time>2021-05-16T11:42:11Z</time>
      </trkpt>
      <trkpt lat="43.09732" lon="1.0246">
        <ele>332</ele>
        <time>2021-05-16T11:42:17Z</time>
      </trkpt>
      <trkpt lat="43.09748" lon="1.02427">
        <ele>333</ele>
        <time>2021-05-16T11:42:22Z</time>
      </trkpt>
      <trkpt lat="43.09783" lon="1.02379">
        <ele>340</ele>
        <time>2021-05-16T11:42:31Z</time>
      </trkpt>
      <trkpt lat="43.09796" lon="1.02352">
        <ele>342</ele>
        <time>2021-05-16T11:42:35Z</time>
      </trkpt>
      <trkpt lat="43.09815" lon="1.02304">
        <ele>344</ele>
        <time>2021-05-16T11:42:42Z</time>
      </trkpt>
      <trkpt lat="43.09836" lon="1.02272">
        <ele>344</ele>
        <time>2021-05-16T11:42:47Z</time>
      </trkpt>
      <trkpt lat="43.0988" lon="1.0223">
        <ele>351</ele>
        <time>2021-05-16T11:42:57Z</time>
      </trkpt>
      <trkpt lat="43.09896" lon="1.02202">
        <ele>353</ele>
        <time>2021-05-16T11:43:02Z</time>
      </trkpt>
      <trkpt lat="43.09902" lon="1.02172">
        <ele>354</ele>
        <time>2021-05-16T11:43:06Z</time>
      </trkpt>
      <trkpt lat="43.09895" lon="1.02109">
        <ele>352</ele>
        <time>2021-05-16T11:43:14Z</time>
      </trkpt>
      <trkpt lat="43.09895" lon="1.02079">
        <ele>352</ele>
        <time>2021-05-16T11:43:18Z</time>
      </trkpt>
      <trkpt lat="43.09903" lon="1.02052">
        <ele>353</ele>
        <time>2021-05-16T11:43:22Z</time>
      </trkpt>
      <trkpt lat="43.09923" lon="1.02018">
        <ele>355</ele>
        <time>2021-05-16T11:43:27Z</time>
      </trkpt>
      <trkpt lat="43.09931" lon="1.01996">
        <ele>356</ele>
        <time>2021-05-16T11:43:30Z</time>
      </trkpt>
      <trkpt lat="43.09934" lon="1.01983">
        <ele>357</ele>
        <time>2021-05-16T11:43:32Z</time>
      </trkpt>
      <trkpt lat="43.09932" lon="1.01962">
        <ele>358</ele>
        <time>2021-05-16T11:43:35Z</time>
      </trkpt>
      <trkpt lat="43.09917" lon="1.01915">
        <ele>362</ele>
        <time>2021-05-16T11:43:42Z</time>
      </trkpt>
      <trkpt lat="43.09901" lon="1.01875">
        <ele>363</ele>
        <time>2021-05-16T11:43:48Z</time>
      </trkpt>
      <trkpt lat="43.09889" lon="1.01824">
        <ele>365</ele>
        <time>2021-05-16T11:43:55Z</time>
      </trkpt>
      <trkpt lat="43.09882" lon="1.01781">
        <ele>367</ele>
        <time>2021-05-16T11:44:00Z</time>
      </trkpt>
      <trkpt lat="43.09856" lon="1.01678">
        <ele>369</ele>
        <time>2021-05-16T11:44:14Z</time>
      </trkpt>
      <trkpt lat="43.09853" lon="1.01645">
        <ele>370</ele>
        <time>2021-05-16T11:44:19Z</time>
      </trkpt>
      <trkpt lat="43.0986" lon="1.01609">
        <ele>372</ele>
        <time>2021-05-16T11:44:24Z</time>
      </trkpt>
      <trkpt lat="43.09891" lon="1.01517">
        <ele>377</ele>
        <time>2021-05-16T11:44:37Z</time>
      </trkpt>
      <trkpt lat="43.09895" lon="1.01496">
        <ele>377</ele>
        <time>2021-05-16T11:44:40Z</time>
      </trkpt>
      <trkpt lat="43.09894" lon="1.01473">
        <ele>378</ele>
        <time>2021-05-16T11:44:43Z</time>
      </trkpt>
      <trkpt lat="43.0985" lon="1.0124">
        <ele>396</ele>
        <time>2021-05-16T11:45:14Z</time>
      </trkpt>
      <trkpt lat="43.09847" lon="1.01175">
        <ele>398</ele>
        <time>2021-05-16T11:45:22Z</time>
      </trkpt>
      <trkpt lat="43.09834" lon="1.01117">
        <ele>398</ele>
        <time>2021-05-16T11:45:30Z</time>
      </trkpt>
      <trkpt lat="43.09809" lon="1.01081">
        <ele>400</ele>
        <time>2021-05-16T11:45:37Z</time>
      </trkpt>
      <trkpt lat="43.09719" lon="1.01025">
        <ele>412</ele>
        <time>2021-05-16T11:45:54Z</time>
      </trkpt>
      <trkpt lat="43.09702" lon="1.01004">
        <ele>414</ele>
        <time>2021-05-16T11:45:58Z</time>
      </trkpt>
      <trkpt lat="43.09691" lon="1.00974">
        <ele>414</ele>
        <time>2021-05-16T11:46:03Z</time>
      </trkpt>
      <trkpt lat="43.09687" lon="1.00949">
        <ele>414</ele>
        <time>2021-05-16T11:46:06Z</time>
      </trkpt>
      <trkpt lat="43.09687" lon="1.00938">
        <ele>413</ele>
        <time>2021-05-16T11:46:07Z</time>
      </trkpt>
      <trkpt lat="43.09632" lon="1.00933">
        <ele>415</ele>
        <time>2021-05-16T11:46:17Z</time>
      </trkpt>
      <trkpt lat="43.09606" lon="1.00942">
        <ele>415</ele>
        <time>2021-05-16T11:46:22Z</time>
      </trkpt>
      <trkpt lat="43.09587" lon="1.0096">
        <ele>417</ele>
        <time>2021-05-16T11:46:26Z</time>
      </trkpt>
      <trkpt lat="43.09558" lon="1.00994">
        <ele>417</ele>
        <time>2021-05-16T11:46:33Z</time>
      </trkpt>
      <trkpt lat="43.09547" lon="1.01016">
        <ele>417</ele>
        <time>2021-05-16T11:46:36Z</time>
      </trkpt>
      <trkpt lat="43.0954" lon="1.01054">
        <ele>418</ele>
        <time>2021-05-16T11:46:41Z</time>
      </trkpt>
      <trkpt lat="43.09532" lon="1.01104">
        <ele>421</ele>
        <time>2021-05-16T11:46:48Z</time>
      </trkpt>
      <trkpt lat="43.09527" lon="1.01123">
        <ele>422</ele>
        <time>2021-05-16T11:46:51Z</time>
      </trkpt>
      <trkpt lat="43.0951" lon="1.01151">
        <ele>422</ele>
        <time>2021-05-16T11:46:55Z</time>
      </trkpt>
      <trkpt lat="43.09487" lon="1.01172">
        <ele>423</ele>
        <time>2021-05-16T11:47:00Z</time>
      </trkpt>
      <trkpt lat="43.09457" lon="1.01184">
        <ele>424</ele>
        <time>2021-05-16T11:47:06Z</time>
      </trkpt>
      <trkpt lat="43.09436" lon="1.01185">
        <ele>425</ele>
        <time>2021-05-16T11:47:10Z</time>
      </trkpt>
      <trkpt lat="43.09421" lon="1.0118">
        <ele>425</ele>
        <time>2021-05-16T11:47:12Z</time>
      </trkpt>
      <trkpt lat="43.0928" lon="1.01114">
        <ele>429</ele>
        <time>2021-05-16T11:47:39Z</time>
      </trkpt>
      <trkpt lat="43.09262" lon="1.01112">
        <ele>429</ele>
        <time>2021-05-16T11:47:42Z</time>
      </trkpt>
      <trkpt lat="43.09245" lon="1.01114">
        <ele>430</ele>
        <time>2021-05-16T11:47:45Z</time>
      </trkpt>
      <trkpt lat="43.09202" lon="1.01149">
        <ele>431</ele>
        <time>2021-05-16T11:47:54Z</time>
      </trkpt>
      <trkpt lat="43.0919" lon="1.01162">
        <ele>431</ele>
        <time>2021-05-16T11:47:57Z</time>
      </trkpt>
      <trkpt lat="43.09182" lon="1.01174">
        <ele>430</ele>
        <time>2021-05-16T11:47:59Z</time>
      </trkpt>
      <trkpt lat="43.09122" lon="1.01309">
        <ele>426</ele>
        <time>2021-05-16T11:48:19Z</time>
      </trkpt>
      <trkpt lat="43.09113" lon="1.01319">
        <ele>427</ele>
        <time>2021-05-16T11:48:22Z</time>
      </trkpt>
      <trkpt lat="43.0887" lon="1.01446">
        <ele>431</ele>
        <time>2021-05-16T11:49:08Z</time>
      </trkpt>
      <trkpt lat="43.08848" lon="1.0145">
        <ele>430</ele>
        <time>2021-05-16T11:49:12Z</time>
      </trkpt>
      <trkpt lat="43.08814" lon="1.01447">
        <ele>427</ele>
        <time>2021-05-16T11:49:18Z</time>
      </trkpt>
      <trkpt lat="43.08795" lon="1.01449">
        <ele>424</ele>
        <time>2021-05-16T11:49:21Z</time>
      </trkpt>
      <trkpt lat="43.08775" lon="1.01462">
        <ele>424</ele>
        <time>2021-05-16T11:49:25Z</time>
      </trkpt>
      <trkpt lat="43.08727" lon="1.01517">
        <ele>427</ele>
        <time>2021-05-16T11:49:36Z</time>
      </trkpt>
      <trkpt lat="43.08714" lon="1.01527">
        <ele>427</ele>
        <time>2021-05-16T11:49:39Z</time>
      </trkpt>
      <trkpt lat="43.08693" lon="1.01536">
        <ele>426</ele>
        <time>2021-05-16T11:49:43Z</time>
      </trkpt>
      <trkpt lat="43.08677" lon="1.01545">
        <ele>425</ele>
        <time>2021-05-16T11:49:46Z</time>
      </trkpt>
      <trkpt lat="43.08636" lon="1.01584">
        <ele>427</ele>
        <time>2021-05-16T11:49:55Z</time>
      </trkpt>
      <trkpt lat="43.08568" lon="1.01636">
        <ele>426</ele>
        <time>2021-05-16T11:50:09Z</time>
      </trkpt>
      <trkpt lat="43.08523" lon="1.01659">
        <ele>424</ele>
        <time>2021-05-16T11:50:17Z</time>
      </trkpt>
      <trkpt lat="43.08513" lon="1.0167">
        <ele>423</ele>
        <time>2021-05-16T11:50:19Z</time>
      </trkpt>
      <trkpt lat="43.08508" lon="1.01693">
        <ele>421</ele>
        <time>2021-05-16T11:50:23Z</time>
      </trkpt>
      <trkpt lat="43.08511" lon="1.01714">
        <ele>422</ele>
        <time>2021-05-16T11:50:25Z</time>
      </trkpt>
      <trkpt lat="43.0853" lon="1.01751">
        <ele>426</ele>
        <time>2021-05-16T11:50:31Z</time>
      </trkpt>
      <trkpt lat="43.08534" lon="1.01771">
        <ele>428</ele>
        <time>2021-05-16T11:50:34Z</time>
      </trkpt>
      <trkpt lat="43.0853" lon="1.01793">
        <ele>427</ele>
        <time>2021-05-16T11:50:37Z</time>
      </trkpt>
      <trkpt lat="43.08492" lon="1.01837">
        <ele>418</ele>
        <time>2021-05-16T11:50:46Z</time>
      </trkpt>
      <trkpt lat="43.08479" lon="1.01863">
        <ele>418</ele>
        <time>2021-05-16T11:50:50Z</time>
      </trkpt>
      <trkpt lat="43.08477" lon="1.01892">
        <ele>420</ele>
        <time>2021-05-16T11:50:54Z</time>
      </trkpt>
      <trkpt lat="43.08486" lon="1.01941">
        <ele>425</ele>
        <time>2021-05-16T11:51:00Z</time>
      </trkpt>
      <trkpt lat="43.08485" lon="1.01962">
        <ele>426</ele>
        <time>2021-05-16T11:51:03Z</time>
      </trkpt>
      <trkpt lat="43.08479" lon="1.0198">
        <ele>427</ele>
        <time>2021-05-16T11:51:06Z</time>
      </trkpt>
      <trkpt lat="43.08471" lon="1.01989">
        <ele>427</ele>
        <time>2021-05-16T11:51:07Z</time>
      </trkpt>
      <trkpt lat="43.0846" lon="1.01991">
        <ele>426</ele>
        <time>2021-05-16T11:51:09Z</time>
      </trkpt>
      <trkpt lat="43.08448" lon="1.01979">
        <ele>424</ele>
        <time>2021-05-16T11:51:12Z</time>
      </trkpt>
      <trkpt lat="43.08437" lon="1.01965">
        <ele>421</ele>
        <time>2021-05-16T11:51:15Z</time>
      </trkpt>
      <trkpt lat="43.08418" lon="1.01951">
        <ele>416</ele>
        <time>2021-05-16T11:51:18Z</time>
      </trkpt>
      <trkpt lat="43.08401" lon="1.0195">
        <ele>414</ele>
        <time>2021-05-16T11:51:22Z</time>
      </trkpt>
      <trkpt lat="43.0838" lon="1.01958">
        <ele>413</ele>
        <time>2021-05-16T11:51:25Z</time>
      </trkpt>
      <trkpt lat="43.08352" lon="1.0199">
        <ele>413</ele>
        <time>2021-05-16T11:51:32Z</time>
      </trkpt>
      <trkpt lat="43.08309" lon="1.0208">
        <ele>413</ele>
        <time>2021-05-16T11:51:46Z</time>
      </trkpt>
      <trkpt lat="43.08293" lon="1.02103">
        <ele>412</ele>
        <time>2021-05-16T11:51:50Z</time>
      </trkpt>
      <trkpt lat="43.08279" lon="1.02121">
        <ele>411</ele>
        <time>2021-05-16T11:51:53Z</time>
      </trkpt>
      <trkpt lat="43.08244" lon="1.02149">
        <ele>410</ele>
        <time>2021-05-16T11:52:01Z</time>
      </trkpt>
      <trkpt lat="43.08206" lon="1.02167">
        <ele>408</ele>
        <time>2021-05-16T11:52:08Z</time>
      </trkpt>
      <trkpt lat="43.08181" lon="1.02169">
        <ele>406</ele>
        <time>2021-05-16T11:52:12Z</time>
      </trkpt>
      <trkpt lat="43.08151" lon="1.02163">
        <ele>405</ele>
        <time>2021-05-16T11:52:18Z</time>
      </trkpt>
      <trkpt lat="43.08093" lon="1.02124">
        <ele>406</ele>
        <time>2021-05-16T11:52:29Z</time>
      </trkpt>
      <trkpt lat="43.07982" lon="1.02032">
        <ele>416</ele>
        <time>2021-05-16T11:52:52Z</time>
      </trkpt>
      <trkpt lat="43.07968" lon="1.02026">
        <ele>418</ele>
        <time>2021-05-16T11:52:55Z</time>
      </trkpt>
      <trkpt lat="43.07954" lon="1.02025">
        <ele>419</ele>
        <time>2021-05-16T11:52:57Z</time>
      </trkpt>
      <trkpt lat="43.07938" lon="1.02028">
        <ele>420</ele>
        <time>2021-05-16T11:53:00Z</time>
      </trkpt>
      <trkpt lat="43.07851" lon="1.02073">
        <ele>417</ele>
        <time>2021-05-16T11:53:17Z</time>
      </trkpt>
      <trkpt lat="43.07764" lon="1.0221">
        <ele>417</ele>
        <time>2021-05-16T11:53:40Z</time>
      </trkpt>
      <trkpt lat="43.07701" lon="1.02254">
        <ele>418</ele>
        <time>2021-05-16T11:53:53Z</time>
      </trkpt>
      <trkpt lat="43.07619" lon="1.0239">
        <ele>420</ele>
        <time>2021-05-16T11:54:16Z</time>
      </trkpt>
      <trkpt lat="43.07577" lon="1.02447">
        <ele>424</ele>
        <time>2021-05-16T11:54:26Z</time>
      </trkpt>
      <trkpt lat="43.07529" lon="1.02499">
        <ele>426</ele>
        <time>2021-05-16T11:54:37Z</time>
      </trkpt>
      <trkpt lat="43.07488" lon="1.02538">
        <ele>423</ele>
        <time>2021-05-16T11:54:46Z</time>
      </trkpt>
      <trkpt lat="43.0745" lon="1.02558">
        <ele>420</ele>
        <time>2021-05-16T11:54:53Z</time>
      </trkpt>
      <trkpt lat="43.07369" lon="1.02584">
        <ele>421</ele>
        <time>2021-05-16T11:55:08Z</time>
      </trkpt>
      <trkpt lat="43.07319" lon="1.02575">
        <ele>423</ele>
        <time>2021-05-16T11:55:17Z</time>
      </trkpt>
      <trkpt lat="43.0729" lon="1.02545">
        <ele>420</ele>
        <time>2021-05-16T11:55:24Z</time>
      </trkpt>
      <trkpt lat="43.07279" lon="1.02538">
        <ele>419</ele>
        <time>2021-05-16T11:55:26Z</time>
      </trkpt>
      <trkpt lat="43.07269" lon="1.02537">
        <ele>419</ele>
        <time>2021-05-16T11:55:28Z</time>
      </trkpt>
      <trkpt lat="43.07157" lon="1.02654">
        <ele>427</ele>
        <time>2021-05-16T11:55:53Z</time>
      </trkpt>
      <trkpt lat="43.0713" lon="1.02688">
        <ele>426</ele>
        <time>2021-05-16T11:55:59Z</time>
      </trkpt>
      <trkpt lat="43.07108" lon="1.02722">
        <ele>426</ele>
        <time>2021-05-16T11:56:05Z</time>
      </trkpt>
      <trkpt lat="43.07095" lon="1.02755">
        <ele>428</ele>
        <time>2021-05-16T11:56:10Z</time>
      </trkpt>
      <trkpt lat="43.07025" lon="1.02963">
        <ele>438</ele>
        <time>2021-05-16T11:56:40Z</time>
      </trkpt>
      <trkpt lat="43.0701" lon="1.02983">
        <ele>438</ele>
        <time>2021-05-16T11:56:43Z</time>
      </trkpt>
      <trkpt lat="43.06993" lon="1.0301">
        <ele>439</ele>
        <time>2021-05-16T11:56:48Z</time>
      </trkpt>
      <trkpt lat="43.06962" lon="1.03031">
        <ele>440</ele>
        <time>2021-05-16T11:56:54Z</time>
      </trkpt>
      <trkpt lat="43.06895" lon="1.03038">
        <ele>442</ele>
        <time>2021-05-16T11:57:06Z</time>
      </trkpt>
      <trkpt lat="43.06864" lon="1.03033">
        <ele>443</ele>
        <time>2021-05-16T11:57:12Z</time>
      </trkpt>
      <trkpt lat="43.06846" lon="1.03042">
        <ele>444</ele>
        <time>2021-05-16T11:57:15Z</time>
      </trkpt>
      <trkpt lat="43.06788" lon="1.03087">
        <ele>446</ele>
        <time>2021-05-16T11:57:27Z</time>
      </trkpt>
      <trkpt lat="43.06762" lon="1.03102">
        <ele>447</ele>
        <time>2021-05-16T11:57:32Z</time>
      </trkpt>
      <trkpt lat="43.06742" lon="1.03148">
        <ele>447</ele>
        <time>2021-05-16T11:57:39Z</time>
      </trkpt>
      <trkpt lat="43.06706" lon="1.03249">
        <ele>449</ele>
        <time>2021-05-16T11:57:54Z</time>
      </trkpt>
      <trkpt lat="43.06697" lon="1.03297">
        <ele>451</ele>
        <time>2021-05-16T11:58:00Z</time>
      </trkpt>
      <trkpt lat="43.06689" lon="1.0348">
        <ele>453</ele>
        <time>2021-05-16T11:58:24Z</time>
      </trkpt>
      <trkpt lat="43.06687" lon="1.03534">
        <ele>453</ele>
        <time>2021-05-16T11:58:31Z</time>
      </trkpt>
      <trkpt lat="43.06704" lon="1.03568">
        <ele>452</ele>
        <time>2021-05-16T11:58:36Z</time>
      </trkpt>
      <trkpt lat="43.06703" lon="1.03578">
        <ele>452</ele>
        <time>2021-05-16T11:58:38Z</time>
      </trkpt>
      <trkpt lat="43.06701" lon="1.03586">
        <ele>452</ele>
        <time>2021-05-16T11:58:39Z</time>
      </trkpt>
      <trkpt lat="43.06697" lon="1.03591">
        <ele>452</ele>
        <time>2021-05-16T11:58:40Z</time>
      </trkpt>
      <trkpt lat="43.0668" lon="1.0359">
        <ele>453</ele>
        <time>2021-05-16T11:58:43Z</time>
      </trkpt>
      <trkpt lat="43.06614" lon="1.03612">
        <ele>454</ele>
        <time>2021-05-16T11:58:55Z</time>
      </trkpt>
      <trkpt lat="43.0658" lon="1.03614">
        <ele>454</ele>
        <time>2021-05-16T11:59:01Z</time>
      </trkpt>
      <trkpt lat="43.06558" lon="1.03589">
        <ele>455</ele>
        <time>2021-05-16T11:59:06Z</time>
      </trkpt>
      <trkpt lat="43.06533" lon="1.03566">
        <ele>455</ele>
        <time>2021-05-16T11:59:11Z</time>
      </trkpt>
      <trkpt lat="43.06517" lon="1.03559">
        <ele>454</ele>
        <time>2021-05-16T11:59:14Z</time>
      </trkpt>
      <trkpt lat="43.06501" lon="1.0356">
        <ele>453</ele>
        <time>2021-05-16T11:59:17Z</time>
      </trkpt>
      <trkpt lat="43.06462" lon="1.03589">
        <ele>454</ele>
        <time>2021-05-16T11:59:25Z</time>
      </trkpt>
      <trkpt lat="43.06378" lon="1.03679">
        <ele>456</ele>
        <time>2021-05-16T11:59:44Z</time>
      </trkpt>
      <trkpt lat="43.0631" lon="1.03739">
        <ele>456</ele>
        <time>2021-05-16T11:59:58Z</time>
      </trkpt>
      <trkpt lat="43.06256" lon="1.03757">
        <ele>460</ele>
        <time>2021-05-16T12:00:08Z</time>
      </trkpt>
      <trkpt lat="43.06215" lon="1.03787">
        <ele>463</ele>
        <time>2021-05-16T12:00:17Z</time>
      </trkpt>
      <trkpt lat="43.06164" lon="1.03847">
        <ele>467</ele>
        <time>2021-05-16T12:00:28Z</time>
      </trkpt>
      <trkpt lat="43.06154" lon="1.03934">
        <ele>467</ele>
        <time>2021-05-16T12:00:40Z</time>
      </trkpt>
      <trkpt lat="43.06149" lon="1.03964">
        <ele>466</ele>
        <time>2021-05-16T12:00:44Z</time>
      </trkpt>
      <trkpt lat="43.06125" lon="1.03972">
        <ele>468</ele>
        <time>2021-05-16T12:00:48Z</time>
      </trkpt>
      <trkpt lat="43.0605" lon="1.03977">
        <ele>474</ele>
        <time>2021-05-16T12:01:02Z</time>
      </trkpt>
      <trkpt lat="43.06024" lon="1.04072">
        <ele>471</ele>
        <time>2021-05-16T12:01:15Z</time>
      </trkpt>
      <trkpt lat="43.06025" lon="1.04163">
        <ele>474</ele>
        <time>2021-05-16T12:01:27Z</time>
      </trkpt>
      <trkpt lat="43.06069" lon="1.04242">
        <ele>473</ele>
        <time>2021-05-16T12:01:40Z</time>
      </trkpt>
      <trkpt lat="43.06087" lon="1.04261">
        <ele>471</ele>
        <time>2021-05-16T12:01:44Z</time>
      </trkpt>
      <trkpt lat="43.06082" lon="1.04329">
        <ele>475</ele>
        <time>2021-05-16T12:01:53Z</time>
      </trkpt>
      <trkpt lat="43.06079" lon="1.0439">
        <ele>479</ele>
        <time>2021-05-16T12:02:00Z</time>
      </trkpt>
      <trkpt lat="43.06116" lon="1.04439">
        <ele>478</ele>
        <time>2021-05-16T12:02:10Z</time>
      </trkpt>
      <trkpt lat="43.06168" lon="1.04446">
        <ele>474</ele>
        <time>2021-05-16T12:02:19Z</time>
      </trkpt>
      <trkpt lat="43.06202" lon="1.04472">
        <ele>474</ele>
        <time>2021-05-16T12:02:26Z</time>
      </trkpt>
      <trkpt lat="43.06216" lon="1.04514">
        <ele>474</ele>
        <time>2021-05-16T12:02:32Z</time>
      </trkpt>
      <trkpt lat="43.06193" lon="1.04582">
        <ele>475</ele>
        <time>2021-05-16T12:02:42Z</time>
      </trkpt>
      <trkpt lat="43.06176" lon="1.04687">
        <ele>475</ele>
        <time>2021-05-16T12:02:56Z</time>
      </trkpt>
      <trkpt lat="43.06171" lon="1.04849">
        <ele>474</ele>
        <time>2021-05-16T12:03:17Z</time>
      </trkpt>
      <trkpt lat="43.06183" lon="1.05109">
        <ele>470</ele>
        <time>2021-05-16T12:03:51Z</time>
      </trkpt>
      <trkpt lat="43.06179" lon="1.05159">
        <ele>471</ele>
        <time>2021-05-16T12:03:57Z</time>
      </trkpt>
      <trkpt lat="43.06118" lon="1.0546">
        <ele>472</ele>
        <time>2021-05-16T12:04:38Z</time>
      </trkpt>
      <trkpt lat="43.06122" lon="1.05499">
        <ele>474</ele>
        <time>2021-05-16T12:04:43Z</time>
      </trkpt>
      <trkpt lat="43.06154" lon="1.05539">
        <ele>475</ele>
        <time>2021-05-16T12:04:51Z</time>
      </trkpt>
      <trkpt lat="43.06169" lon="1.05554">
        <ele>476</ele>
        <time>2021-05-16T12:04:54Z</time>
      </trkpt>
      <trkpt lat="43.06176" lon="1.05564">
        <ele>475</ele>
        <time>2021-05-16T12:04:56Z</time>
      </trkpt>
      <trkpt lat="43.06181" lon="1.05588">
        <ele>474</ele>
        <time>2021-05-16T12:04:59Z</time>
      </trkpt>
      <trkpt lat="43.06183" lon="1.05608">
        <ele>472</ele>
        <time>2021-05-16T12:05:01Z</time>
      </trkpt>
      <trkpt lat="43.06184" lon="1.05656">
        <ele>470</ele>
        <time>2021-05-16T12:05:08Z</time>
      </trkpt>
      <trkpt lat="43.06182" lon="1.05679">
        <ele>469</ele>
        <time>2021-05-16T12:05:11Z</time>
      </trkpt>
      <trkpt lat="43.06162" lon="1.05814">
        <ele>473</ele>
        <time>2021-05-16T12:05:29Z</time>
      </trkpt>
      <trkpt lat="43.06126" lon="1.06217">
        <ele>484</ele>
        <time>2021-05-16T12:06:21Z</time>
      </trkpt>
      <trkpt lat="43.06118" lon="1.06246">
        <ele>485</ele>
        <time>2021-05-16T12:06:25Z</time>
      </trkpt>
      <trkpt lat="43.06123" lon="1.06254">
        <ele>485</ele>
        <time>2021-05-16T12:06:27Z</time>
      </trkpt>
      <trkpt lat="43.06124" lon="1.06263">
        <ele>485</ele>
        <time>2021-05-16T12:06:28Z</time>
      </trkpt>
      <trkpt lat="43.06122" lon="1.06284">
        <ele>486</ele>
        <time>2021-05-16T12:06:31Z</time>
      </trkpt>
      <trkpt lat="43.06124" lon="1.06263">
        <ele>485</ele>
        <time>2021-05-16T12:06:34Z</time>
      </trkpt>
      <trkpt lat="43.06123" lon="1.06254">
        <ele>485</ele>
        <time>2021-05-16T12:06:35Z</time>
      </trkpt>
      <trkpt lat="43.06118" lon="1.06246">
        <ele>485</ele>
        <time>2021-05-16T12:06:36Z</time>
      </trkpt>
      <trkpt lat="43.06046" lon="1.06374">
        <ele>483</ele>
        <time>2021-05-16T12:06:57Z</time>
      </trkpt>
      <trkpt lat="43.06036" lon="1.06405">
        <ele>483</ele>
        <time>2021-05-16T12:07:01Z</time>
      </trkpt>
      <trkpt lat="43.0599" lon="1.06582">
        <ele>488</ele>
        <time>2021-05-16T12:07:26Z</time>
      </trkpt>
      <trkpt lat="43.05977" lon="1.0661">
        <ele>489</ele>
        <time>2021-05-16T12:07:30Z</time>
      </trkpt>
      <trkpt lat="43.05957" lon="1.06631">
        <ele>489</ele>
        <time>2021-05-16T12:07:35Z</time>
      </trkpt>
      <trkpt lat="43.0593" lon="1.06646">
        <ele>488</ele>
        <time>2021-05-16T12:07:40Z</time>
      </trkpt>
      <trkpt lat="43.05887" lon="1.0666">
        <ele>485</ele>
        <time>2021-05-16T12:07:48Z</time>
      </trkpt>
      <trkpt lat="43.05872" lon="1.06673">
        <ele>484</ele>
        <time>2021-05-16T12:07:51Z</time>
      </trkpt>
      <trkpt lat="43.05861" lon="1.06695">
        <ele>484</ele>
        <time>2021-05-16T12:07:54Z</time>
      </trkpt>
      <trkpt lat="43.05855" lon="1.06726">
        <ele>485</ele>
        <time>2021-05-16T12:07:59Z</time>
      </trkpt>
      <trkpt lat="43.05851" lon="1.06756">
        <ele>486</ele>
        <time>2021-05-16T12:08:03Z</time>
      </trkpt>
      <trkpt lat="43.05853" lon="1.0681">
        <ele>488</ele>
        <time>2021-05-16T12:08:10Z</time>
      </trkpt>
      <trkpt lat="43.05849" lon="1.06827">
        <ele>488</ele>
        <time>2021-05-16T12:08:12Z</time>
      </trkpt>
      <trkpt lat="43.05844" lon="1.06845">
        <ele>487</ele>
        <time>2021-05-16T12:08:14Z</time>
      </trkpt>
      <trkpt lat="43.05814" lon="1.06917">
        <ele>483</ele>
        <time>2021-05-16T12:08:25Z</time>
      </trkpt>
      <trkpt lat="43.05803" lon="1.06933">
        <ele>484</ele>
        <time>2021-05-16T12:08:28Z</time>
      </trkpt>
      <trkpt lat="43.05765" lon="1.06976">
        <ele>483</ele>
        <time>2021-05-16T12:08:37Z</time>
      </trkpt>
      <trkpt lat="43.05752" lon="1.07004">
        <ele>485</ele>
        <time>2021-05-16T12:08:41Z</time>
      </trkpt>
      <trkpt lat="43.05725" lon="1.07092">
        <ele>484</ele>
        <time>2021-05-16T12:08:53Z</time>
      </trkpt>
      <trkpt lat="43.05706" lon="1.07129">
        <ele>480</ele>
        <time>2021-05-16T12:08:59Z</time>
      </trkpt>
      <trkpt lat="43.05641" lon="1.07201">
        <ele>472</ele>
        <time>2021-05-16T12:09:14Z</time>
      </trkpt>
      <trkpt lat="43.05589" lon="1.0724">
        <ele>468</ele>
        <time>2021-05-16T12:09:25Z</time>
      </trkpt>
      <trkpt lat="43.05566" lon="1.07251">
        <ele>467</ele>
        <time>2021-05-16T12:09:29Z</time>
      </trkpt>
      <trkpt lat="43.05548" lon="1.0725">
        <ele>467</ele>
        <time>2021-05-16T12:09:32Z</time>
      </trkpt>
      <trkpt lat="43.05533" lon="1.07243">
        <ele>467</ele>
        <time>2021-05-16T12:09:35Z</time>
      </trkpt>
      <trkpt lat="43.0551" lon="1.07227">
        <ele>470</ele>
        <time>2021-05-16T12:09:40Z</time>
      </trkpt>
      <trkpt lat="43.05504" lon="1.07226">
        <ele>470</ele>
        <time>2021-05-16T12:09:41Z</time>
      </trkpt>
      <trkpt lat="43.05497" lon="1.07229">
        <ele>470</ele>
        <time>2021-05-16T12:09:42Z</time>
      </trkpt>
      <trkpt lat="43.0548" lon="1.07252">
        <ele>467</ele>
        <time>2021-05-16T12:09:46Z</time>
      </trkpt>
      <trkpt lat="43.05471" lon="1.0726">
        <ele>467</ele>
        <time>2021-05-16T12:09:48Z</time>
      </trkpt>
      <trkpt lat="43.05459" lon="1.07262">
        <ele>468</ele>
        <time>2021-05-16T12:09:50Z</time>
      </trkpt>
      <trkpt lat="43.05448" lon="1.0727">
        <ele>468</ele>
        <time>2021-05-16T12:09:53Z</time>
      </trkpt>
      <trkpt lat="43.0544" lon="1.07284">
        <ele>468</ele>
        <time>2021-05-16T12:09:55Z</time>
      </trkpt>
      <trkpt lat="43.05437" lon="1.07298">
        <ele>466</ele>
        <time>2021-05-16T12:09:57Z</time>
      </trkpt>
      <trkpt lat="43.05431" lon="1.07361">
        <ele>460</ele>
        <time>2021-05-16T12:10:05Z</time>
      </trkpt>
      <trkpt lat="43.05423" lon="1.07381">
        <ele>459</ele>
        <time>2021-05-16T12:10:08Z</time>
      </trkpt>
      <trkpt lat="43.05408" lon="1.07396">
        <ele>457</ele>
        <time>2021-05-16T12:10:11Z</time>
      </trkpt>
      <trkpt lat="43.05392" lon="1.07402">
        <ele>456</ele>
        <time>2021-05-16T12:10:14Z</time>
      </trkpt>
      <trkpt lat="43.05368" lon="1.07403">
        <ele>456</ele>
        <time>2021-05-16T12:10:19Z</time>
      </trkpt>
      <trkpt lat="43.05351" lon="1.07411">
        <ele>454</ele>
        <time>2021-05-16T12:10:22Z</time>
      </trkpt>
      <trkpt lat="43.05338" lon="1.07422">
        <ele>452</ele>
        <time>2021-05-16T12:10:25Z</time>
      </trkpt>
      <trkpt lat="43.05309" lon="1.07463">
        <ele>448</ele>
        <time>2021-05-16T12:10:32Z</time>
      </trkpt>
      <trkpt lat="43.05283" lon="1.07511">
        <ele>444</ele>
        <time>2021-05-16T12:10:40Z</time>
      </trkpt>
      <trkpt lat="43.05263" lon="1.07552">
        <ele>440</ele>
        <time>2021-05-16T12:10:46Z</time>
      </trkpt>
      <trkpt lat="43.05249" lon="1.07568">
        <ele>438</ele>
        <time>2021-05-16T12:10:49Z</time>
      </trkpt>
      <trkpt lat="43.05238" lon="1.07573">
        <ele>436</ele>
        <time>2021-05-16T12:10:51Z</time>
      </trkpt>
      <trkpt lat="43.05227" lon="1.07571">
        <ele>436</ele>
        <time>2021-05-16T12:10:53Z</time>
      </trkpt>
      <trkpt lat="43.05197" lon="1.07555">
        <ele>438</ele>
        <time>2021-05-16T12:10:59Z</time>
      </trkpt>
      <trkpt lat="43.05177" lon="1.07554">
        <ele>438</ele>
        <time>2021-05-16T12:11:03Z</time>
      </trkpt>
      <trkpt lat="43.05162" lon="1.07562">
        <ele>436</ele>
        <time>2021-05-16T12:11:06Z</time>
      </trkpt>
      <trkpt lat="43.05123" lon="1.07592">
        <ele>429</ele>
        <time>2021-05-16T12:11:14Z</time>
      </trkpt>
      <trkpt lat="43.05108" lon="1.07597">
        <ele>428</ele>
        <time>2021-05-16T12:11:16Z</time>
      </trkpt>
      <trkpt lat="43.05071" lon="1.07591">
        <ele>427</ele>
        <time>2021-05-16T12:11:23Z</time>
      </trkpt>
      <trkpt lat="43.05055" lon="1.07597">
        <ele>427</ele>
        <time>2021-05-16T12:11:26Z</time>
      </trkpt>
      <trkpt lat="43.05008" lon="1.07638">
        <ele>423</ele>
        <time>2021-05-16T12:11:36Z</time>
      </trkpt>
      <trkpt lat="43.04987" lon="1.07649">
        <ele>422</ele>
        <time>2021-05-16T12:11:40Z</time>
      </trkpt>
      <trkpt lat="43.04292" lon="1.0791">
        <ele>384</ele>
        <time>2021-05-16T12:13:48Z</time>
      </trkpt>
      <trkpt lat="43.04269" lon="1.07912">
        <ele>383</ele>
        <time>2021-05-16T12:13:52Z</time>
      </trkpt>
      <trkpt lat="43.04248" lon="1.0791">
        <ele>382</ele>
        <time>2021-05-16T12:13:56Z</time>
      </trkpt>
      <trkpt lat="43.04212" lon="1.07896">
        <ele>385</ele>
        <time>2021-05-16T12:14:03Z</time>
      </trkpt>
      <trkpt lat="43.0417" lon="1.07877">
        <ele>387</ele>
        <time>2021-05-16T12:14:10Z</time>
      </trkpt>
      <trkpt lat="43.04161" lon="1.07868">
        <ele>387</ele>
        <time>2021-05-16T12:14:12Z</time>
      </trkpt>
      <trkpt lat="43.04145" lon="1.07881">
        <ele>388</ele>
        <time>2021-05-16T12:14:16Z</time>
      </trkpt>
      <trkpt lat="43.0411" lon="1.07881">
        <ele>388</ele>
        <time>2021-05-16T12:14:22Z</time>
      </trkpt>
      <trkpt lat="43.04077" lon="1.07891">
        <ele>388</ele>
        <time>2021-05-16T12:14:28Z</time>
      </trkpt>
      <trkpt lat="43.04045" lon="1.07898">
        <ele>387</ele>
        <time>2021-05-16T12:14:34Z</time>
      </trkpt>
      <trkpt lat="43.04145" lon="1.08206">
        <ele>395</ele>
        <time>2021-05-16T12:15:18Z</time>
      </trkpt>
      <trkpt lat="43.04149" lon="1.08225">
        <ele>395</ele>
        <time>2021-05-16T12:15:20Z</time>
      </trkpt>
      <trkpt lat="43.04148" lon="1.08257">
        <ele>395</ele>
        <time>2021-05-16T12:15:24Z</time>
      </trkpt>
      <trkpt lat="43.04142" lon="1.08281">
        <ele>395</ele>
        <time>2021-05-16T12:15:28Z</time>
      </trkpt>
      <trkpt lat="43.04125" lon="1.08308">
        <ele>393</ele>
        <time>2021-05-16T12:15:32Z</time>
      </trkpt>
      <trkpt lat="43.04082" lon="1.08341">
        <ele>386</ele>
        <time>2021-05-16T12:15:41Z</time>
      </trkpt>
      <trkpt lat="43.04071" lon="1.08356">
        <ele>383</ele>
        <time>2021-05-16T12:15:44Z</time>
      </trkpt>
      <trkpt lat="43.04064" lon="1.08379">
        <ele>381</ele>
        <time>2021-05-16T12:15:47Z</time>
      </trkpt>
      <trkpt lat="43.04068" lon="1.0843">
        <ele>380</ele>
        <time>2021-05-16T12:15:54Z</time>
      </trkpt>
      <trkpt lat="43.04065" lon="1.08447">
        <ele>380</ele>
        <time>2021-05-16T12:15:56Z</time>
      </trkpt>
      <trkpt lat="43.04058" lon="1.08464">
        <ele>379</ele>
        <time>2021-05-16T12:15:58Z</time>
      </trkpt>
      <trkpt lat="43.04042" lon="1.08491">
        <ele>376</ele>
        <time>2021-05-16T12:16:03Z</time>
      </trkpt>
      <trkpt lat="43.04036" lon="1.08506">
        <ele>375</ele>
        <time>2021-05-16T12:16:05Z</time>
      </trkpt>
      <trkpt lat="43.04033" lon="1.08523">
        <ele>374</ele>
        <time>2021-05-16T12:16:07Z</time>
      </trkpt>
      <trkpt lat="43.04035" lon="1.08541">
        <ele>374</ele>
        <time>2021-05-16T12:16:10Z</time>
      </trkpt>
      <trkpt lat="43.0404" lon="1.08557">
        <ele>375</ele>
        <time>2021-05-16T12:16:12Z</time>
      </trkpt>
      <trkpt lat="43.04046" lon="1.08586">
        <ele>376</ele>
        <time>2021-05-16T12:16:16Z</time>
      </trkpt>
      <trkpt lat="43.0405" lon="1.08639">
        <ele>373</ele>
        <time>2021-05-16T12:16:23Z</time>
      </trkpt>
      <trkpt lat="43.04049" lon="1.08684">
        <ele>371</ele>
        <time>2021-05-16T12:16:29Z</time>
      </trkpt>
      <trkpt lat="43.04038" lon="1.08718">
        <ele>369</ele>
        <time>2021-05-16T12:16:34Z</time>
      </trkpt>
      <trkpt lat="43.04019" lon="1.08752">
        <ele>367</ele>
        <time>2021-05-16T12:16:39Z</time>
      </trkpt>
      <trkpt lat="43.03929" lon="1.08836">
        <ele>359</ele>
        <time>2021-05-16T12:16:59Z</time>
      </trkpt>
      <trkpt lat="43.0392" lon="1.08857">
        <ele>358</ele>
        <time>2021-05-16T12:17:02Z</time>
      </trkpt>
      <trkpt lat="43.03917" lon="1.08889">
        <ele>358</ele>
        <time>2021-05-16T12:17:06Z</time>
      </trkpt>
      <trkpt lat="43.03917" lon="1.08898">
        <ele>358</ele>
        <time>2021-05-16T12:17:07Z</time>
      </trkpt>
      <trkpt lat="43.03917" lon="1.08925">
        <ele>358</ele>
        <time>2021-05-16T12:17:11Z</time>
      </trkpt>
      <trkpt lat="43.0392" lon="1.08947">
        <ele>359</ele>
        <time>2021-05-16T12:17:14Z</time>
      </trkpt>
      <trkpt lat="43.0393" lon="1.08992">
        <ele>362</ele>
        <time>2021-05-16T12:17:20Z</time>
      </trkpt>
      <trkpt lat="43.03935" lon="1.09024">
        <ele>362</ele>
        <time>2021-05-16T12:17:24Z</time>
      </trkpt>
      <trkpt lat="43.03934" lon="1.0907">
        <ele>362</ele>
        <time>2021-05-16T12:17:30Z</time>
      </trkpt>
      <trkpt lat="43.03929" lon="1.09067">
        <ele>362</ele>
        <time>2021-05-16T12:17:31Z</time>
      </trkpt>
      <trkpt lat="43.03907" lon="1.09068">
        <ele>360</ele>
        <time>2021-05-16T12:17:35Z</time>
      </trkpt>
      <trkpt lat="43.03902" lon="1.09073">
        <ele>360</ele>
        <time>2021-05-16T12:17:36Z</time>
      </trkpt>
      <trkpt lat="43.03887" lon="1.09101">
        <ele>359</ele>
        <time>2021-05-16T12:17:40Z</time>
      </trkpt>
      <trkpt lat="43.03867" lon="1.09123">
        <ele>357</ele>
        <time>2021-05-16T12:17:45Z</time>
      </trkpt>
      <trkpt lat="43.03861" lon="1.09137">
        <ele>357</ele>
        <time>2021-05-16T12:17:47Z</time>
      </trkpt>
      <trkpt lat="43.0386" lon="1.09143">
        <ele>357</ele>
        <time>2021-05-16T12:17:48Z</time>
      </trkpt>
      <trkpt lat="43.03862" lon="1.09157">
        <ele>357</ele>
        <time>2021-05-16T12:17:50Z</time>
      </trkpt>
      <trkpt lat="43.03873" lon="1.09193">
        <ele>357</ele>
        <time>2021-05-16T12:17:55Z</time>
      </trkpt>
      <trkpt lat="43.03872" lon="1.09201">
        <ele>357</ele>
        <time>2021-05-16T12:17:56Z</time>
      </trkpt>
      <trkpt lat="43.03876" lon="1.09202">
        <ele>357</ele>
        <time>2021-05-16T12:17:57Z</time>
      </trkpt>
      <trkpt lat="43.03876" lon="1.09204">
        <ele>358</ele>
        <time>2021-05-16T12:17:57Z</time>
      </trkpt>
      <trkpt lat="43.0388" lon="1.0921">
        <ele>358</ele>
        <time>2021-05-16T12:17:58Z</time>
      </trkpt>
      <trkpt lat="43.03867" lon="1.0927">
        <ele>358</ele>
        <time>2021-05-16T12:18:06Z</time>
      </trkpt>
      <trkpt lat="43.0386" lon="1.09311">
        <ele>358</ele>
        <time>2021-05-16T12:18:12Z</time>
      </trkpt>
      <trkpt lat="43.03855" lon="1.0937">
        <ele>358</ele>
        <time>2021-05-16T12:18:19Z</time>
      </trkpt>
      <trkpt lat="43.03837" lon="1.09518">
        <ele>358</ele>
        <time>2021-05-16T12:18:39Z</time>
      </trkpt>
      <trkpt lat="43.03829" lon="1.09554">
        <ele>358</ele>
        <time>2021-05-16T12:18:44Z</time>
      </trkpt>
      <trkpt lat="43.03719" lon="1.09883">
        <ele>361</ele>
        <time>2021-05-16T12:19:31Z</time>
      </trkpt>
      <trkpt lat="43.03703" lon="1.09935">
        <ele>361</ele>
        <time>2021-05-16T12:19:38Z</time>
      </trkpt>
      <trkpt lat="43.03703" lon="1.10013">
        <ele>362</ele>
        <time>2021-05-16T12:19:48Z</time>
      </trkpt>
      <trkpt lat="43.03695" lon="1.10113">
        <ele>364</ele>
        <time>2021-05-16T12:20:01Z</time>
      </trkpt>
      <trkpt lat="43.03691" lon="1.10127">
        <ele>364</ele>
        <time>2021-05-16T12:20:03Z</time>
      </trkpt>
      <trkpt lat="43.03685" lon="1.10122">
        <ele>363</ele>
        <time>2021-05-16T12:20:04Z</time>
      </trkpt>
      <trkpt lat="43.03661" lon="1.10117">
        <ele>361</ele>
        <time>2021-05-16T12:20:09Z</time>
      </trkpt>
      <trkpt lat="43.03657" lon="1.10117">
        <ele>361</ele>
        <time>2021-05-16T12:20:09Z</time>
      </trkpt>
      <trkpt lat="43.03646" lon="1.10117">
        <ele>361</ele>
        <time>2021-05-16T12:20:11Z</time>
      </trkpt>
      <trkpt lat="43.03634" lon="1.10126">
        <ele>361</ele>
        <time>2021-05-16T12:20:14Z</time>
      </trkpt>
      <trkpt lat="43.03624" lon="1.10141">
        <ele>362</ele>
        <time>2021-05-16T12:20:17Z</time>
      </trkpt>
      <trkpt lat="43.03613" lon="1.10173">
        <ele>362</ele>
        <time>2021-05-16T12:20:21Z</time>
      </trkpt>
      <trkpt lat="43.03587" lon="1.10293">
        <ele>368</ele>
        <time>2021-05-16T12:20:37Z</time>
      </trkpt>
      <trkpt lat="43.03497" lon="1.10511">
        <ele>368</ele>
        <time>2021-05-16T12:21:10Z</time>
      </trkpt>
      <trkpt lat="43.03471" lon="1.1056">
        <ele>371</ele>
        <time>2021-05-16T12:21:18Z</time>
      </trkpt>
      <trkpt lat="43.03383" lon="1.10696">
        <ele>369</ele>
        <time>2021-05-16T12:21:41Z</time>
      </trkpt>
      <trkpt lat="43.03318" lon="1.10758">
        <ele>364</ele>
        <time>2021-05-16T12:21:56Z</time>
      </trkpt>
      <trkpt lat="43.03124" lon="1.10912">
        <ele>361</ele>
        <time>2021-05-16T12:22:35Z</time>
      </trkpt>
      <trkpt lat="43.02965" lon="1.11016">
        <ele>363</ele>
        <time>2021-05-16T12:23:07Z</time>
      </trkpt>
      <trkpt lat="43.02921" lon="1.11056">
        <ele>363</ele>
        <time>2021-05-16T12:23:16Z</time>
      </trkpt>
      <trkpt lat="43.02882" lon="1.11101">
        <ele>363</ele>
        <time>2021-05-16T12:23:25Z</time>
      </trkpt>
      <trkpt lat="43.02828" lon="1.11175">
        <ele>363</ele>
        <time>2021-05-16T12:23:39Z</time>
      </trkpt>
      <trkpt lat="43.02769" lon="1.11269">
        <ele>365</ele>
        <time>2021-05-16T12:23:55Z</time>
      </trkpt>
      <trkpt lat="43.02664" lon="1.11363">
        <ele>368</ele>
        <time>2021-05-16T12:24:17Z</time>
      </trkpt>
      <trkpt lat="43.02582" lon="1.11407">
        <ele>366</ele>
        <time>2021-05-16T12:24:33Z</time>
      </trkpt>
      <trkpt lat="43.02211" lon="1.11707">
        <ele>368</ele>
        <time>2021-05-16T12:25:50Z</time>
      </trkpt>
      <trkpt lat="43.02138" lon="1.11755">
        <ele>367</ele>
        <time>2021-05-16T12:26:04Z</time>
      </trkpt>
      <trkpt lat="43.02087" lon="1.11792">
        <ele>368</ele>
        <time>2021-05-16T12:26:14Z</time>
      </trkpt>
      <trkpt lat="43.0201" lon="1.11859">
        <ele>368</ele>
        <time>2021-05-16T12:26:31Z</time>
      </trkpt>
      <trkpt lat="43.01943" lon="1.11903">
        <ele>368</ele>
        <time>2021-05-16T12:26:44Z</time>
      </trkpt>
      <trkpt lat="43.01589" lon="1.12213">
        <ele>372</ele>
        <time>2021-05-16T12:27:59Z</time>
      </trkpt>
      <trkpt lat="43.01425" lon="1.1238">
        <ele>372</ele>
        <time>2021-05-16T12:28:35Z</time>
      </trkpt>
      <trkpt lat="43.01447" lon="1.12414">
        <ele>373</ele>
        <time>2021-05-16T12:28:41Z</time>
      </trkpt>
      <trkpt lat="43.01541" lon="1.12575">
        <ele>373</ele>
        <time>2021-05-16T12:29:08Z</time>
      </trkpt>
      <trkpt lat="43.01593" lon="1.12653">
        <ele>374</ele>
        <time>2021-05-16T12:29:21Z</time>
      </trkpt>
      <trkpt lat="43.01608" lon="1.12669">
        <ele>374</ele>
        <time>2021-05-16T12:29:25Z</time>
      </trkpt>
      <trkpt lat="43.01631" lon="1.12688">
        <ele>375</ele>
        <time>2021-05-16T12:29:30Z</time>
      </trkpt>
      <trkpt lat="43.0165" lon="1.12698">
        <ele>375</ele>
        <time>2021-05-16T12:29:33Z</time>
      </trkpt>
      <trkpt lat="43.01672" lon="1.12702">
        <ele>375</ele>
        <time>2021-05-16T12:29:37Z</time>
      </trkpt>
      <trkpt lat="43.01714" lon="1.12697">
        <ele>374</ele>
        <time>2021-05-16T12:29:45Z</time>
      </trkpt>
      <trkpt lat="43.01747" lon="1.12702">
        <ele>373</ele>
        <time>2021-05-16T12:29:51Z</time>
      </trkpt>
      <trkpt lat="43.01756" lon="1.12707">
        <ele>373</ele>
        <time>2021-05-16T12:29:52Z</time>
      </trkpt>
      <trkpt lat="43.01791" lon="1.12736">
        <ele>373</ele>
        <time>2021-05-16T12:30:00Z</time>
      </trkpt>
      <trkpt lat="43.01806" lon="1.12743">
        <ele>373</ele>
        <time>2021-05-16T12:30:02Z</time>
      </trkpt>
      <trkpt lat="43.01816" lon="1.12742">
        <ele>373</ele>
        <time>2021-05-16T12:30:04Z</time>
      </trkpt>
      <trkpt lat="43.01823" lon="1.12738">
        <ele>373</ele>
        <time>2021-05-16T12:30:06Z</time>
      </trkpt>
      <trkpt lat="43.01845" lon="1.12715">
        <ele>373</ele>
        <time>2021-05-16T12:30:10Z</time>
      </trkpt>
      <trkpt lat="43.01864" lon="1.12707">
        <ele>373</ele>
        <time>2021-05-16T12:30:14Z</time>
      </trkpt>
      <trkpt lat="43.01873" lon="1.12706">
        <ele>373</ele>
        <time>2021-05-16T12:30:16Z</time>
      </trkpt>
      <trkpt lat="43.01923" lon="1.12712">
        <ele>374</ele>
        <time>2021-05-16T12:30:25Z</time>
      </trkpt>
      <trkpt lat="43.01944" lon="1.12708">
        <ele>374</ele>
        <time>2021-05-16T12:30:28Z</time>
      </trkpt>
      <trkpt lat="43.01986" lon="1.12691">
        <ele>374</ele>
        <time>2021-05-16T12:30:36Z</time>
      </trkpt>
      <trkpt lat="43.01994" lon="1.12692">
        <ele>374</ele>
        <time>2021-05-16T12:30:38Z</time>
      </trkpt>
      <trkpt lat="43.01996" lon="1.12694">
        <ele>374</ele>
        <time>2021-05-16T12:30:38Z</time>
      </trkpt>
      <trkpt lat="43.02009" lon="1.12715">
        <ele>374</ele>
        <time>2021-05-16T12:30:42Z</time>
      </trkpt>
      <trkpt lat="43.02014" lon="1.12719">
        <ele>374</ele>
        <time>2021-05-16T12:30:43Z</time>
      </trkpt>
      <trkpt lat="43.02031" lon="1.12722">
        <ele>374</ele>
        <time>2021-05-16T12:30:46Z</time>
      </trkpt>
      <trkpt lat="43.02057" lon="1.12715">
        <ele>373</ele>
        <time>2021-05-16T12:30:50Z</time>
      </trkpt>
      <trkpt lat="43.02108" lon="1.12689">
        <ele>372</ele>
        <time>2021-05-16T12:31:00Z</time>
      </trkpt>
      <trkpt lat="43.0218" lon="1.12666">
        <ele>373</ele>
        <time>2021-05-16T12:31:13Z</time>
      </trkpt>
      <trkpt lat="43.02191" lon="1.12664">
        <ele>373</ele>
        <time>2021-05-16T12:31:15Z</time>
      </trkpt>
      <trkpt lat="43.02228" lon="1.12668">
        <ele>372</ele>
        <time>2021-05-16T12:31:22Z</time>
      </trkpt>
      <trkpt lat="43.02248" lon="1.1266">
        <ele>372</ele>
        <time>2021-05-16T12:31:25Z</time>
      </trkpt>
      <trkpt lat="43.02269" lon="1.12643">
        <ele>372</ele>
        <time>2021-05-16T12:31:30Z</time>
      </trkpt>
      <trkpt lat="43.02282" lon="1.12636">
        <ele>373</ele>
        <time>2021-05-16T12:31:32Z</time>
      </trkpt>
      <trkpt lat="43.02308" lon="1.12629">
        <ele>373</ele>
        <time>2021-05-16T12:31:37Z</time>
      </trkpt>
      <trkpt lat="43.0242" lon="1.12626">
        <ele>375</ele>
        <time>2021-05-16T12:31:57Z</time>
      </trkpt>
      <trkpt lat="43.02433" lon="1.12628">
        <ele>376</ele>
        <time>2021-05-16T12:31:59Z</time>
      </trkpt>
      <trkpt lat="43.02458" lon="1.12638">
        <ele>376</ele>
        <time>2021-05-16T12:32:04Z</time>
      </trkpt>
      <trkpt lat="43.02504" lon="1.12663">
        <ele>378</ele>
        <time>2021-05-16T12:32:13Z</time>
      </trkpt>
      <trkpt lat="43.02526" lon="1.1267">
        <ele>378</ele>
        <time>2021-05-16T12:32:17Z</time>
      </trkpt>
      <trkpt lat="43.02535" lon="1.12671">
        <ele>379</ele>
        <time>2021-05-16T12:32:18Z</time>
      </trkpt>
      <trkpt lat="43.02567" lon="1.12652">
        <ele>378</ele>
        <time>2021-05-16T12:32:25Z</time>
      </trkpt>
      <trkpt lat="43.02584" lon="1.12644">
        <ele>379</ele>
        <time>2021-05-16T12:32:28Z</time>
      </trkpt>
      <trkpt lat="43.02589" lon="1.12645">
        <ele>379</ele>
        <time>2021-05-16T12:32:29Z</time>
      </trkpt>
      <trkpt lat="43.02599" lon="1.1265">
        <ele>380</ele>
        <time>2021-05-16T12:32:31Z</time>
      </trkpt>
      <trkpt lat="43.02628" lon="1.12668">
        <ele>383</ele>
        <time>2021-05-16T12:32:36Z</time>
      </trkpt>
      <trkpt lat="43.02638" lon="1.1267">
        <ele>384</ele>
        <time>2021-05-16T12:32:38Z</time>
      </trkpt>
      <trkpt lat="43.02662" lon="1.12662">
        <ele>385</ele>
        <time>2021-05-16T12:32:42Z</time>
      </trkpt>
      <trkpt lat="43.02675" lon="1.12667">
        <ele>387</ele>
        <time>2021-05-16T12:32:45Z</time>
      </trkpt>
      <trkpt lat="43.02703" lon="1.12717">
        <ele>390</ele>
        <time>2021-05-16T12:32:53Z</time>
      </trkpt>
      <trkpt lat="43.02718" lon="1.12729">
        <ele>392</ele>
        <time>2021-05-16T12:32:56Z</time>
      </trkpt>
      <trkpt lat="43.02812" lon="1.1277">
        <ele>405</ele>
        <time>2021-05-16T12:33:14Z</time>
      </trkpt>
      <trkpt lat="43.02819" lon="1.12778">
        <ele>405</ele>
        <time>2021-05-16T12:33:15Z</time>
      </trkpt>
      <trkpt lat="43.02855" lon="1.12837">
        <ele>406</ele>
        <time>2021-05-16T12:33:25Z</time>
      </trkpt>
      <trkpt lat="43.0286" lon="1.12838">
        <ele>407</ele>
        <time>2021-05-16T12:33:26Z</time>
      </trkpt>
      <trkpt lat="43.02863" lon="1.12837">
        <ele>408</ele>
        <time>2021-05-16T12:33:27Z</time>
      </trkpt>
      <trkpt lat="43.02881" lon="1.12814">
        <ele>411</ele>
        <time>2021-05-16T12:33:31Z</time>
      </trkpt>
      <trkpt lat="43.02902" lon="1.12799">
        <ele>414</ele>
        <time>2021-05-16T12:33:35Z</time>
      </trkpt>
      <trkpt lat="43.02921" lon="1.12781">
        <ele>417</ele>
        <time>2021-05-16T12:33:39Z</time>
      </trkpt>
      <trkpt lat="43.02927" lon="1.12768">
        <ele>418</ele>
        <time>2021-05-16T12:33:41Z</time>
      </trkpt>
      <trkpt lat="43.02929" lon="1.1276">
        <ele>418</ele>
        <time>2021-05-16T12:33:43Z</time>
      </trkpt>
      <trkpt lat="43.02926" lon="1.12746">
        <ele>418</ele>
        <time>2021-05-16T12:33:44Z</time>
      </trkpt>
      <trkpt lat="43.0292" lon="1.12739">
        <ele>417</ele>
        <time>2021-05-16T12:33:46Z</time>
      </trkpt>
      <trkpt lat="43.02911" lon="1.12737">
        <ele>416</ele>
        <time>2021-05-16T12:33:47Z</time>
      </trkpt>
      <trkpt lat="43.02878" lon="1.12736">
        <ele>414</ele>
        <time>2021-05-16T12:33:53Z</time>
      </trkpt>
      <trkpt lat="43.02859" lon="1.12732">
        <ele>412</ele>
        <time>2021-05-16T12:33:57Z</time>
      </trkpt>
      <trkpt lat="43.02851" lon="1.12729">
        <ele>412</ele>
        <time>2021-05-16T12:33:58Z</time>
      </trkpt>
      <trkpt lat="43.02844" lon="1.12716">
        <ele>412</ele>
        <time>2021-05-16T12:34:00Z</time>
      </trkpt>
      <trkpt lat="43.02845" lon="1.12709">
        <ele>412</ele>
        <time>2021-05-16T12:34:01Z</time>
      </trkpt>
      <trkpt lat="43.02849" lon="1.12704">
        <ele>413</ele>
        <time>2021-05-16T12:34:02Z</time>
      </trkpt>
      <trkpt lat="43.02894" lon="1.12687">
        <ele>417</ele>
        <time>2021-05-16T12:34:11Z</time>
      </trkpt>
      <trkpt lat="43.02978" lon="1.12648">
        <ele>430</ele>
        <time>2021-05-16T12:34:26Z</time>
      </trkpt>
      <trkpt lat="43.02986" lon="1.12646">
        <ele>432</ele>
        <time>2021-05-16T12:34:28Z</time>
      </trkpt>
      <trkpt lat="43.03002" lon="1.12647">
        <ele>435</ele>
        <time>2021-05-16T12:34:31Z</time>
      </trkpt>
      <trkpt lat="43.03012" lon="1.12654">
        <ele>438</ele>
        <time>2021-05-16T12:34:33Z</time>
      </trkpt>
      <trkpt lat="43.03018" lon="1.12663">
        <ele>439</ele>
        <time>2021-05-16T12:34:34Z</time>
      </trkpt>
      <trkpt lat="43.03021" lon="1.1268">
        <ele>439</ele>
        <time>2021-05-16T12:34:36Z</time>
      </trkpt>
      <trkpt lat="43.03015" lon="1.12778">
        <ele>435</ele>
        <time>2021-05-16T12:34:49Z</time>
      </trkpt>
      <trkpt lat="43.03016" lon="1.12809">
        <ele>435</ele>
        <time>2021-05-16T12:34:53Z</time>
      </trkpt>
      <trkpt lat="43.03018" lon="1.12821">
        <ele>435</ele>
        <time>2021-05-16T12:34:55Z</time>
      </trkpt>
      <trkpt lat="43.03029" lon="1.12853">
        <ele>434</ele>
        <time>2021-05-16T12:35:00Z</time>
      </trkpt>
      <trkpt lat="43.03034" lon="1.12859">
        <ele>435</ele>
        <time>2021-05-16T12:35:01Z</time>
      </trkpt>
      <trkpt lat="43.03045" lon="1.12863">
        <ele>435</ele>
        <time>2021-05-16T12:35:03Z</time>
      </trkpt>
      <trkpt lat="43.03075" lon="1.12856">
        <ele>439</ele>
        <time>2021-05-16T12:35:08Z</time>
      </trkpt>
      <trkpt lat="43.03084" lon="1.12852">
        <ele>441</ele>
        <time>2021-05-16T12:35:10Z</time>
      </trkpt>
      <trkpt lat="43.03093" lon="1.12844">
        <ele>441</ele>
        <time>2021-05-16T12:35:12Z</time>
      </trkpt>
      <trkpt lat="43.031" lon="1.12835">
        <ele>442</ele>
        <time>2021-05-16T12:35:13Z</time>
      </trkpt>
      <trkpt lat="43.03116" lon="1.1282">
        <ele>443</ele>
        <time>2021-05-16T12:35:17Z</time>
      </trkpt>
      <trkpt lat="43.03163" lon="1.1278">
        <ele>447</ele>
        <time>2021-05-16T12:35:27Z</time>
      </trkpt>
      <trkpt lat="43.03171" lon="1.12764">
        <ele>449</ele>
        <time>2021-05-16T12:35:29Z</time>
      </trkpt>
      <trkpt lat="43.03171" lon="1.12757">
        <ele>451</ele>
        <time>2021-05-16T12:35:30Z</time>
      </trkpt>
      <trkpt lat="43.03176" lon="1.12736">
        <ele>454</ele>
        <time>2021-05-16T12:35:33Z</time>
      </trkpt>
      <trkpt lat="43.03181" lon="1.12726">
        <ele>455</ele>
        <time>2021-05-16T12:35:35Z</time>
      </trkpt>
      <trkpt lat="43.03215" lon="1.12672">
        <ele>457</ele>
        <time>2021-05-16T12:35:44Z</time>
      </trkpt>
      <trkpt lat="43.0322" lon="1.12672">
        <ele>456</ele>
        <time>2021-05-16T12:35:45Z</time>
      </trkpt>
      <trkpt lat="43.03254" lon="1.12703">
        <ele>449</ele>
        <time>2021-05-16T12:35:52Z</time>
      </trkpt>
      <trkpt lat="43.03268" lon="1.12719">
        <ele>449</ele>
        <time>2021-05-16T12:35:55Z</time>
      </trkpt>
      <trkpt lat="43.03287" lon="1.12732">
        <ele>450</ele>
        <time>2021-05-16T12:35:59Z</time>
      </trkpt>
      <trkpt lat="43.03311" lon="1.12757">
        <ele>450</ele>
        <time>2021-05-16T12:36:04Z</time>
      </trkpt>
      <trkpt lat="43.03319" lon="1.12767">
        <ele>450</ele>
        <time>2021-05-16T12:36:06Z</time>
      </trkpt>
      <trkpt lat="43.03322" lon="1.12778">
        <ele>449</ele>
        <time>2021-05-16T12:36:08Z</time>
      </trkpt>
      <trkpt lat="43.03328" lon="1.12784">
        <ele>449</ele>
        <time>2021-05-16T12:36:09Z</time>
      </trkpt>
      <trkpt lat="43.03335" lon="1.12788">
        <ele>450</ele>
        <time>2021-05-16T12:36:11Z</time>
      </trkpt>
      <trkpt lat="43.03346" lon="1.12786">
        <ele>451</ele>
        <time>2021-05-16T12:36:13Z</time>
      </trkpt>
      <trkpt lat="43.03393" lon="1.12765">
        <ele>460</ele>
        <time>2021-05-16T12:36:21Z</time>
      </trkpt>
      <trkpt lat="43.03409" lon="1.12764">
        <ele>463</ele>
        <time>2021-05-16T12:36:24Z</time>
      </trkpt>
      <trkpt lat="43.03427" lon="1.12771">
        <ele>463</ele>
        <time>2021-05-16T12:36:28Z</time>
      </trkpt>
      <trkpt lat="43.03444" lon="1.1278">
        <ele>463</ele>
        <time>2021-05-16T12:36:31Z</time>
      </trkpt>
      <trkpt lat="43.0346" lon="1.12785">
        <ele>463</ele>
        <time>2021-05-16T12:36:34Z</time>
      </trkpt>
      <trkpt lat="43.03468" lon="1.12785">
        <ele>463</ele>
        <time>2021-05-16T12:36:35Z</time>
      </trkpt>
      <trkpt lat="43.03483" lon="1.1278">
        <ele>465</ele>
        <time>2021-05-16T12:36:38Z</time>
      </trkpt>
      <trkpt lat="43.03511" lon="1.1278">
        <ele>467</ele>
        <time>2021-05-16T12:36:43Z</time>
      </trkpt>
      <trkpt lat="43.03518" lon="1.12784">
        <ele>468</ele>
        <time>2021-05-16T12:36:44Z</time>
      </trkpt>
      <trkpt lat="43.03527" lon="1.12794">
        <ele>468</ele>
        <time>2021-05-16T12:36:46Z</time>
      </trkpt>
      <trkpt lat="43.03552" lon="1.12831">
        <ele>467</ele>
        <time>2021-05-16T12:36:53Z</time>
      </trkpt>
      <trkpt lat="43.03568" lon="1.12839">
        <ele>468</ele>
        <time>2021-05-16T12:36:56Z</time>
      </trkpt>
      <trkpt lat="43.03621" lon="1.12857">
        <ele>472</ele>
        <time>2021-05-16T12:37:06Z</time>
      </trkpt>
      <trkpt lat="43.03629" lon="1.12862">
        <ele>472</ele>
        <time>2021-05-16T12:37:07Z</time>
      </trkpt>
      <trkpt lat="43.0369" lon="1.12878">
        <ele>478</ele>
        <time>2021-05-16T12:37:18Z</time>
      </trkpt>
      <trkpt lat="43.03749" lon="1.12904">
        <ele>482</ele>
        <time>2021-05-16T12:37:29Z</time>
      </trkpt>
      <trkpt lat="43.03759" lon="1.1291">
        <ele>483</ele>
        <time>2021-05-16T12:37:31Z</time>
      </trkpt>
      <trkpt lat="43.03801" lon="1.12963">
        <ele>487</ele>
        <time>2021-05-16T12:37:41Z</time>
      </trkpt>
      <trkpt lat="43.03852" lon="1.13005">
        <ele>492</ele>
        <time>2021-05-16T12:37:52Z</time>
      </trkpt>
      <trkpt lat="43.03876" lon="1.13029">
        <ele>493</ele>
        <time>2021-05-16T12:37:57Z</time>
      </trkpt>
      <trkpt lat="43.03896" lon="1.13066">
        <ele>496</ele>
        <time>2021-05-16T12:38:03Z</time>
      </trkpt>
      <trkpt lat="43.03904" lon="1.13076">
        <ele>498</ele>
        <time>2021-05-16T12:38:05Z</time>
      </trkpt>
      <trkpt lat="43.0391" lon="1.13079">
        <ele>499</ele>
        <time>2021-05-16T12:38:06Z</time>
      </trkpt>
      <trkpt lat="43.03914" lon="1.13077">
        <ele>499</ele>
        <time>2021-05-16T12:38:07Z</time>
      </trkpt>
      <trkpt lat="43.03923" lon="1.13071">
        <ele>500</ele>
        <time>2021-05-16T12:38:09Z</time>
      </trkpt>
      <trkpt lat="43.0397" lon="1.13018">
        <ele>502</ele>
        <time>2021-05-16T12:38:20Z</time>
      </trkpt>
      <trkpt lat="43.03976" lon="1.13013">
        <ele>503</ele>
        <time>2021-05-16T12:38:21Z</time>
      </trkpt>
      <trkpt lat="43.03982" lon="1.13012">
        <ele>503</ele>
        <time>2021-05-16T12:38:22Z</time>
      </trkpt>
      <trkpt lat="43.03992" lon="1.13016">
        <ele>504</ele>
        <time>2021-05-16T12:38:24Z</time>
      </trkpt>
      <trkpt lat="43.03997" lon="1.13031">
        <ele>506</ele>
        <time>2021-05-16T12:38:26Z</time>
      </trkpt>
      <trkpt lat="43.04" lon="1.13071">
        <ele>509</ele>
        <time>2021-05-16T12:38:31Z</time>
      </trkpt>
      <trkpt lat="43.04007" lon="1.13087">
        <ele>509</ele>
        <time>2021-05-16T12:38:34Z</time>
      </trkpt>
      <trkpt lat="43.04024" lon="1.13119">
        <ele>511</ele>
        <time>2021-05-16T12:38:39Z</time>
      </trkpt>
      <trkpt lat="43.04034" lon="1.13134">
        <ele>512</ele>
        <time>2021-05-16T12:38:41Z</time>
      </trkpt>
      <trkpt lat="43.04041" lon="1.13152">
        <ele>513</ele>
        <time>2021-05-16T12:38:44Z</time>
      </trkpt>
      <trkpt lat="43.04047" lon="1.13172">
        <ele>515</ele>
        <time>2021-05-16T12:38:47Z</time>
      </trkpt>
      <trkpt lat="43.04065" lon="1.13252">
        <ele>526</ele>
        <time>2021-05-16T12:38:58Z</time>
      </trkpt>
      <trkpt lat="43.04073" lon="1.13276">
        <ele>530</ele>
        <time>2021-05-16T12:39:01Z</time>
      </trkpt>
      <trkpt lat="43.04079" lon="1.13283">
        <ele>531</ele>
        <time>2021-05-16T12:39:03Z</time>
      </trkpt>
      <trkpt lat="43.0411" lon="1.13348">
        <ele>533</ele>
        <time>2021-05-16T12:39:13Z</time>
      </trkpt>
      <trkpt lat="43.0412" lon="1.13412">
        <ele>534</ele>
        <time>2021-05-16T12:39:21Z</time>
      </trkpt>
      <trkpt lat="43.04117" lon="1.13435">
        <ele>535</ele>
        <time>2021-05-16T12:39:24Z</time>
      </trkpt>
      <trkpt lat="43.04087" lon="1.13513">
        <ele>543</ele>
        <time>2021-05-16T12:39:36Z</time>
      </trkpt>
      <trkpt lat="43.04082" lon="1.13536">
        <ele>544</ele>
        <time>2021-05-16T12:39:39Z</time>
      </trkpt>
      <trkpt lat="43.04076" lon="1.13589">
        <ele>544</ele>
        <time>2021-05-16T12:39:46Z</time>
      </trkpt>
      <trkpt lat="43.04069" lon="1.1363">
        <ele>544</ele>
        <time>2021-05-16T12:39:51Z</time>
      </trkpt>
      <trkpt lat="43.04064" lon="1.13648">
        <ele>545</ele>
        <time>2021-05-16T12:39:54Z</time>
      </trkpt>
      <trkpt lat="43.0406" lon="1.13679">
        <ele>546</ele>
        <time>2021-05-16T12:39:58Z</time>
      </trkpt>
      <trkpt lat="43.04048" lon="1.13737">
        <ele>546</ele>
        <time>2021-05-16T12:40:06Z</time>
      </trkpt>
      <trkpt lat="43.04024" lon="1.13783">
        <ele>550</ele>
        <time>2021-05-16T12:40:13Z</time>
      </trkpt>
      <trkpt lat="43.04013" lon="1.13816">
        <ele>550</ele>
        <time>2021-05-16T12:40:18Z</time>
      </trkpt>
      <trkpt lat="43.04009" lon="1.13836">
        <ele>550</ele>
        <time>2021-05-16T12:40:20Z</time>
      </trkpt>
      <trkpt lat="43.04009" lon="1.13866">
        <ele>551</ele>
        <time>2021-05-16T12:40:24Z</time>
      </trkpt>
      <trkpt lat="43.04018" lon="1.13908">
        <ele>551</ele>
        <time>2021-05-16T12:40:30Z</time>
      </trkpt>
      <trkpt lat="43.04025" lon="1.13925">
        <ele>550</ele>
        <time>2021-05-16T12:40:33Z</time>
      </trkpt>
      <trkpt lat="43.0406" lon="1.13965">
        <ele>547</ele>
        <time>2021-05-16T12:40:41Z</time>
      </trkpt>
      <trkpt lat="43.04076" lon="1.13991">
        <ele>548</ele>
        <time>2021-05-16T12:40:45Z</time>
      </trkpt>
      <trkpt lat="43.04086" lon="1.1402">
        <ele>549</ele>
        <time>2021-05-16T12:40:49Z</time>
      </trkpt>
      <trkpt lat="43.04104" lon="1.14097">
        <ele>554</ele>
        <time>2021-05-16T12:41:00Z</time>
      </trkpt>
      <trkpt lat="43.04108" lon="1.14105">
        <ele>554</ele>
        <time>2021-05-16T12:41:01Z</time>
      </trkpt>
      <trkpt lat="43.04114" lon="1.14112">
        <ele>555</ele>
        <time>2021-05-16T12:41:02Z</time>
      </trkpt>
      <trkpt lat="43.04124" lon="1.14112">
        <ele>555</ele>
        <time>2021-05-16T12:41:04Z</time>
      </trkpt>
      <trkpt lat="43.04131" lon="1.14106">
        <ele>554</ele>
        <time>2021-05-16T12:41:06Z</time>
      </trkpt>
      <trkpt lat="43.04224" lon="1.14014">
        <ele>552</ele>
        <time>2021-05-16T12:41:26Z</time>
      </trkpt>
      <trkpt lat="43.0428" lon="1.13952">
        <ele>550</ele>
        <time>2021-05-16T12:41:39Z</time>
      </trkpt>
      <trkpt lat="43.04301" lon="1.13927">
        <ele>549</ele>
        <time>2021-05-16T12:41:44Z</time>
      </trkpt>
      <trkpt lat="43.04305" lon="1.13924">
        <ele>549</ele>
        <time>2021-05-16T12:41:45Z</time>
      </trkpt>
      <trkpt lat="43.04321" lon="1.1393">
        <ele>551</ele>
        <time>2021-05-16T12:41:48Z</time>
      </trkpt>
      <trkpt lat="43.0436" lon="1.13953">
        <ele>552</ele>
        <time>2021-05-16T12:41:55Z</time>
      </trkpt>
      <trkpt lat="43.04373" lon="1.13965">
        <ele>551</ele>
        <time>2021-05-16T12:41:58Z</time>
      </trkpt>
      <trkpt lat="43.04378" lon="1.13973">
        <ele>551</ele>
        <time>2021-05-16T12:41:59Z</time>
      </trkpt>
      <trkpt lat="43.0438" lon="1.13983">
        <ele>552</ele>
        <time>2021-05-16T12:42:01Z</time>
      </trkpt>
      <trkpt lat="43.04372" lon="1.1406">
        <ele>554</ele>
        <time>2021-05-16T12:42:11Z</time>
      </trkpt>
      <trkpt lat="43.04375" lon="1.14082">
        <ele>554</ele>
        <time>2021-05-16T12:42:14Z</time>
      </trkpt>
      <trkpt lat="43.04384" lon="1.14109">
        <ele>554</ele>
        <time>2021-05-16T12:42:18Z</time>
      </trkpt>
      <trkpt lat="43.04397" lon="1.14135">
        <ele>554</ele>
        <time>2021-05-16T12:42:22Z</time>
      </trkpt>
      <trkpt lat="43.0441" lon="1.14148">
        <ele>553</ele>
        <time>2021-05-16T12:42:25Z</time>
      </trkpt>
      <trkpt lat="43.04424" lon="1.14156">
        <ele>552</ele>
        <time>2021-05-16T12:42:27Z</time>
      </trkpt>
      <trkpt lat="43.04452" lon="1.14164">
        <ele>548</ele>
        <time>2021-05-16T12:42:32Z</time>
      </trkpt>
      <trkpt lat="43.0446" lon="1.14172">
        <ele>547</ele>
        <time>2021-05-16T12:42:34Z</time>
      </trkpt>
      <trkpt lat="43.04464" lon="1.14184">
        <ele>548</ele>
        <time>2021-05-16T12:42:36Z</time>
      </trkpt>
      <trkpt lat="43.04469" lon="1.14242">
        <ele>552</ele>
        <time>2021-05-16T12:42:43Z</time>
      </trkpt>
      <trkpt lat="43.04474" lon="1.14258">
        <ele>552</ele>
        <time>2021-05-16T12:42:46Z</time>
      </trkpt>
      <trkpt lat="43.04486" lon="1.14276">
        <ele>551</ele>
        <time>2021-05-16T12:42:49Z</time>
      </trkpt>
      <trkpt lat="43.04508" lon="1.14297">
        <ele>550</ele>
        <time>2021-05-16T12:42:54Z</time>
      </trkpt>
      <trkpt lat="43.04522" lon="1.14306">
        <ele>550</ele>
        <time>2021-05-16T12:42:56Z</time>
      </trkpt>
      <trkpt lat="43.04561" lon="1.14321">
        <ele>550</ele>
        <time>2021-05-16T12:43:04Z</time>
      </trkpt>
      <trkpt lat="43.0461" lon="1.14324">
        <ele>548</ele>
        <time>2021-05-16T12:43:12Z</time>
      </trkpt>
      <trkpt lat="43.04686" lon="1.14318">
        <ele>545</ele>
        <time>2021-05-16T12:43:26Z</time>
      </trkpt>
      <trkpt lat="43.04707" lon="1.14319">
        <ele>544</ele>
        <time>2021-05-16T12:43:30Z</time>
      </trkpt>
      <trkpt lat="43.04739" lon="1.14332">
        <ele>544</ele>
        <time>2021-05-16T12:43:36Z</time>
      </trkpt>
      <trkpt lat="43.04777" lon="1.14361">
        <ele>546</ele>
        <time>2021-05-16T12:43:43Z</time>
      </trkpt>
      <trkpt lat="43.04826" lon="1.14376">
        <ele>544</ele>
        <time>2021-05-16T12:43:52Z</time>
      </trkpt>
      <trkpt lat="43.04856" lon="1.14381">
        <ele>541</ele>
        <time>2021-05-16T12:43:58Z</time>
      </trkpt>
      <trkpt lat="43.0488" lon="1.14408">
        <ele>542</ele>
        <time>2021-05-16T12:44:03Z</time>
      </trkpt>
      <trkpt lat="43.04892" lon="1.14435">
        <ele>544</ele>
        <time>2021-05-16T12:44:07Z</time>
      </trkpt>
      <trkpt lat="43.04897" lon="1.14455">
        <ele>545</ele>
        <time>2021-05-16T12:44:10Z</time>
      </trkpt>
      <trkpt lat="43.04906" lon="1.14471">
        <ele>546</ele>
        <time>2021-05-16T12:44:13Z</time>
      </trkpt>
      <trkpt lat="43.04929" lon="1.14482">
        <ele>545</ele>
        <time>2021-05-16T12:44:17Z</time>
      </trkpt>
      <trkpt lat="43.04953" lon="1.14489">
        <ele>544</ele>
        <time>2021-05-16T12:44:21Z</time>
      </trkpt>
      <trkpt lat="43.05012" lon="1.14484">
        <ele>540</ele>
        <time>2021-05-16T12:44:32Z</time>
      </trkpt>
      <trkpt lat="43.0504" lon="1.1449">
        <ele>540</ele>
        <time>2021-05-16T12:44:37Z</time>
      </trkpt>
      <trkpt lat="43.05071" lon="1.14503">
        <ele>541</ele>
        <time>2021-05-16T12:44:43Z</time>
      </trkpt>
      <trkpt lat="43.05101" lon="1.14505">
        <ele>540</ele>
        <time>2021-05-16T12:44:48Z</time>
      </trkpt>
      <trkpt lat="43.05118" lon="1.145">
        <ele>539</ele>
        <time>2021-05-16T12:44:51Z</time>
      </trkpt>
      <trkpt lat="43.05131" lon="1.14491">
        <ele>537</ele>
        <time>2021-05-16T12:44:54Z</time>
      </trkpt>
      <trkpt lat="43.05144" lon="1.14471">
        <ele>536</ele>
        <time>2021-05-16T12:44:57Z</time>
      </trkpt>
      <trkpt lat="43.05158" lon="1.14438">
        <ele>535</ele>
        <time>2021-05-16T12:45:02Z</time>
      </trkpt>
      <trkpt lat="43.05182" lon="1.14366">
        <ele>534</ele>
        <time>2021-05-16T12:45:12Z</time>
      </trkpt>
      <trkpt lat="43.05206" lon="1.14255">
        <ele>532</ele>
        <time>2021-05-16T12:45:27Z</time>
      </trkpt>
      <trkpt lat="43.05235" lon="1.14179">
        <ele>538</ele>
        <time>2021-05-16T12:45:39Z</time>
      </trkpt>
      <trkpt lat="43.05248" lon="1.1412">
        <ele>545</ele>
        <time>2021-05-16T12:45:47Z</time>
      </trkpt>
      <trkpt lat="43.05256" lon="1.14068">
        <ele>550</ele>
        <time>2021-05-16T12:45:53Z</time>
      </trkpt>
      <trkpt lat="43.05255" lon="1.14008">
        <ele>553</ele>
        <time>2021-05-16T12:46:01Z</time>
      </trkpt>
      <trkpt lat="43.05247" lon="1.13974">
        <ele>554</ele>
        <time>2021-05-16T12:46:06Z</time>
      </trkpt>
      <trkpt lat="43.05238" lon="1.13947">
        <ele>553</ele>
        <time>2021-05-16T12:46:10Z</time>
      </trkpt>
      <trkpt lat="43.05235" lon="1.13925">
        <ele>553</ele>
        <time>2021-05-16T12:46:13Z</time>
      </trkpt>
      <trkpt lat="43.05241" lon="1.13897">
        <ele>555</ele>
        <time>2021-05-16T12:46:16Z</time>
      </trkpt>
      <trkpt lat="43.05267" lon="1.13829">
        <ele>555</ele>
        <time>2021-05-16T12:46:26Z</time>
      </trkpt>
      <trkpt lat="43.05283" lon="1.13779">
        <ele>555</ele>
        <time>2021-05-16T12:46:34Z</time>
      </trkpt>
      <trkpt lat="43.05365" lon="1.13741">
        <ele>563</ele>
        <time>2021-05-16T12:46:49Z</time>
      </trkpt>
      <trkpt lat="43.05384" lon="1.13745">
        <ele>565</ele>
        <time>2021-05-16T12:46:52Z</time>
      </trkpt>
      <trkpt lat="43.05392" lon="1.13752">
        <ele>565</ele>
        <time>2021-05-16T12:46:54Z</time>
      </trkpt>
      <trkpt lat="43.05405" lon="1.13791">
        <ele>563</ele>
        <time>2021-05-16T12:47:00Z</time>
      </trkpt>
      <trkpt lat="43.0546" lon="1.13981">
        <ele>557</ele>
        <time>2021-05-16T12:47:26Z</time>
      </trkpt>
      <trkpt lat="43.05474" lon="1.14011">
        <ele>556</ele>
        <time>2021-05-16T12:47:31Z</time>
      </trkpt>
      <trkpt lat="43.05488" lon="1.14026">
        <ele>556</ele>
        <time>2021-05-16T12:47:34Z</time>
      </trkpt>
      <trkpt lat="43.05517" lon="1.14045">
        <ele>560</ele>
        <time>2021-05-16T12:47:40Z</time>
      </trkpt>
      <trkpt lat="43.05524" lon="1.14053">
        <ele>560</ele>
        <time>2021-05-16T12:47:41Z</time>
      </trkpt>
      <trkpt lat="43.0553" lon="1.14068">
        <ele>561</ele>
        <time>2021-05-16T12:47:44Z</time>
      </trkpt>
      <trkpt lat="43.05541" lon="1.14131">
        <ele>561</ele>
        <time>2021-05-16T12:47:52Z</time>
      </trkpt>
      <trkpt lat="43.05557" lon="1.1431">
        <ele>563</ele>
        <time>2021-05-16T12:48:15Z</time>
      </trkpt>
      <trkpt lat="43.05566" lon="1.14328">
        <ele>563</ele>
        <time>2021-05-16T12:48:18Z</time>
      </trkpt>
      <trkpt lat="43.05575" lon="1.14337">
        <ele>564</ele>
        <time>2021-05-16T12:48:20Z</time>
      </trkpt>
      <trkpt lat="43.05641" lon="1.14383">
        <ele>574</ele>
        <time>2021-05-16T12:48:33Z</time>
      </trkpt>
      <trkpt lat="43.05657" lon="1.144">
        <ele>575</ele>
        <time>2021-05-16T12:48:37Z</time>
      </trkpt>
      <trkpt lat="43.05667" lon="1.14416">
        <ele>574</ele>
        <time>2021-05-16T12:48:40Z</time>
      </trkpt>
      <trkpt lat="43.05689" lon="1.14459">
        <ele>575</ele>
        <time>2021-05-16T12:48:47Z</time>
      </trkpt>
      <trkpt lat="43.05699" lon="1.14484">
        <ele>575</ele>
        <time>2021-05-16T12:48:50Z</time>
      </trkpt>
      <trkpt lat="43.05711" lon="1.14519">
        <ele>575</ele>
        <time>2021-05-16T12:48:55Z</time>
      </trkpt>
      <trkpt lat="43.05721" lon="1.14563">
        <ele>574</ele>
        <time>2021-05-16T12:49:01Z</time>
      </trkpt>
      <trkpt lat="43.05722" lon="1.14621">
        <ele>570</ele>
        <time>2021-05-16T12:49:09Z</time>
      </trkpt>
      <trkpt lat="43.05719" lon="1.1465">
        <ele>568</ele>
        <time>2021-05-16T12:49:13Z</time>
      </trkpt>
      <trkpt lat="43.057" lon="1.14729">
        <ele>563</ele>
        <time>2021-05-16T12:49:24Z</time>
      </trkpt>
      <trkpt lat="43.05691" lon="1.1478">
        <ele>562</ele>
        <time>2021-05-16T12:49:30Z</time>
      </trkpt>
      <trkpt lat="43.0569" lon="1.148">
        <ele>562</ele>
        <time>2021-05-16T12:49:33Z</time>
      </trkpt>
      <trkpt lat="43.05695" lon="1.14831">
        <ele>562</ele>
        <time>2021-05-16T12:49:37Z</time>
      </trkpt>
      <trkpt lat="43.05718" lon="1.14885">
        <ele>561</ele>
        <time>2021-05-16T12:49:45Z</time>
      </trkpt>
      <trkpt lat="43.05725" lon="1.14898">
        <ele>561</ele>
        <time>2021-05-16T12:49:47Z</time>
      </trkpt>
      <trkpt lat="43.05732" lon="1.14907">
        <ele>561</ele>
        <time>2021-05-16T12:49:49Z</time>
      </trkpt>
      <trkpt lat="43.05784" lon="1.1493">
        <ele>556</ele>
        <time>2021-05-16T12:49:59Z</time>
      </trkpt>
      <trkpt lat="43.05806" lon="1.14936">
        <ele>552</ele>
        <time>2021-05-16T12:50:03Z</time>
      </trkpt>
      <trkpt lat="43.05813" lon="1.14935">
        <ele>552</ele>
        <time>2021-05-16T12:50:04Z</time>
      </trkpt>
      <trkpt lat="43.05821" lon="1.14931">
        <ele>551</ele>
        <time>2021-05-16T12:50:05Z</time>
      </trkpt>
      <trkpt lat="43.05853" lon="1.14907">
        <ele>549</ele>
        <time>2021-05-16T12:50:12Z</time>
      </trkpt>
      <trkpt lat="43.05867" lon="1.149">
        <ele>547</ele>
        <time>2021-05-16T12:50:15Z</time>
      </trkpt>
      <trkpt lat="43.05873" lon="1.14902">
        <ele>546</ele>
        <time>2021-05-16T12:50:16Z</time>
      </trkpt>
      <trkpt lat="43.0588" lon="1.14907">
        <ele>545</ele>
        <time>2021-05-16T12:50:17Z</time>
      </trkpt>
      <trkpt lat="43.05886" lon="1.14914">
        <ele>544</ele>
        <time>2021-05-16T12:50:19Z</time>
      </trkpt>
      <trkpt lat="43.05896" lon="1.14939">
        <ele>541</ele>
        <time>2021-05-16T12:50:22Z</time>
      </trkpt>
      <trkpt lat="43.05944" lon="1.15043">
        <ele>539</ele>
        <time>2021-05-16T12:50:38Z</time>
      </trkpt>
      <trkpt lat="43.05995" lon="1.15139">
        <ele>544</ele>
        <time>2021-05-16T12:50:54Z</time>
      </trkpt>
      <trkpt lat="43.06001" lon="1.15154">
        <ele>545</ele>
        <time>2021-05-16T12:50:56Z</time>
      </trkpt>
      <trkpt lat="43.06029" lon="1.15257">
        <ele>544</ele>
        <time>2021-05-16T12:51:10Z</time>
      </trkpt>
      <trkpt lat="43.06032" lon="1.15278">
        <ele>543</ele>
        <time>2021-05-16T12:51:13Z</time>
      </trkpt>
      <trkpt lat="43.06029" lon="1.15341">
        <ele>541</ele>
        <time>2021-05-16T12:51:21Z</time>
      </trkpt>
      <trkpt lat="43.06023" lon="1.15384">
        <ele>542</ele>
        <time>2021-05-16T12:51:27Z</time>
      </trkpt>
      <trkpt lat="43.06021" lon="1.15406">
        <ele>543</ele>
        <time>2021-05-16T12:51:30Z</time>
      </trkpt>
      <trkpt lat="43.06022" lon="1.15432">
        <ele>543</ele>
        <time>2021-05-16T12:51:33Z</time>
      </trkpt>
      <trkpt lat="43.06057" lon="1.15579">
        <ele>551</ele>
        <time>2021-05-16T12:51:53Z</time>
      </trkpt>
      <trkpt lat="43.06094" lon="1.15709">
        <ele>554</ele>
        <time>2021-05-16T12:52:11Z</time>
      </trkpt>
      <trkpt lat="43.0611" lon="1.15784">
        <ele>554</ele>
        <time>2021-05-16T12:52:22Z</time>
      </trkpt>
      <trkpt lat="43.06137" lon="1.15851">
        <ele>554</ele>
        <time>2021-05-16T12:52:31Z</time>
      </trkpt>
      <trkpt lat="43.06163" lon="1.15899">
        <ele>556</ele>
        <time>2021-05-16T12:52:39Z</time>
      </trkpt>
      <trkpt lat="43.062" lon="1.15955">
        <ele>558</ele>
        <time>2021-05-16T12:52:49Z</time>
      </trkpt>
      <trkpt lat="43.06283" lon="1.16108">
        <ele>560</ele>
        <time>2021-05-16T12:53:14Z</time>
      </trkpt>
      <trkpt lat="43.06293" lon="1.16125">
        <ele>561</ele>
        <time>2021-05-16T12:53:17Z</time>
      </trkpt>
      <trkpt lat="43.06328" lon="1.16173">
        <ele>563</ele>
        <time>2021-05-16T12:53:25Z</time>
      </trkpt>
      <trkpt lat="43.06337" lon="1.1619">
        <ele>562</ele>
        <time>2021-05-16T12:53:28Z</time>
      </trkpt>
      <trkpt lat="43.06404" lon="1.16326">
        <ele>560</ele>
        <time>2021-05-16T12:53:50Z</time>
      </trkpt>
      <trkpt lat="43.06431" lon="1.16374">
        <ele>562</ele>
        <time>2021-05-16T12:53:57Z</time>
      </trkpt>
      <trkpt lat="43.06443" lon="1.16392">
        <ele>562</ele>
        <time>2021-05-16T12:54:01Z</time>
      </trkpt>
      <trkpt lat="43.06592" lon="1.16571">
        <ele>567</ele>
        <time>2021-05-16T12:54:36Z</time>
      </trkpt>
      <trkpt lat="43.0661" lon="1.16596">
        <ele>567</ele>
        <time>2021-05-16T12:54:40Z</time>
      </trkpt>
      <trkpt lat="43.06623" lon="1.16618">
        <ele>566</ele>
        <time>2021-05-16T12:54:44Z</time>
      </trkpt>
      <trkpt lat="43.06689" lon="1.16748">
        <ele>566</ele>
        <time>2021-05-16T12:55:05Z</time>
      </trkpt>
      <trkpt lat="43.06719" lon="1.16799">
        <ele>566</ele>
        <time>2021-05-16T12:55:13Z</time>
      </trkpt>
      <trkpt lat="43.06943" lon="1.17025">
        <ele>561</ele>
        <time>2021-05-16T12:56:03Z</time>
      </trkpt>
      <trkpt lat="43.06945" lon="1.1703">
        <ele>561</ele>
        <time>2021-05-16T12:56:03Z</time>
      </trkpt>
      <trkpt lat="43.06946" lon="1.17036">
        <ele>562</ele>
        <time>2021-05-16T12:56:04Z</time>
      </trkpt>
      <trkpt lat="43.06956" lon="1.17042">
        <ele>562</ele>
        <time>2021-05-16T12:56:06Z</time>
      </trkpt>
      <trkpt lat="43.07032" lon="1.16917">
        <ele>557</ele>
        <time>2021-05-16T12:56:27Z</time>
      </trkpt>
      <trkpt lat="43.07043" lon="1.16895">
        <ele>556</ele>
        <time>2021-05-16T12:56:31Z</time>
      </trkpt>
      <trkpt lat="43.07069" lon="1.16833">
        <ele>555</ele>
        <time>2021-05-16T12:56:40Z</time>
      </trkpt>
      <trkpt lat="43.07092" lon="1.16769">
        <ele>554</ele>
        <time>2021-05-16T12:56:49Z</time>
      </trkpt>
      <trkpt lat="43.07108" lon="1.16718">
        <ele>551</ele>
        <time>2021-05-16T12:56:57Z</time>
      </trkpt>
      <trkpt lat="43.07134" lon="1.16596">
        <ele>543</ele>
        <time>2021-05-16T12:57:13Z</time>
      </trkpt>
      <trkpt lat="43.0716" lon="1.16512">
        <ele>538</ele>
        <time>2021-05-16T12:57:25Z</time>
      </trkpt>
      <trkpt lat="43.0717" lon="1.16488">
        <ele>537</ele>
        <time>2021-05-16T12:57:29Z</time>
      </trkpt>
      <trkpt lat="43.07189" lon="1.16453">
        <ele>534</ele>
        <time>2021-05-16T12:57:34Z</time>
      </trkpt>
      <trkpt lat="43.072" lon="1.16428">
        <ele>532</ele>
        <time>2021-05-16T12:57:38Z</time>
      </trkpt>
      <trkpt lat="43.07204" lon="1.1641">
        <ele>530</ele>
        <time>2021-05-16T12:57:40Z</time>
      </trkpt>
      <trkpt lat="43.07204" lon="1.16394">
        <ele>528</ele>
        <time>2021-05-16T12:57:42Z</time>
      </trkpt>
      <trkpt lat="43.072" lon="1.16352">
        <ele>524</ele>
        <time>2021-05-16T12:57:48Z</time>
      </trkpt>
      <trkpt lat="43.07195" lon="1.16322">
        <ele>521</ele>
        <time>2021-05-16T12:57:52Z</time>
      </trkpt>
      <trkpt lat="43.07189" lon="1.16297">
        <ele>518</ele>
        <time>2021-05-16T12:57:55Z</time>
      </trkpt>
      <trkpt lat="43.07176" lon="1.16285">
        <ele>517</ele>
        <time>2021-05-16T12:57:58Z</time>
      </trkpt>
      <trkpt lat="43.07152" lon="1.16279">
        <ele>515</ele>
        <time>2021-05-16T12:58:03Z</time>
      </trkpt>
      <trkpt lat="43.07148" lon="1.16274">
        <ele>514</ele>
        <time>2021-05-16T12:58:04Z</time>
      </trkpt>
      <trkpt lat="43.07143" lon="1.16262">
        <ele>513</ele>
        <time>2021-05-16T12:58:05Z</time>
      </trkpt>
      <trkpt lat="43.07161" lon="1.1618">
        <ele>506</ele>
        <time>2021-05-16T12:58:16Z</time>
      </trkpt>
      <trkpt lat="43.07168" lon="1.16139">
        <ele>503</ele>
        <time>2021-05-16T12:58:22Z</time>
      </trkpt>
      <trkpt lat="43.07166" lon="1.16109">
        <ele>501</ele>
        <time>2021-05-16T12:58:26Z</time>
      </trkpt>
      <trkpt lat="43.07158" lon="1.1606">
        <ele>496</ele>
        <time>2021-05-16T12:58:32Z</time>
      </trkpt>
      <trkpt lat="43.07143" lon="1.15861">
        <ele>487</ele>
        <time>2021-05-16T12:58:58Z</time>
      </trkpt>
      <trkpt lat="43.07142" lon="1.15691">
        <ele>487</ele>
        <time>2021-05-16T12:59:20Z</time>
      </trkpt>
      <trkpt lat="43.07144" lon="1.15659">
        <ele>486</ele>
        <time>2021-05-16T12:59:25Z</time>
      </trkpt>
      <trkpt lat="43.07147" lon="1.15629">
        <ele>483</ele>
        <time>2021-05-16T12:59:29Z</time>
      </trkpt>
      <trkpt lat="43.07154" lon="1.15595">
        <ele>479</ele>
        <time>2021-05-16T12:59:33Z</time>
      </trkpt>
      <trkpt lat="43.07158" lon="1.1556">
        <ele>477</ele>
        <time>2021-05-16T12:59:38Z</time>
      </trkpt>
      <trkpt lat="43.07203" lon="1.15384">
        <ele>464</ele>
        <time>2021-05-16T13:00:02Z</time>
      </trkpt>
      <trkpt lat="43.0723" lon="1.15266">
        <ele>452</ele>
        <time>2021-05-16T13:00:18Z</time>
      </trkpt>
      <trkpt lat="43.07259" lon="1.15168">
        <ele>448</ele>
        <time>2021-05-16T13:00:32Z</time>
      </trkpt>
      <trkpt lat="43.07277" lon="1.15102">
        <ele>445</ele>
        <time>2021-05-16T13:00:41Z</time>
      </trkpt>
      <trkpt lat="43.0728" lon="1.15082">
        <ele>444</ele>
        <time>2021-05-16T13:00:44Z</time>
      </trkpt>
      <trkpt lat="43.07286" lon="1.15012">
        <ele>442</ele>
        <time>2021-05-16T13:00:53Z</time>
      </trkpt>
      <trkpt lat="43.07285" lon="1.14958">
        <ele>443</ele>
        <time>2021-05-16T13:01:00Z</time>
      </trkpt>
      <trkpt lat="43.07274" lon="1.14857">
        <ele>447</ele>
        <time>2021-05-16T13:01:13Z</time>
      </trkpt>
      <trkpt lat="43.0727" lon="1.14789">
        <ele>447</ele>
        <time>2021-05-16T13:01:22Z</time>
      </trkpt>
      <trkpt lat="43.07273" lon="1.1474">
        <ele>446</ele>
        <time>2021-05-16T13:01:28Z</time>
      </trkpt>
      <trkpt lat="43.07277" lon="1.14729">
        <ele>446</ele>
        <time>2021-05-16T13:01:30Z</time>
      </trkpt>
      <trkpt lat="43.07293" lon="1.14712">
        <ele>445</ele>
        <time>2021-05-16T13:01:34Z</time>
      </trkpt>
      <trkpt lat="43.07313" lon="1.14684">
        <ele>444</ele>
        <time>2021-05-16T13:01:39Z</time>
      </trkpt>
      <trkpt lat="43.07333" lon="1.14645">
        <ele>441</ele>
        <time>2021-05-16T13:01:45Z</time>
      </trkpt>
      <trkpt lat="43.07354" lon="1.14611">
        <ele>437</ele>
        <time>2021-05-16T13:01:51Z</time>
      </trkpt>
      <trkpt lat="43.07384" lon="1.14545">
        <ele>431</ele>
        <time>2021-05-16T13:02:01Z</time>
      </trkpt>
      <trkpt lat="43.07399" lon="1.14523">
        <ele>429</ele>
        <time>2021-05-16T13:02:05Z</time>
      </trkpt>
      <trkpt lat="43.07413" lon="1.14511">
        <ele>427</ele>
        <time>2021-05-16T13:02:08Z</time>
      </trkpt>
      <trkpt lat="43.07448" lon="1.14499">
        <ele>426</ele>
        <time>2021-05-16T13:02:14Z</time>
      </trkpt>
      <trkpt lat="43.07462" lon="1.14483">
        <ele>425</ele>
        <time>2021-05-16T13:02:17Z</time>
      </trkpt>
      <trkpt lat="43.07475" lon="1.14463">
        <ele>425</ele>
        <time>2021-05-16T13:02:21Z</time>
      </trkpt>
      <trkpt lat="43.07485" lon="1.14454">
        <ele>425</ele>
        <time>2021-05-16T13:02:23Z</time>
      </trkpt>
      <trkpt lat="43.07497" lon="1.14452">
        <ele>425</ele>
        <time>2021-05-16T13:02:25Z</time>
      </trkpt>
      <trkpt lat="43.07524" lon="1.14457">
        <ele>427</ele>
        <time>2021-05-16T13:02:30Z</time>
      </trkpt>
      <trkpt lat="43.07534" lon="1.14452">
        <ele>428</ele>
        <time>2021-05-16T13:02:32Z</time>
      </trkpt>
      <trkpt lat="43.07539" lon="1.14447">
        <ele>429</ele>
        <time>2021-05-16T13:02:33Z</time>
      </trkpt>
      <trkpt lat="43.07542" lon="1.14439">
        <ele>429</ele>
        <time>2021-05-16T13:02:34Z</time>
      </trkpt>
      <trkpt lat="43.07573" lon="1.14345">
        <ele>431</ele>
        <time>2021-05-16T13:02:47Z</time>
      </trkpt>
      <trkpt lat="43.07613" lon="1.14213">
        <ele>436</ele>
        <time>2021-05-16T13:03:06Z</time>
      </trkpt>
      <trkpt lat="43.07619" lon="1.142">
        <ele>436</ele>
        <time>2021-05-16T13:03:08Z</time>
      </trkpt>
      <trkpt lat="43.07644" lon="1.14158">
        <ele>436</ele>
        <time>2021-05-16T13:03:15Z</time>
      </trkpt>
      <trkpt lat="43.07692" lon="1.1406">
        <ele>436</ele>
        <time>2021-05-16T13:03:30Z</time>
      </trkpt>
      <trkpt lat="43.077" lon="1.14048">
        <ele>436</ele>
        <time>2021-05-16T13:03:32Z</time>
      </trkpt>
      <trkpt lat="43.07731" lon="1.14016">
        <ele>437</ele>
        <time>2021-05-16T13:03:39Z</time>
      </trkpt>
      <trkpt lat="43.07742" lon="1.13999">
        <ele>437</ele>
        <time>2021-05-16T13:03:42Z</time>
      </trkpt>
      <trkpt lat="43.07751" lon="1.13975">
        <ele>437</ele>
        <time>2021-05-16T13:03:46Z</time>
      </trkpt>
      <trkpt lat="43.07782" lon="1.13866">
        <ele>437</ele>
        <time>2021-05-16T13:04:01Z</time>
      </trkpt>
      <trkpt lat="43.07783" lon="1.13856">
        <ele>437</ele>
        <time>2021-05-16T13:04:02Z</time>
      </trkpt>
      <trkpt lat="43.0778" lon="1.13847">
        <ele>436</ele>
        <time>2021-05-16T13:04:04Z</time>
      </trkpt>
      <trkpt lat="43.07774" lon="1.13839">
        <ele>435</ele>
        <time>2021-05-16T13:04:05Z</time>
      </trkpt>
      <trkpt lat="43.07753" lon="1.13825">
        <ele>431</ele>
        <time>2021-05-16T13:04:09Z</time>
      </trkpt>
      <trkpt lat="43.07744" lon="1.1382">
        <ele>430</ele>
        <time>2021-05-16T13:04:11Z</time>
      </trkpt>
      <trkpt lat="43.07689" lon="1.13806">
        <ele>427</ele>
        <time>2021-05-16T13:04:21Z</time>
      </trkpt>
      <trkpt lat="43.07682" lon="1.13802">
        <ele>427</ele>
        <time>2021-05-16T13:04:22Z</time>
      </trkpt>
      <trkpt lat="43.07671" lon="1.13793">
        <ele>427</ele>
        <time>2021-05-16T13:04:25Z</time>
      </trkpt>
      <trkpt lat="43.07666" lon="1.13781">
        <ele>427</ele>
        <time>2021-05-16T13:04:26Z</time>
      </trkpt>
      <trkpt lat="43.07665" lon="1.13772">
        <ele>427</ele>
        <time>2021-05-16T13:04:28Z</time>
      </trkpt>
      <trkpt lat="43.07666" lon="1.13762">
        <ele>428</ele>
        <time>2021-05-16T13:04:29Z</time>
      </trkpt>
      <trkpt lat="43.0768" lon="1.13712">
        <ele>429</ele>
        <time>2021-05-16T13:04:36Z</time>
      </trkpt>
      <trkpt lat="43.07696" lon="1.13638">
        <ele>429</ele>
        <time>2021-05-16T13:04:46Z</time>
      </trkpt>
      <trkpt lat="43.077" lon="1.13598">
        <ele>429</ele>
        <time>2021-05-16T13:04:51Z</time>
      </trkpt>
      <trkpt lat="43.07709" lon="1.13467">
        <ele>424</ele>
        <time>2021-05-16T13:05:08Z</time>
      </trkpt>
      <trkpt lat="43.07719" lon="1.13399">
        <ele>423</ele>
        <time>2021-05-16T13:05:17Z</time>
      </trkpt>
      <trkpt lat="43.07723" lon="1.13363">
        <ele>423</ele>
        <time>2021-05-16T13:05:22Z</time>
      </trkpt>
      <trkpt lat="43.07726" lon="1.13346">
        <ele>423</ele>
        <time>2021-05-16T13:05:24Z</time>
      </trkpt>
      <trkpt lat="43.07753" lon="1.13247">
        <ele>418</ele>
        <time>2021-05-16T13:05:38Z</time>
      </trkpt>
      <trkpt lat="43.07754" lon="1.13227">
        <ele>416</ele>
        <time>2021-05-16T13:05:41Z</time>
      </trkpt>
      <trkpt lat="43.0775" lon="1.13207">
        <ele>414</ele>
        <time>2021-05-16T13:05:43Z</time>
      </trkpt>
      <trkpt lat="43.07725" lon="1.13156">
        <ele>413</ele>
        <time>2021-05-16T13:05:51Z</time>
      </trkpt>
      <trkpt lat="43.07709" lon="1.13101">
        <ele>413</ele>
        <time>2021-05-16T13:05:59Z</time>
      </trkpt>
      <trkpt lat="43.07695" lon="1.13068">
        <ele>411</ele>
        <time>2021-05-16T13:06:04Z</time>
      </trkpt>
      <trkpt lat="43.07668" lon="1.13013">
        <ele>405</ele>
        <time>2021-05-16T13:06:13Z</time>
      </trkpt>
      <trkpt lat="43.07665" lon="1.13005">
        <ele>404</ele>
        <time>2021-05-16T13:06:14Z</time>
      </trkpt>
      <trkpt lat="43.07665" lon="1.12997">
        <ele>404</ele>
        <time>2021-05-16T13:06:15Z</time>
      </trkpt>
      <trkpt lat="43.07669" lon="1.1297">
        <ele>404</ele>
        <time>2021-05-16T13:06:18Z</time>
      </trkpt>
      <trkpt lat="43.07747" lon="1.12745">
        <ele>400</ele>
        <time>2021-05-16T13:06:51Z</time>
      </trkpt>
      <trkpt lat="43.07757" lon="1.12697">
        <ele>398</ele>
        <time>2021-05-16T13:06:57Z</time>
      </trkpt>
      <trkpt lat="43.07764" lon="1.12656">
        <ele>396</ele>
        <time>2021-05-16T13:07:03Z</time>
      </trkpt>
      <trkpt lat="43.07771" lon="1.1263">
        <ele>396</ele>
        <time>2021-05-16T13:07:06Z</time>
      </trkpt>
      <trkpt lat="43.07772" lon="1.12617">
        <ele>395</ele>
        <time>2021-05-16T13:07:08Z</time>
      </trkpt>
      <trkpt lat="43.0777" lon="1.12599">
        <ele>395</ele>
        <time>2021-05-16T13:07:10Z</time>
      </trkpt>
      <trkpt lat="43.07766" lon="1.12583">
        <ele>395</ele>
        <time>2021-05-16T13:07:12Z</time>
      </trkpt>
      <trkpt lat="43.07762" lon="1.12569">
        <ele>396</ele>
        <time>2021-05-16T13:07:14Z</time>
      </trkpt>
      <trkpt lat="43.07759" lon="1.12555">
        <ele>397</ele>
        <time>2021-05-16T13:07:16Z</time>
      </trkpt>
      <trkpt lat="43.07738" lon="1.12489">
        <ele>400</ele>
        <time>2021-05-16T13:07:26Z</time>
      </trkpt>
      <trkpt lat="43.07727" lon="1.12463">
        <ele>403</ele>
        <time>2021-05-16T13:07:30Z</time>
      </trkpt>
      <trkpt lat="43.07726" lon="1.12454">
        <ele>403</ele>
        <time>2021-05-16T13:07:31Z</time>
      </trkpt>
      <trkpt lat="43.07733" lon="1.12455">
        <ele>404</ele>
        <time>2021-05-16T13:07:32Z</time>
      </trkpt>
      <trkpt lat="43.07746" lon="1.12451">
        <ele>405</ele>
        <time>2021-05-16T13:07:34Z</time>
      </trkpt>
      <trkpt lat="43.07754" lon="1.12445">
        <ele>405</ele>
        <time>2021-05-16T13:07:36Z</time>
      </trkpt>
      <trkpt lat="43.07921" lon="1.12253">
        <ele>400</ele>
        <time>2021-05-16T13:08:15Z</time>
      </trkpt>
      <trkpt lat="43.07991" lon="1.12185">
        <ele>397</ele>
        <time>2021-05-16T13:08:30Z</time>
      </trkpt>
      <trkpt lat="43.0801" lon="1.12179">
        <ele>396</ele>
        <time>2021-05-16T13:08:34Z</time>
      </trkpt>
      <trkpt lat="43.08059" lon="1.12173">
        <ele>393</ele>
        <time>2021-05-16T13:08:42Z</time>
      </trkpt>
      <trkpt lat="43.08157" lon="1.12104">
        <ele>392</ele>
        <time>2021-05-16T13:09:02Z</time>
      </trkpt>
      <trkpt lat="43.08216" lon="1.12084">
        <ele>389</ele>
        <time>2021-05-16T13:09:13Z</time>
      </trkpt>
      <trkpt lat="43.08299" lon="1.1206">
        <ele>389</ele>
        <time>2021-05-16T13:09:28Z</time>
      </trkpt>
      <trkpt lat="43.08318" lon="1.12047">
        <ele>390</ele>
        <time>2021-05-16T13:09:32Z</time>
      </trkpt>
      <trkpt lat="43.08344" lon="1.12025">
        <ele>394</ele>
        <time>2021-05-16T13:09:37Z</time>
      </trkpt>
      <trkpt lat="43.08361" lon="1.12019">
        <ele>395</ele>
        <time>2021-05-16T13:09:40Z</time>
      </trkpt>
      <trkpt lat="43.08404" lon="1.12032">
        <ele>396</ele>
        <time>2021-05-16T13:09:48Z</time>
      </trkpt>
      <trkpt lat="43.08522" lon="1.12028">
        <ele>402</ele>
        <time>2021-05-16T13:10:09Z</time>
      </trkpt>
      <trkpt lat="43.08542" lon="1.12036">
        <ele>402</ele>
        <time>2021-05-16T13:10:13Z</time>
      </trkpt>
      <trkpt lat="43.08562" lon="1.12046">
        <ele>402</ele>
        <time>2021-05-16T13:10:17Z</time>
      </trkpt>
      <trkpt lat="43.08598" lon="1.12046">
        <ele>405</ele>
        <time>2021-05-16T13:10:23Z</time>
      </trkpt>
      <trkpt lat="43.08639" lon="1.12023">
        <ele>413</ele>
        <time>2021-05-16T13:10:31Z</time>
      </trkpt>
      <trkpt lat="43.08677" lon="1.12023">
        <ele>415</ele>
        <time>2021-05-16T13:10:38Z</time>
      </trkpt>
      <trkpt lat="43.08755" lon="1.12088">
        <ele>406</ele>
        <time>2021-05-16T13:10:54Z</time>
      </trkpt>
      <trkpt lat="43.08771" lon="1.12098">
        <ele>405</ele>
        <time>2021-05-16T13:10:57Z</time>
      </trkpt>
      <trkpt lat="43.08792" lon="1.12106">
        <ele>404</ele>
        <time>2021-05-16T13:11:01Z</time>
      </trkpt>
      <trkpt lat="43.08814" lon="1.12103">
        <ele>404</ele>
        <time>2021-05-16T13:11:05Z</time>
      </trkpt>
      <trkpt lat="43.08897" lon="1.12033">
        <ele>404</ele>
        <time>2021-05-16T13:11:22Z</time>
      </trkpt>
      <trkpt lat="43.08976" lon="1.11985">
        <ele>400</ele>
        <time>2021-05-16T13:11:37Z</time>
      </trkpt>
      <trkpt lat="43.09006" lon="1.12002">
        <ele>397</ele>
        <time>2021-05-16T13:11:43Z</time>
      </trkpt>
      <trkpt lat="43.09031" lon="1.12027">
        <ele>395</ele>
        <time>2021-05-16T13:11:49Z</time>
      </trkpt>
      <trkpt lat="43.09055" lon="1.12078">
        <ele>393</ele>
        <time>2021-05-16T13:11:57Z</time>
      </trkpt>
      <trkpt lat="43.09076" lon="1.12107">
        <ele>391</ele>
        <time>2021-05-16T13:12:02Z</time>
      </trkpt>
      <trkpt lat="43.09118" lon="1.12153">
        <ele>386</ele>
        <time>2021-05-16T13:12:12Z</time>
      </trkpt>
      <trkpt lat="43.09164" lon="1.1219">
        <ele>381</ele>
        <time>2021-05-16T13:12:21Z</time>
      </trkpt>
      <trkpt lat="43.09237" lon="1.12297">
        <ele>369</ele>
        <time>2021-05-16T13:12:40Z</time>
      </trkpt>
      <trkpt lat="43.09249" lon="1.12327">
        <ele>368</ele>
        <time>2021-05-16T13:12:44Z</time>
      </trkpt>
      <trkpt lat="43.09257" lon="1.12359">
        <ele>368</ele>
        <time>2021-05-16T13:12:49Z</time>
      </trkpt>
      <trkpt lat="43.09259" lon="1.1238">
        <ele>368</ele>
        <time>2021-05-16T13:12:52Z</time>
      </trkpt>
      <trkpt lat="43.0928" lon="1.12397">
        <ele>367</ele>
        <time>2021-05-16T13:12:56Z</time>
      </trkpt>
      <trkpt lat="43.09317" lon="1.12408">
        <ele>365</ele>
        <time>2021-05-16T13:13:03Z</time>
      </trkpt>
      <trkpt lat="43.09344" lon="1.12413">
        <ele>364</ele>
        <time>2021-05-16T13:13:08Z</time>
      </trkpt>
      <trkpt lat="43.09357" lon="1.12419">
        <ele>365</ele>
        <time>2021-05-16T13:13:10Z</time>
      </trkpt>
      <trkpt lat="43.09359" lon="1.12413">
        <ele>365</ele>
        <time>2021-05-16T13:13:11Z</time>
      </trkpt>
      <trkpt lat="43.09355" lon="1.12387">
        <ele>365</ele>
        <time>2021-05-16T13:13:14Z</time>
      </trkpt>
      <trkpt lat="43.09352" lon="1.12373">
        <ele>366</ele>
        <time>2021-05-16T13:13:16Z</time>
      </trkpt>
      <trkpt lat="43.09349" lon="1.12345">
        <ele>366</ele>
        <time>2021-05-16T13:13:20Z</time>
      </trkpt>
      <trkpt lat="43.09349" lon="1.12313">
        <ele>367</ele>
        <time>2021-05-16T13:13:24Z</time>
      </trkpt>
      <trkpt lat="43.09356" lon="1.12279">
        <ele>368</ele>
        <time>2021-05-16T13:13:29Z</time>
      </trkpt>
      <trkpt lat="43.0937" lon="1.12246">
        <ele>370</ele>
        <time>2021-05-16T13:13:34Z</time>
      </trkpt>
      <trkpt lat="43.09396" lon="1.12209">
        <ele>374</ele>
        <time>2021-05-16T13:13:40Z</time>
      </trkpt>
      <trkpt lat="43.09412" lon="1.12167">
        <ele>377</ele>
        <time>2021-05-16T13:13:46Z</time>
      </trkpt>
      <trkpt lat="43.09448" lon="1.12114">
        <ele>379</ele>
        <time>2021-05-16T13:13:56Z</time>
      </trkpt>
      <trkpt lat="43.09514" lon="1.11983">
        <ele>381</ele>
        <time>2021-05-16T13:14:16Z</time>
      </trkpt>
      <trkpt lat="43.0953" lon="1.11959">
        <ele>381</ele>
        <time>2021-05-16T13:14:21Z</time>
      </trkpt>
      <trkpt lat="43.09577" lon="1.11911">
        <ele>383</ele>
        <time>2021-05-16T13:14:31Z</time>
      </trkpt>
      <trkpt lat="43.09594" lon="1.11885">
        <ele>385</ele>
        <time>2021-05-16T13:14:36Z</time>
      </trkpt>
      <trkpt lat="43.09608" lon="1.11858">
        <ele>385</ele>
        <time>2021-05-16T13:14:40Z</time>
      </trkpt>
      <trkpt lat="43.09613" lon="1.11843">
        <ele>386</ele>
        <time>2021-05-16T13:14:42Z</time>
      </trkpt>
      <trkpt lat="43.0962" lon="1.11814">
        <ele>386</ele>
        <time>2021-05-16T13:14:46Z</time>
      </trkpt>
      <trkpt lat="43.0967" lon="1.11654">
        <ele>388</ele>
        <time>2021-05-16T13:15:09Z</time>
      </trkpt>
      <trkpt lat="43.09675" lon="1.11643">
        <ele>387</ele>
        <time>2021-05-16T13:15:10Z</time>
      </trkpt>
      <trkpt lat="43.09718" lon="1.11621">
        <ele>382</ele>
        <time>2021-05-16T13:15:19Z</time>
      </trkpt>
      <trkpt lat="43.09741" lon="1.11607">
        <ele>380</ele>
        <time>2021-05-16T13:15:23Z</time>
      </trkpt>
      <trkpt lat="43.09759" lon="1.11588">
        <ele>379</ele>
        <time>2021-05-16T13:15:27Z</time>
      </trkpt>
      <trkpt lat="43.09812" lon="1.11502">
        <ele>376</ele>
        <time>2021-05-16T13:15:42Z</time>
      </trkpt>
      <trkpt lat="43.09818" lon="1.11481">
        <ele>376</ele>
        <time>2021-05-16T13:15:45Z</time>
      </trkpt>
      <trkpt lat="43.09816" lon="1.11447">
        <ele>375</ele>
        <time>2021-05-16T13:15:49Z</time>
      </trkpt>
      <trkpt lat="43.09821" lon="1.11429">
        <ele>376</ele>
        <time>2021-05-16T13:15:52Z</time>
      </trkpt>
      <trkpt lat="43.09835" lon="1.1141">
        <ele>375</ele>
        <time>2021-05-16T13:15:55Z</time>
      </trkpt>
      <trkpt lat="43.09856" lon="1.11391">
        <ele>374</ele>
        <time>2021-05-16T13:16:00Z</time>
      </trkpt>
      <trkpt lat="43.09874" lon="1.11353">
        <ele>370</ele>
        <time>2021-05-16T13:16:05Z</time>
      </trkpt>
      <trkpt lat="43.0989" lon="1.1134">
        <ele>369</ele>
        <time>2021-05-16T13:16:09Z</time>
      </trkpt>
      <trkpt lat="43.09905" lon="1.11342">
        <ele>369</ele>
        <time>2021-05-16T13:16:11Z</time>
      </trkpt>
      <trkpt lat="43.09929" lon="1.1136">
        <ele>371</ele>
        <time>2021-05-16T13:16:16Z</time>
      </trkpt>
      <trkpt lat="43.09947" lon="1.11366">
        <ele>373</ele>
        <time>2021-05-16T13:16:20Z</time>
      </trkpt>
      <trkpt lat="43.09976" lon="1.11358">
        <ele>372</ele>
        <time>2021-05-16T13:16:25Z</time>
      </trkpt>
      <trkpt lat="43.10017" lon="1.11334">
        <ele>372</ele>
        <time>2021-05-16T13:16:33Z</time>
      </trkpt>
      <trkpt lat="43.1008" lon="1.11292">
        <ele>374</ele>
        <time>2021-05-16T13:16:45Z</time>
      </trkpt>
      <trkpt lat="43.10148" lon="1.11235">
        <ele>370</ele>
        <time>2021-05-16T13:16:59Z</time>
      </trkpt>
      <trkpt lat="43.10186" lon="1.11216">
        <ele>370</ele>
        <time>2021-05-16T13:17:07Z</time>
      </trkpt>
      <trkpt lat="43.10244" lon="1.11171">
        <ele>366</ele>
        <time>2021-05-16T13:17:19Z</time>
      </trkpt>
      <trkpt lat="43.10295" lon="1.11142">
        <ele>368</ele>
        <time>2021-05-16T13:17:28Z</time>
      </trkpt>
      <trkpt lat="43.10346" lon="1.11099">
        <ele>369</ele>
        <time>2021-05-16T13:17:39Z</time>
      </trkpt>
      <trkpt lat="43.10374" lon="1.11079">
        <ele>370</ele>
        <time>2021-05-16T13:17:45Z</time>
      </trkpt>
      <trkpt lat="43.10444" lon="1.11064">
        <ele>375</ele>
        <time>2021-05-16T13:17:57Z</time>
      </trkpt>
      <trkpt lat="43.10542" lon="1.11075">
        <ele>379</ele>
        <time>2021-05-16T13:18:15Z</time>
      </trkpt>
      <trkpt lat="43.10573" lon="1.11062">
        <ele>382</ele>
        <time>2021-05-16T13:18:20Z</time>
      </trkpt>
      <trkpt lat="43.10603" lon="1.11025">
        <ele>387</ele>
        <time>2021-05-16T13:18:28Z</time>
      </trkpt>
      <trkpt lat="43.10649" lon="1.10928">
        <ele>394</ele>
        <time>2021-05-16T13:18:43Z</time>
      </trkpt>
      <trkpt lat="43.10667" lon="1.10898">
        <ele>397</ele>
        <time>2021-05-16T13:18:48Z</time>
      </trkpt>
      <trkpt lat="43.10701" lon="1.10862">
        <ele>399</ele>
        <time>2021-05-16T13:18:55Z</time>
      </trkpt>
      <trkpt lat="43.10741" lon="1.10808">
        <ele>400</ele>
        <time>2021-05-16T13:19:05Z</time>
      </trkpt>
      <trkpt lat="43.1077" lon="1.10763">
        <ele>403</ele>
        <time>2021-05-16T13:19:13Z</time>
      </trkpt>
      <trkpt lat="43.10795" lon="1.10695">
        <ele>406</ele>
        <time>2021-05-16T13:19:23Z</time>
      </trkpt>
      <trkpt lat="43.10812" lon="1.10689">
        <ele>404</ele>
        <time>2021-05-16T13:19:26Z</time>
      </trkpt>
      <trkpt lat="43.10885" lon="1.10691">
        <ele>401</ele>
        <time>2021-05-16T13:19:39Z</time>
      </trkpt>
      <trkpt lat="43.10903" lon="1.10686">
        <ele>400</ele>
        <time>2021-05-16T13:19:42Z</time>
      </trkpt>
      <trkpt lat="43.10917" lon="1.10678">
        <ele>400</ele>
        <time>2021-05-16T13:19:45Z</time>
      </trkpt>
      <trkpt lat="43.11004" lon="1.10593">
        <ele>402</ele>
        <time>2021-05-16T13:20:04Z</time>
      </trkpt>
      <trkpt lat="43.11029" lon="1.1059">
        <ele>402</ele>
        <time>2021-05-16T13:20:09Z</time>
      </trkpt>
      <trkpt lat="43.11241" lon="1.10694">
        <ele>401</ele>
        <time>2021-05-16T13:20:49Z</time>
      </trkpt>
      <trkpt lat="43.11266" lon="1.10692">
        <ele>401</ele>
        <time>2021-05-16T13:20:53Z</time>
      </trkpt>
      <trkpt lat="43.11298" lon="1.10665">
        <ele>401</ele>
        <time>2021-05-16T13:21:00Z</time>
      </trkpt>
      <trkpt lat="43.11392" lon="1.10538">
        <ele>407</ele>
        <time>2021-05-16T13:21:23Z</time>
      </trkpt>
      <trkpt lat="43.1141" lon="1.10517">
        <ele>407</ele>
        <time>2021-05-16T13:21:28Z</time>
      </trkpt>
      <trkpt lat="43.11425" lon="1.10511">
        <ele>407</ele>
        <time>2021-05-16T13:21:30Z</time>
      </trkpt>
      <trkpt lat="43.11435" lon="1.10514">
        <ele>407</ele>
        <time>2021-05-16T13:21:32Z</time>
      </trkpt>
      <trkpt lat="43.11446" lon="1.10522">
        <ele>407</ele>
        <time>2021-05-16T13:21:34Z</time>
      </trkpt>
      <trkpt lat="43.11607" lon="1.10713">
        <ele>411</ele>
        <time>2021-05-16T13:22:12Z</time>
      </trkpt>
      <trkpt lat="43.11621" lon="1.10745">
        <ele>413</ele>
        <time>2021-05-16T13:22:17Z</time>
      </trkpt>
      <trkpt lat="43.11657" lon="1.10955">
        <ele>419</ele>
        <time>2021-05-16T13:22:45Z</time>
      </trkpt>
      <trkpt lat="43.11668" lon="1.10996">
        <ele>420</ele>
        <time>2021-05-16T13:22:51Z</time>
      </trkpt>
      <trkpt lat="43.11687" lon="1.11036">
        <ele>421</ele>
        <time>2021-05-16T13:22:57Z</time>
      </trkpt>
      <trkpt lat="43.11765" lon="1.11141">
        <ele>423</ele>
        <time>2021-05-16T13:23:16Z</time>
      </trkpt>
      <trkpt lat="43.11779" lon="1.11153">
        <ele>424</ele>
        <time>2021-05-16T13:23:19Z</time>
      </trkpt>
      <trkpt lat="43.11813" lon="1.11157">
        <ele>428</ele>
        <time>2021-05-16T13:23:25Z</time>
      </trkpt>
      <trkpt lat="43.11833" lon="1.11165">
        <ele>429</ele>
        <time>2021-05-16T13:23:29Z</time>
      </trkpt>
      <trkpt lat="43.12084" lon="1.11335">
        <ele>440</ele>
        <time>2021-05-16T13:24:19Z</time>
      </trkpt>
      <trkpt lat="43.12104" lon="1.11345">
        <ele>443</ele>
        <time>2021-05-16T13:24:23Z</time>
      </trkpt>
      <trkpt lat="43.1216" lon="1.1135">
        <ele>448</ele>
        <time>2021-05-16T13:24:33Z</time>
      </trkpt>
      <trkpt lat="43.12204" lon="1.11369">
        <ele>448</ele>
        <time>2021-05-16T13:24:41Z</time>
      </trkpt>
      <trkpt lat="43.1221" lon="1.11393">
        <ele>446</ele>
        <time>2021-05-16T13:24:44Z</time>
      </trkpt>
      <trkpt lat="43.12246" lon="1.11408">
        <ele>446</ele>
        <time>2021-05-16T13:24:51Z</time>
      </trkpt>
      <trkpt lat="43.12333" lon="1.11492">
        <ele>448</ele>
        <time>2021-05-16T13:25:10Z</time>
      </trkpt>
      <trkpt lat="43.12366" lon="1.11557">
        <ele>453</ele>
        <time>2021-05-16T13:25:20Z</time>
      </trkpt>
      <trkpt lat="43.12389" lon="1.117">
        <ele>460</ele>
        <time>2021-05-16T13:25:39Z</time>
      </trkpt>
      <trkpt lat="43.12404" lon="1.11886">
        <ele>465</ele>
        <time>2021-05-16T13:26:03Z</time>
      </trkpt>
      <trkpt lat="43.12411" lon="1.1201">
        <ele>454</ele>
        <time>2021-05-16T13:26:20Z</time>
      </trkpt>
      <trkpt lat="43.12437" lon="1.12018">
        <ele>450</ele>
        <time>2021-05-16T13:26:24Z</time>
      </trkpt>
      <trkpt lat="43.12542" lon="1.11993">
        <ele>440</ele>
        <time>2021-05-16T13:26:43Z</time>
      </trkpt>
      <trkpt lat="43.12587" lon="1.11985">
        <ele>435</ele>
        <time>2021-05-16T13:26:51Z</time>
      </trkpt>
      <trkpt lat="43.12678" lon="1.1198">
        <ele>428</ele>
        <time>2021-05-16T13:27:08Z</time>
      </trkpt>
      <trkpt lat="43.12775" lon="1.11892">
        <ele>429</ele>
        <time>2021-05-16T13:27:28Z</time>
      </trkpt>
      <trkpt lat="43.128" lon="1.11901">
        <ele>425</ele>
        <time>2021-05-16T13:27:33Z</time>
      </trkpt>
      <trkpt lat="43.12805" lon="1.11973">
        <ele>417</ele>
        <time>2021-05-16T13:27:42Z</time>
      </trkpt>
      <trkpt lat="43.12777" lon="1.12093">
        <ele>403</ele>
        <time>2021-05-16T13:27:59Z</time>
      </trkpt>
      <trkpt lat="43.12776" lon="1.12205">
        <ele>392</ele>
        <time>2021-05-16T13:28:13Z</time>
      </trkpt>
      <trkpt lat="43.12772" lon="1.12258">
        <ele>387</ele>
        <time>2021-05-16T13:28:20Z</time>
      </trkpt>
      <trkpt lat="43.1276" lon="1.12311">
        <ele>380</ele>
        <time>2021-05-16T13:28:27Z</time>
      </trkpt>
      <trkpt lat="43.12762" lon="1.1233">
        <ele>380</ele>
        <time>2021-05-16T13:28:30Z</time>
      </trkpt>
      <trkpt lat="43.12771" lon="1.12359">
        <ele>377</ele>
        <time>2021-05-16T13:28:34Z</time>
      </trkpt>
      <trkpt lat="43.12781" lon="1.12385">
        <ele>374</ele>
        <time>2021-05-16T13:28:38Z</time>
      </trkpt>
      <trkpt lat="43.12793" lon="1.12404">
        <ele>372</ele>
        <time>2021-05-16T13:28:41Z</time>
      </trkpt>
      <trkpt lat="43.12843" lon="1.12428">
        <ele>375</ele>
        <time>2021-05-16T13:28:50Z</time>
      </trkpt>
      <trkpt lat="43.12908" lon="1.12439">
        <ele>376</ele>
        <time>2021-05-16T13:29:02Z</time>
      </trkpt>
      <trkpt lat="43.12934" lon="1.12447">
        <ele>376</ele>
        <time>2021-05-16T13:29:07Z</time>
      </trkpt>
      <trkpt lat="43.12944" lon="1.12458">
        <ele>375</ele>
        <time>2021-05-16T13:29:09Z</time>
      </trkpt>
      <trkpt lat="43.12948" lon="1.12474">
        <ele>373</ele>
        <time>2021-05-16T13:29:11Z</time>
      </trkpt>
      <trkpt lat="43.12949" lon="1.12502">
        <ele>367</ele>
        <time>2021-05-16T13:29:15Z</time>
      </trkpt>
      <trkpt lat="43.12954" lon="1.1252">
        <ele>366</ele>
        <time>2021-05-16T13:29:17Z</time>
      </trkpt>
      <trkpt lat="43.12974" lon="1.12531">
        <ele>368</ele>
        <time>2021-05-16T13:29:21Z</time>
      </trkpt>
      <trkpt lat="43.12986" lon="1.12544">
        <ele>368</ele>
        <time>2021-05-16T13:29:24Z</time>
      </trkpt>
      <trkpt lat="43.12989" lon="1.12563">
        <ele>366</ele>
        <time>2021-05-16T13:29:27Z</time>
      </trkpt>
      <trkpt lat="43.12983" lon="1.12627">
        <ele>357</ele>
        <time>2021-05-16T13:29:35Z</time>
      </trkpt>
      <trkpt lat="43.12991" lon="1.12643">
        <ele>356</ele>
        <time>2021-05-16T13:29:37Z</time>
      </trkpt>
      <trkpt lat="43.13" lon="1.12647">
        <ele>357</ele>
        <time>2021-05-16T13:29:39Z</time>
      </trkpt>
      <trkpt lat="43.13014" lon="1.1265">
        <ele>355</ele>
        <time>2021-05-16T13:29:42Z</time>
      </trkpt>
      <trkpt lat="43.13025" lon="1.12648">
        <ele>355</ele>
        <time>2021-05-16T13:29:44Z</time>
      </trkpt>
      <trkpt lat="43.1304" lon="1.12636">
        <ele>355</ele>
        <time>2021-05-16T13:29:47Z</time>
      </trkpt>
      <trkpt lat="43.13053" lon="1.12623">
        <ele>355</ele>
        <time>2021-05-16T13:29:50Z</time>
      </trkpt>
      <trkpt lat="43.13073" lon="1.12588">
        <ele>357</ele>
        <time>2021-05-16T13:29:55Z</time>
      </trkpt>
      <trkpt lat="43.13083" lon="1.12584">
        <ele>357</ele>
        <time>2021-05-16T13:29:57Z</time>
      </trkpt>
      <trkpt lat="43.13092" lon="1.12585">
        <ele>356</ele>
        <time>2021-05-16T13:29:59Z</time>
      </trkpt>
      <trkpt lat="43.13103" lon="1.12592">
        <ele>353</ele>
        <time>2021-05-16T13:30:01Z</time>
      </trkpt>
      <trkpt lat="43.13112" lon="1.12605">
        <ele>351</ele>
        <time>2021-05-16T13:30:03Z</time>
      </trkpt>
      <trkpt lat="43.13121" lon="1.12626">
        <ele>349</ele>
        <time>2021-05-16T13:30:06Z</time>
      </trkpt>
      <trkpt lat="43.13163" lon="1.12775">
        <ele>346</ele>
        <time>2021-05-16T13:30:27Z</time>
      </trkpt>
      <trkpt lat="43.13174" lon="1.12843">
        <ele>348</ele>
        <time>2021-05-16T13:30:36Z</time>
      </trkpt>
      <trkpt lat="43.13183" lon="1.12879">
        <ele>348</ele>
        <time>2021-05-16T13:30:41Z</time>
      </trkpt>
      <trkpt lat="43.13217" lon="1.12986">
        <ele>347</ele>
        <time>2021-05-16T13:30:56Z</time>
      </trkpt>
      <trkpt lat="43.13225" lon="1.13042">
        <ele>344</ele>
        <time>2021-05-16T13:31:04Z</time>
      </trkpt>
      <trkpt lat="43.13234" lon="1.13149">
        <ele>337</ele>
        <time>2021-05-16T13:31:18Z</time>
      </trkpt>
      <trkpt lat="43.13224" lon="1.13187">
        <ele>335</ele>
        <time>2021-05-16T13:31:23Z</time>
      </trkpt>
      <trkpt lat="43.13223" lon="1.13213">
        <ele>334</ele>
        <time>2021-05-16T13:31:26Z</time>
      </trkpt>
      <trkpt lat="43.13226" lon="1.13245">
        <ele>333</ele>
        <time>2021-05-16T13:31:31Z</time>
      </trkpt>
      <trkpt lat="43.13231" lon="1.13272">
        <ele>331</ele>
        <time>2021-05-16T13:31:34Z</time>
      </trkpt>
      <trkpt lat="43.13274" lon="1.13338">
        <ele>325</ele>
        <time>2021-05-16T13:31:46Z</time>
      </trkpt>
      <trkpt lat="43.13344" lon="1.13566">
        <ele>317</ele>
        <time>2021-05-16T13:32:18Z</time>
      </trkpt>
      <trkpt lat="43.13435" lon="1.13663">
        <ele>314</ele>
        <time>2021-05-16T13:32:38Z</time>
      </trkpt>
      <trkpt lat="43.1356" lon="1.13716">
        <ele>330</ele>
        <time>2021-05-16T13:33:02Z</time>
      </trkpt>
      <trkpt lat="43.13662" lon="1.1378">
        <ele>336</ele>
        <time>2021-05-16T13:33:21Z</time>
      </trkpt>
      <trkpt lat="43.13752" lon="1.13899">
        <ele>322</ele>
        <time>2021-05-16T13:33:44Z</time>
      </trkpt>
      <trkpt lat="43.13743" lon="1.14031">
        <ele>308</ele>
        <time>2021-05-16T13:34:01Z</time>
      </trkpt>
      <trkpt lat="43.13782" lon="1.14056">
        <ele>305</ele>
        <time>2021-05-16T13:34:09Z</time>
      </trkpt>
      <trkpt lat="43.13791" lon="1.14079">
        <ele>303</ele>
        <time>2021-05-16T13:34:12Z</time>
      </trkpt>
      <trkpt lat="43.13796" lon="1.14111">
        <ele>302</ele>
        <time>2021-05-16T13:34:16Z</time>
      </trkpt>
      <trkpt lat="43.13804" lon="1.1438">
        <ele>288</ele>
        <time>2021-05-16T13:34:51Z</time>
      </trkpt>
      <trkpt lat="43.13814" lon="1.14414">
        <ele>287</ele>
        <time>2021-05-16T13:34:56Z</time>
      </trkpt>
      <trkpt lat="43.13829" lon="1.14434">
        <ele>287</ele>
        <time>2021-05-16T13:35:00Z</time>
      </trkpt>
      <trkpt lat="43.13862" lon="1.14454">
        <ele>289</ele>
        <time>2021-05-16T13:35:06Z</time>
      </trkpt>
      <trkpt lat="43.13878" lon="1.14462">
        <ele>290</ele>
        <time>2021-05-16T13:35:09Z</time>
      </trkpt>
      <trkpt lat="43.13894" lon="1.14474">
        <ele>291</ele>
        <time>2021-05-16T13:35:12Z</time>
      </trkpt>
      <trkpt lat="43.13879" lon="1.1449">
        <ele>291</ele>
        <time>2021-05-16T13:35:16Z</time>
      </trkpt>
      <trkpt lat="43.13867" lon="1.14499">
        <ele>291</ele>
        <time>2021-05-16T13:35:18Z</time>
      </trkpt>
      <trkpt lat="43.13879" lon="1.1449">
        <ele>291</ele>
        <time>2021-05-16T13:35:21Z</time>
      </trkpt>
      <trkpt lat="43.13894" lon="1.14474">
        <ele>291</ele>
        <time>2021-05-16T13:35:24Z</time>
      </trkpt>
      <trkpt lat="43.13923" lon="1.1445">
        <ele>291</ele>
        <time>2021-05-16T13:35:30Z</time>
      </trkpt>
      <trkpt lat="43.1411" lon="1.1433">
        <ele>290</ele>
        <time>2021-05-16T13:36:07Z</time>
      </trkpt>
      <trkpt lat="43.14131" lon="1.1431">
        <ele>292</ele>
        <time>2021-05-16T13:36:11Z</time>
      </trkpt>
      <trkpt lat="43.14155" lon="1.14272">
        <ele>292</ele>
        <time>2021-05-16T13:36:18Z</time>
      </trkpt>
      <trkpt lat="43.14165" lon="1.14259">
        <ele>292</ele>
        <time>2021-05-16T13:36:20Z</time>
      </trkpt>
      <trkpt lat="43.14172" lon="1.14255">
        <ele>292</ele>
        <time>2021-05-16T13:36:22Z</time>
      </trkpt>
      <trkpt lat="43.1418" lon="1.14251">
        <ele>293</ele>
        <time>2021-05-16T13:36:23Z</time>
      </trkpt>
      <trkpt lat="43.14195" lon="1.14258">
        <ele>294</ele>
        <time>2021-05-16T13:36:26Z</time>
      </trkpt>
      <trkpt lat="43.14217" lon="1.14274">
        <ele>297</ele>
        <time>2021-05-16T13:36:30Z</time>
      </trkpt>
      <trkpt lat="43.14227" lon="1.14274">
        <ele>297</ele>
        <time>2021-05-16T13:36:32Z</time>
      </trkpt>
      <trkpt lat="43.14233" lon="1.14271">
        <ele>298</ele>
        <time>2021-05-16T13:36:33Z</time>
      </trkpt>
      <trkpt lat="43.14244" lon="1.1426">
        <ele>299</ele>
        <time>2021-05-16T13:36:36Z</time>
      </trkpt>
      <trkpt lat="43.14257" lon="1.14256">
        <ele>300</ele>
        <time>2021-05-16T13:36:38Z</time>
      </trkpt>
      <trkpt lat="43.14313" lon="1.14277">
        <ele>298</ele>
        <time>2021-05-16T13:36:48Z</time>
      </trkpt>
      <trkpt lat="43.14345" lon="1.14278">
        <ele>296</ele>
        <time>2021-05-16T13:36:54Z</time>
      </trkpt>
      <trkpt lat="43.14372" lon="1.14266">
        <ele>297</ele>
        <time>2021-05-16T13:36:59Z</time>
      </trkpt>
      <trkpt lat="43.14473" lon="1.1415">
        <ele>295</ele>
        <time>2021-05-16T13:37:23Z</time>
      </trkpt>
      <trkpt lat="43.14495" lon="1.14125">
        <ele>292</ele>
        <time>2021-05-16T13:37:28Z</time>
      </trkpt>
      <trkpt lat="43.14542" lon="1.14071">
        <ele>299</ele>
        <time>2021-05-16T13:37:39Z</time>
      </trkpt>
      <trkpt lat="43.14585" lon="1.14006">
        <ele>292</ele>
        <time>2021-05-16T13:37:50Z</time>
      </trkpt>
      <trkpt lat="43.14688" lon="1.13859">
        <ele>296</ele>
        <time>2021-05-16T13:38:17Z</time>
      </trkpt>
      <trkpt lat="43.14746" lon="1.13786">
        <ele>296</ele>
        <time>2021-05-16T13:38:31Z</time>
      </trkpt>
      <trkpt lat="43.1478" lon="1.13749">
        <ele>295</ele>
        <time>2021-05-16T13:38:38Z</time>
      </trkpt>
      <trkpt lat="43.14919" lon="1.1364">
        <ele>289</ele>
        <time>2021-05-16T13:39:07Z</time>
      </trkpt>
      <trkpt lat="43.14961" lon="1.13609">
        <ele>285</ele>
        <time>2021-05-16T13:39:15Z</time>
      </trkpt>
      <trkpt lat="43.15015" lon="1.13575">
        <ele>282</ele>
        <time>2021-05-16T13:39:26Z</time>
      </trkpt>
      <trkpt lat="43.15118" lon="1.13516">
        <ele>284</ele>
        <time>2021-05-16T13:39:46Z</time>
      </trkpt>
      <trkpt lat="43.15165" lon="1.13483">
        <ele>284</ele>
        <time>2021-05-16T13:39:55Z</time>
      </trkpt>
      <trkpt lat="43.15183" lon="1.1346">
        <ele>284</ele>
        <time>2021-05-16T13:39:59Z</time>
      </trkpt>
      <trkpt lat="43.15264" lon="1.13298">
        <ele>284</ele>
        <time>2021-05-16T13:40:25Z</time>
      </trkpt>
      <trkpt lat="43.15275" lon="1.13265">
        <ele>284</ele>
        <time>2021-05-16T13:40:30Z</time>
      </trkpt>
      <trkpt lat="43.15279" lon="1.13235">
        <ele>284</ele>
        <time>2021-05-16T13:40:34Z</time>
      </trkpt>
      <trkpt lat="43.15276" lon="1.1321">
        <ele>283</ele>
        <time>2021-05-16T13:40:37Z</time>
      </trkpt>
      <trkpt lat="43.15259" lon="1.13155">
        <ele>278</ele>
        <time>2021-05-16T13:40:45Z</time>
      </trkpt>
      <trkpt lat="43.15258" lon="1.13087">
        <ele>279</ele>
        <time>2021-05-16T13:40:53Z</time>
      </trkpt>
      <trkpt lat="43.15283" lon="1.12931">
        <ele>286</ele>
        <time>2021-05-16T13:41:14Z</time>
      </trkpt>
      <trkpt lat="43.15311" lon="1.12874">
        <ele>287</ele>
        <time>2021-05-16T13:41:23Z</time>
      </trkpt>
      <trkpt lat="43.15362" lon="1.12817">
        <ele>285</ele>
        <time>2021-05-16T13:41:35Z</time>
      </trkpt>
      <trkpt lat="43.15517" lon="1.12754">
        <ele>275</ele>
        <time>2021-05-16T13:42:04Z</time>
      </trkpt>
      <trkpt lat="43.15545" lon="1.12737">
        <ele>273</ele>
        <time>2021-05-16T13:42:09Z</time>
      </trkpt>
      <trkpt lat="43.15564" lon="1.12716">
        <ele>272</ele>
        <time>2021-05-16T13:42:13Z</time>
      </trkpt>
      <trkpt lat="43.15573" lon="1.12698">
        <ele>271</ele>
        <time>2021-05-16T13:42:16Z</time>
      </trkpt>
      <trkpt lat="43.15584" lon="1.1267">
        <ele>269</ele>
        <time>2021-05-16T13:42:20Z</time>
      </trkpt>
      <trkpt lat="43.15674" lon="1.12457">
        <ele>270</ele>
        <time>2021-05-16T13:42:52Z</time>
      </trkpt>
      <trkpt lat="43.15688" lon="1.12422">
        <ele>271</ele>
        <time>2021-05-16T13:42:57Z</time>
      </trkpt>
      <trkpt lat="43.15709" lon="1.12399">
        <ele>272</ele>
        <time>2021-05-16T13:43:02Z</time>
      </trkpt>
      <trkpt lat="43.15744" lon="1.12365">
        <ele>273</ele>
        <time>2021-05-16T13:43:10Z</time>
      </trkpt>
      <trkpt lat="43.15789" lon="1.1231">
        <ele>272</ele>
        <time>2021-05-16T13:43:21Z</time>
      </trkpt>
      <trkpt lat="43.15811" lon="1.12288">
        <ele>271</ele>
        <time>2021-05-16T13:43:25Z</time>
      </trkpt>
      <trkpt lat="43.15838" lon="1.12274">
        <ele>269</ele>
        <time>2021-05-16T13:43:31Z</time>
      </trkpt>
      <trkpt lat="43.15965" lon="1.12229">
        <ele>269</ele>
        <time>2021-05-16T13:43:54Z</time>
      </trkpt>
      <trkpt lat="43.16026" lon="1.12204">
        <ele>269</ele>
        <time>2021-05-16T13:44:05Z</time>
      </trkpt>
      <trkpt lat="43.16174" lon="1.12074">
        <ele>269</ele>
        <time>2021-05-16T13:44:37Z</time>
      </trkpt>
      <trkpt lat="43.16202" lon="1.12063">
        <ele>269</ele>
        <time>2021-05-16T13:44:42Z</time>
      </trkpt>
      <trkpt lat="43.16274" lon="1.12063">
        <ele>269</ele>
        <time>2021-05-16T13:44:55Z</time>
      </trkpt>
      <trkpt lat="43.16302" lon="1.12057">
        <ele>269</ele>
        <time>2021-05-16T13:45:00Z</time>
      </trkpt>
      <trkpt lat="43.16401" lon="1.11976">
        <ele>269</ele>
        <time>2021-05-16T13:45:20Z</time>
      </trkpt>
      <trkpt lat="43.16419" lon="1.11969">
        <ele>268</ele>
        <time>2021-05-16T13:45:23Z</time>
      </trkpt>
      <trkpt lat="43.16439" lon="1.11966">
        <ele>268</ele>
        <time>2021-05-16T13:45:27Z</time>
      </trkpt>
      <trkpt lat="43.16447" lon="1.11971">
        <ele>268</ele>
        <time>2021-05-16T13:45:29Z</time>
      </trkpt>
      <trkpt lat="43.16482" lon="1.12004">
        <ele>267</ele>
        <time>2021-05-16T13:45:36Z</time>
      </trkpt>
      <trkpt lat="43.16546" lon="1.12075">
        <ele>264</ele>
        <time>2021-05-16T13:45:51Z</time>
      </trkpt>
      <trkpt lat="43.16565" lon="1.12087">
        <ele>264</ele>
        <time>2021-05-16T13:45:54Z</time>
      </trkpt>
      <trkpt lat="43.16582" lon="1.12098">
        <ele>263</ele>
        <time>2021-05-16T13:45:58Z</time>
      </trkpt>
      <trkpt lat="43.16594" lon="1.12101">
        <ele>263</ele>
        <time>2021-05-16T13:46:00Z</time>
      </trkpt>
      <trkpt lat="43.16603" lon="1.12099">
        <ele>264</ele>
        <time>2021-05-16T13:46:02Z</time>
      </trkpt>
      <trkpt lat="43.1661" lon="1.12109">
        <ele>264</ele>
        <time>2021-05-16T13:46:03Z</time>
      </trkpt>
      <trkpt lat="43.16617" lon="1.12106">
        <ele>264</ele>
        <time>2021-05-16T13:46:05Z</time>
      </trkpt>
      <trkpt lat="43.16626" lon="1.12108">
        <ele>264</ele>
        <time>2021-05-16T13:46:06Z</time>
      </trkpt>
      <trkpt lat="43.16639" lon="1.12105">
        <ele>265</ele>
        <time>2021-05-16T13:46:09Z</time>
      </trkpt>
      <trkpt lat="43.16674" lon="1.12133">
        <ele>266</ele>
        <time>2021-05-16T13:46:16Z</time>
      </trkpt>
      <trkpt lat="43.16718" lon="1.12044">
        <ele>264</ele>
        <time>2021-05-16T13:46:30Z</time>
      </trkpt>
      <trkpt lat="43.16732" lon="1.12012">
        <ele>263</ele>
        <time>2021-05-16T13:46:35Z</time>
      </trkpt>
      <trkpt lat="43.16735" lon="1.12012">
        <ele>263</ele>
        <time>2021-05-16T13:46:35Z</time>
      </trkpt>
      <trkpt lat="43.16739" lon="1.1201">
        <ele>263</ele>
        <time>2021-05-16T13:46:36Z</time>
      </trkpt>
      <trkpt lat="43.16741" lon="1.12004">
        <ele>263</ele>
        <time>2021-05-16T13:46:37Z</time>
      </trkpt>
      <trkpt lat="43.16739" lon="1.11999">
        <ele>263</ele>
        <time>2021-05-16T13:46:38Z</time>
      </trkpt>
      <trkpt lat="43.16737" lon="1.11997">
        <ele>263</ele>
        <time>2021-05-16T13:46:38Z</time>
      </trkpt>
      <trkpt lat="43.16761" lon="1.1195">
        <ele>263</ele>
        <time>2021-05-16T13:46:45Z</time>
      </trkpt>
      <trkpt lat="43.16802" lon="1.11862">
        <ele>263</ele>
        <time>2021-05-16T13:46:59Z</time>
      </trkpt>
      <trkpt lat="43.16824" lon="1.11838">
        <ele>263</ele>
        <time>2021-05-16T13:47:04Z</time>
      </trkpt>
      <trkpt lat="43.16898" lon="1.11775">
        <ele>260</ele>
        <time>2021-05-16T13:47:20Z</time>
      </trkpt>
      <trkpt lat="43.16922" lon="1.11744">
        <ele>259</ele>
        <time>2021-05-16T13:47:25Z</time>
      </trkpt>
      <trkpt lat="43.16958" lon="1.11707">
        <ele>261</ele>
        <time>2021-05-16T13:47:33Z</time>
      </trkpt>
      <trkpt lat="43.16982" lon="1.11676">
        <ele>261</ele>
        <time>2021-05-16T13:47:39Z</time>
      </trkpt>
      <trkpt lat="43.17029" lon="1.11619">
        <ele>263</ele>
        <time>2021-05-16T13:47:50Z</time>
      </trkpt>
      <trkpt lat="43.17046" lon="1.11609">
        <ele>262</ele>
        <time>2021-05-16T13:47:54Z</time>
      </trkpt>
      <trkpt lat="43.17142" lon="1.11566">
        <ele>259</ele>
        <time>2021-05-16T13:48:12Z</time>
      </trkpt>
      <trkpt lat="43.17386" lon="1.11468">
        <ele>259</ele>
        <time>2021-05-16T13:48:57Z</time>
      </trkpt>
      <trkpt lat="43.17415" lon="1.11447">
        <ele>260</ele>
        <time>2021-05-16T13:49:03Z</time>
      </trkpt>
      <trkpt lat="43.17436" lon="1.11424">
        <ele>262</ele>
        <time>2021-05-16T13:49:08Z</time>
      </trkpt>
      <trkpt lat="43.17801" lon="1.10927">
        <ele>265</ele>
        <time>2021-05-16T13:50:39Z</time>
      </trkpt>
      <trkpt lat="43.17815" lon="1.10908">
        <ele>265</ele>
        <time>2021-05-16T13:50:43Z</time>
      </trkpt>
      <trkpt lat="43.17823" lon="1.10897">
        <ele>265</ele>
        <time>2021-05-16T13:50:45Z</time>
      </trkpt>
      <trkpt lat="43.17847" lon="1.10874">
        <ele>266</ele>
        <time>2021-05-16T13:50:50Z</time>
      </trkpt>
      <trkpt lat="43.18079" lon="1.10713">
        <ele>271</ele>
        <time>2021-05-16T13:51:36Z</time>
      </trkpt>
      <trkpt lat="43.18113" lon="1.10703">
        <ele>272</ele>
        <time>2021-05-16T13:51:42Z</time>
      </trkpt>
      <trkpt lat="43.1813" lon="1.10702">
        <ele>273</ele>
        <time>2021-05-16T13:51:45Z</time>
      </trkpt>
      <trkpt lat="43.18164" lon="1.107">
        <ele>274</ele>
        <time>2021-05-16T13:51:51Z</time>
      </trkpt>
      <trkpt lat="43.18654" lon="1.10718">
        <ele>257</ele>
        <time>2021-05-16T13:53:19Z</time>
      </trkpt>
      <trkpt lat="43.18726" lon="1.10714">
        <ele>256</ele>
        <time>2021-05-16T13:53:31Z</time>
      </trkpt>
      <trkpt lat="43.1874" lon="1.10711">
        <ele>256</ele>
        <time>2021-05-16T13:53:34Z</time>
      </trkpt>
      <trkpt lat="43.18787" lon="1.10676">
        <ele>257</ele>
        <time>2021-05-16T13:53:43Z</time>
      </trkpt>
      <trkpt lat="43.18876" lon="1.10628">
        <ele>257</ele>
        <time>2021-05-16T13:54:00Z</time>
      </trkpt>
      <trkpt lat="43.18887" lon="1.10621">
        <ele>257</ele>
        <time>2021-05-16T13:54:03Z</time>
      </trkpt>
      <trkpt lat="43.18956" lon="1.10582">
        <ele>257</ele>
        <time>2021-05-16T13:54:16Z</time>
      </trkpt>
      <trkpt lat="43.18991" lon="1.10573">
        <ele>258</ele>
        <time>2021-05-16T13:54:22Z</time>
      </trkpt>
      <trkpt lat="43.19099" lon="1.10548">
        <ele>256</ele>
        <time>2021-05-16T13:54:42Z</time>
      </trkpt>
      <trkpt lat="43.19453" lon="1.10425">
        <ele>256</ele>
        <time>2021-05-16T13:55:47Z</time>
      </trkpt>
      <trkpt lat="43.19461" lon="1.10423">
        <ele>256</ele>
        <time>2021-05-16T13:55:48Z</time>
      </trkpt>
      <trkpt lat="43.19484" lon="1.10413">
        <ele>256</ele>
        <time>2021-05-16T13:55:52Z</time>
      </trkpt>
      <trkpt lat="43.19677" lon="1.10377">
        <ele>257</ele>
        <time>2021-05-16T13:56:27Z</time>
      </trkpt>
      <trkpt lat="43.19714" lon="1.10366">
        <ele>257</ele>
        <time>2021-05-16T13:56:34Z</time>
      </trkpt>
      <trkpt lat="43.19739" lon="1.10351">
        <ele>258</ele>
        <time>2021-05-16T13:56:39Z</time>
      </trkpt>
      <trkpt lat="43.19761" lon="1.10319">
        <ele>260</ele>
        <time>2021-05-16T13:56:44Z</time>
      </trkpt>
      <trkpt lat="43.19771" lon="1.10303">
        <ele>260</ele>
        <time>2021-05-16T13:56:47Z</time>
      </trkpt>
      <trkpt lat="43.19785" lon="1.10285">
        <ele>261</ele>
        <time>2021-05-16T13:56:51Z</time>
      </trkpt>
      <trkpt lat="43.1981" lon="1.10238">
        <ele>262</ele>
        <time>2021-05-16T13:56:58Z</time>
      </trkpt>
      <trkpt lat="43.19828" lon="1.10199">
        <ele>264</ele>
        <time>2021-05-16T13:57:04Z</time>
      </trkpt>
      <trkpt lat="43.19835" lon="1.10178">
        <ele>265</ele>
        <time>2021-05-16T13:57:07Z</time>
      </trkpt>
      <trkpt lat="43.19843" lon="1.10145">
        <ele>267</ele>
        <time>2021-05-16T13:57:12Z</time>
      </trkpt>
      <trkpt lat="43.19887" lon="1.09914">
        <ele>271</ele>
        <time>2021-05-16T13:57:43Z</time>
      </trkpt>
      <trkpt lat="43.19906" lon="1.09804">
        <ele>273</ele>
        <time>2021-05-16T13:57:57Z</time>
      </trkpt>
      <trkpt lat="43.19914" lon="1.0977">
        <ele>274</ele>
        <time>2021-05-16T13:58:02Z</time>
      </trkpt>
      <trkpt lat="43.19924" lon="1.09741">
        <ele>275</ele>
        <time>2021-05-16T13:58:06Z</time>
      </trkpt>
      <trkpt lat="43.19934" lon="1.09718">
        <ele>275</ele>
        <time>2021-05-16T13:58:09Z</time>
      </trkpt>
      <trkpt lat="43.19991" lon="1.09633">
        <ele>276</ele>
        <time>2021-05-16T13:58:24Z</time>
      </trkpt>
      <trkpt lat="43.20045" lon="1.09542">
        <ele>270</ele>
        <time>2021-05-16T13:58:40Z</time>
      </trkpt>
      <trkpt lat="43.20181" lon="1.09289">
        <ele>251</ele>
        <time>2021-05-16T13:59:20Z</time>
      </trkpt>
      <trkpt lat="43.20341" lon="1.08996">
        <ele>242</ele>
        <time>2021-05-16T14:00:08Z</time>
      </trkpt>
      <trkpt lat="43.20375" lon="1.08925">
        <ele>239</ele>
        <time>2021-05-16T14:00:19Z</time>
      </trkpt>
      <trkpt lat="43.20383" lon="1.08916">
        <ele>239</ele>
        <time>2021-05-16T14:00:21Z</time>
      </trkpt>
      <trkpt lat="43.20389" lon="1.08914">
        <ele>238</ele>
        <time>2021-05-16T14:00:22Z</time>
      </trkpt>
      <trkpt lat="43.20394" lon="1.08909">
        <ele>238</ele>
        <time>2021-05-16T14:00:23Z</time>
      </trkpt>
      <trkpt lat="43.20398" lon="1.08903">
        <ele>237</ele>
        <time>2021-05-16T14:00:24Z</time>
      </trkpt>
      <trkpt lat="43.20414" lon="1.08897">
        <ele>237</ele>
        <time>2021-05-16T14:00:27Z</time>
      </trkpt>
      <trkpt lat="43.20422" lon="1.08898">
        <ele>236</ele>
        <time>2021-05-16T14:00:28Z</time>
      </trkpt>
      <trkpt lat="43.20433" lon="1.08908">
        <ele>236</ele>
        <time>2021-05-16T14:00:31Z</time>
      </trkpt>
      <trkpt lat="43.20444" lon="1.08925">
        <ele>237</ele>
        <time>2021-05-16T14:00:34Z</time>
      </trkpt>
      <trkpt lat="43.20451" lon="1.0895">
        <ele>237</ele>
        <time>2021-05-16T14:00:37Z</time>
      </trkpt>
      <trkpt lat="43.2046" lon="1.09074">
        <ele>237</ele>
        <time>2021-05-16T14:00:53Z</time>
      </trkpt>
      <trkpt lat="43.20462" lon="1.09125">
        <ele>238</ele>
        <time>2021-05-16T14:01:00Z</time>
      </trkpt>
      <trkpt lat="43.20458" lon="1.09253">
        <ele>238</ele>
        <time>2021-05-16T14:01:17Z</time>
      </trkpt>
      <trkpt lat="43.20453" lon="1.09309">
        <ele>238</ele>
        <time>2021-05-16T14:01:24Z</time>
      </trkpt>
      <trkpt lat="43.20456" lon="1.09269">
        <ele>238</ele>
        <time>2021-05-16T14:01:29Z</time>
      </trkpt>
      <trkpt lat="43.20487" lon="1.09267">
        <ele>238</ele>
        <time>2021-05-16T14:01:35Z</time>
      </trkpt>
      <trkpt lat="43.20504" lon="1.0925">
        <ele>238</ele>
        <time>2021-05-16T14:01:38Z</time>
      </trkpt>
    </trkseg>
  </trk>
</gpx>